<?xml version="1.0" encoding="UTF-8" standalone="no" ?>
<gpx xmlns="http://www.topografix.com/GPX/1/1" xmlns:xsi="http://www.w3.org/2001/XMLSchema-instance" xsi:schemaLocation="http://www.topografix.com/GPX/1/1 http://www.topografix.com/GPX/1/1/gpx.xsd" version="1.1" creator="VisuGPX - https://www.visugpx.com">
  <metadata>
    <name>Gr76 d'AFFOUX à TERNAND</name>
    <desc><![CDATA[Première étape sur le GR 76 d'AFFOUX à CLUNY.
Belle ballade avec une étape à la 6ème Faute à TARARE.
Pour boire un café !
Paysages magnifique !
]]></desc>
  </metadata>
  <trk>
    <name><![CDATA[2018-05-20 15:32:52]]></name>
    <trkseg>
      <trkpt lat="45.8511" lon="4.39209">
        <ele>396.68</ele>
        <time>2018-05-20T06:28:48Z</time>
      </trkpt>
      <trkpt lat="45.851" lon="4.39226">
        <ele>404.37</ele>
        <time>2018-05-20T06:29:02Z</time>
      </trkpt>
      <trkpt lat="45.85073" lon="4.39255">
        <ele>421.68</ele>
        <time>2018-05-20T06:29:22Z</time>
      </trkpt>
      <trkpt lat="45.85059" lon="4.39275">
        <ele>426.96</ele>
        <time>2018-05-20T06:29:28Z</time>
      </trkpt>
      <trkpt lat="45.85014" lon="4.39323">
        <ele>430.33</ele>
        <time>2018-05-20T06:29:56Z</time>
      </trkpt>
      <trkpt lat="45.85017" lon="4.39348">
        <ele>430.33</ele>
        <time>2018-05-20T06:30:04Z</time>
      </trkpt>
      <trkpt lat="45.85014" lon="4.39382">
        <ele>451</ele>
        <time>2018-05-20T06:30:24Z</time>
      </trkpt>
      <trkpt lat="45.84981" lon="4.39427">
        <ele>469.26</ele>
        <time>2018-05-20T06:30:45Z</time>
      </trkpt>
      <trkpt lat="45.84972" lon="4.39438">
        <ele>474.07</ele>
        <time>2018-05-20T06:30:51Z</time>
      </trkpt>
      <trkpt lat="45.84947" lon="4.39473">
        <ele>489.93</ele>
        <time>2018-05-20T06:31:10Z</time>
      </trkpt>
      <trkpt lat="45.84924" lon="4.39509">
        <ele>510.12</ele>
        <time>2018-05-20T06:31:31Z</time>
      </trkpt>
      <trkpt lat="45.84817" lon="4.39715">
        <ele>605.77</ele>
        <time>2018-05-20T06:31:48Z</time>
      </trkpt>
      <trkpt lat="45.84692" lon="4.39945">
        <ele>723.05</ele>
        <time>2018-05-20T06:32:00Z</time>
      </trkpt>
      <trkpt lat="45.84664" lon="4.40002">
        <ele>772.08</ele>
        <time>2018-05-20T06:32:09Z</time>
      </trkpt>
      <trkpt lat="45.84651" lon="4.40054">
        <ele>812.45</ele>
        <time>2018-05-20T06:32:24Z</time>
      </trkpt>
      <trkpt lat="45.84657" lon="4.4008">
        <ele>816.78</ele>
        <time>2018-05-20T06:32:43Z</time>
      </trkpt>
      <trkpt lat="45.84661" lon="4.40109">
        <ele>821.1</ele>
        <time>2018-05-20T06:33:03Z</time>
      </trkpt>
      <trkpt lat="45.84667" lon="4.4014">
        <ele>823.03</ele>
        <time>2018-05-20T06:33:22Z</time>
      </trkpt>
      <trkpt lat="45.84673" lon="4.40151">
        <ele>825.91</ele>
        <time>2018-05-20T06:33:38Z</time>
      </trkpt>
      <trkpt lat="45.8468" lon="4.40178">
        <ele>827.83</ele>
        <time>2018-05-20T06:33:56Z</time>
      </trkpt>
      <trkpt lat="45.84685" lon="4.40206">
        <ele>829.27</ele>
        <time>2018-05-20T06:34:13Z</time>
      </trkpt>
      <trkpt lat="45.84691" lon="4.40235">
        <ele>830.72</ele>
        <time>2018-05-20T06:34:30Z</time>
      </trkpt>
      <trkpt lat="45.84696" lon="4.40263">
        <ele>832.16</ele>
        <time>2018-05-20T06:34:46Z</time>
      </trkpt>
      <trkpt lat="45.84703" lon="4.40288">
        <ele>833.6</ele>
        <time>2018-05-20T06:35:02Z</time>
      </trkpt>
      <trkpt lat="45.84709" lon="4.40319">
        <ele>836</ele>
        <time>2018-05-20T06:35:22Z</time>
      </trkpt>
      <trkpt lat="45.84711" lon="4.4035">
        <ele>836.96</ele>
        <time>2018-05-20T06:35:39Z</time>
      </trkpt>
      <trkpt lat="45.84716" lon="4.40382">
        <ele>838.41</ele>
        <time>2018-05-20T06:35:56Z</time>
      </trkpt>
      <trkpt lat="45.84717" lon="4.40395">
        <ele>842.73</ele>
        <time>2018-05-20T06:36:03Z</time>
      </trkpt>
      <trkpt lat="45.84717" lon="4.40398">
        <ele>843.21</ele>
        <time>2018-05-20T06:36:04Z</time>
      </trkpt>
      <trkpt lat="45.84717" lon="4.40401">
        <ele>843.69</ele>
        <time>2018-05-20T06:36:05Z</time>
      </trkpt>
      <trkpt lat="45.84717" lon="4.40403">
        <ele>843.69</ele>
        <time>2018-05-20T06:36:06Z</time>
      </trkpt>
      <trkpt lat="45.84718" lon="4.40405">
        <ele>844.18</ele>
        <time>2018-05-20T06:36:07Z</time>
      </trkpt>
      <trkpt lat="45.84718" lon="4.40406">
        <ele>844.18</ele>
        <time>2018-05-20T06:36:08Z</time>
      </trkpt>
      <trkpt lat="45.84717" lon="4.40409">
        <ele>844.66</ele>
        <time>2018-05-20T06:36:09Z</time>
      </trkpt>
      <trkpt lat="45.84718" lon="4.40411">
        <ele>845.14</ele>
        <time>2018-05-20T06:36:10Z</time>
      </trkpt>
      <trkpt lat="45.84718" lon="4.40413">
        <ele>845.14</ele>
        <time>2018-05-20T06:36:11Z</time>
      </trkpt>
      <trkpt lat="45.8473" lon="4.4044">
        <ele>847.54</ele>
        <time>2018-05-20T06:36:32Z</time>
      </trkpt>
      <trkpt lat="45.84744" lon="4.40445">
        <ele>848.02</ele>
        <time>2018-05-20T06:36:43Z</time>
      </trkpt>
      <trkpt lat="45.84767" lon="4.40468">
        <ele>849.46</ele>
        <time>2018-05-20T06:37:02Z</time>
      </trkpt>
      <trkpt lat="45.84789" lon="4.4048">
        <ele>850.42</ele>
        <time>2018-05-20T06:37:24Z</time>
      </trkpt>
      <trkpt lat="45.84793" lon="4.40481">
        <ele>849.94</ele>
        <time>2018-05-20T06:37:27Z</time>
      </trkpt>
      <trkpt lat="45.84821" lon="4.40495">
        <ele>845.62</ele>
        <time>2018-05-20T06:37:51Z</time>
      </trkpt>
      <trkpt lat="45.84846" lon="4.4053">
        <ele>839.85</ele>
        <time>2018-05-20T06:38:13Z</time>
      </trkpt>
      <trkpt lat="45.84861" lon="4.40565">
        <ele>836.48</ele>
        <time>2018-05-20T06:38:35Z</time>
      </trkpt>
      <trkpt lat="45.84867" lon="4.40586">
        <ele>832.64</ele>
        <time>2018-05-20T06:38:56Z</time>
      </trkpt>
      <trkpt lat="45.8487" lon="4.40596">
        <ele>831.68</ele>
        <time>2018-05-20T06:39:02Z</time>
      </trkpt>
      <trkpt lat="45.84884" lon="4.40608">
        <ele>833.6</ele>
        <time>2018-05-20T06:39:05Z</time>
      </trkpt>
      <trkpt lat="45.84897" lon="4.40624">
        <ele>834.56</ele>
        <time>2018-05-20T06:39:24Z</time>
      </trkpt>
      <trkpt lat="45.84932" lon="4.40628">
        <ele>833.6</ele>
        <time>2018-05-20T06:40:02Z</time>
      </trkpt>
      <trkpt lat="45.84932" lon="4.40684">
        <ele>834.56</ele>
        <time>2018-05-20T06:40:34Z</time>
      </trkpt>
      <trkpt lat="45.84938" lon="4.40741">
        <ele>834.56</ele>
        <time>2018-05-20T06:40:58Z</time>
      </trkpt>
      <trkpt lat="45.85126" lon="4.40847">
        <ele>835.04</ele>
        <time>2018-05-20T06:42:57Z</time>
      </trkpt>
      <trkpt lat="45.85144" lon="4.40849">
        <ele>836</ele>
        <time>2018-05-20T06:43:22Z</time>
      </trkpt>
      <trkpt lat="45.85177" lon="4.40845">
        <ele>836</ele>
        <time>2018-05-20T06:43:41Z</time>
      </trkpt>
      <trkpt lat="45.85205" lon="4.40842">
        <ele>841.77</ele>
        <time>2018-05-20T06:44:04Z</time>
      </trkpt>
      <trkpt lat="45.85225" lon="4.40841">
        <ele>837.93</ele>
        <time>2018-05-20T06:44:27Z</time>
      </trkpt>
      <trkpt lat="45.85242" lon="4.40831">
        <ele>839.37</ele>
        <time>2018-05-20T06:44:45Z</time>
      </trkpt>
      <trkpt lat="45.85258" lon="4.40823">
        <ele>836</ele>
        <time>2018-05-20T06:45:01Z</time>
      </trkpt>
      <trkpt lat="45.85284" lon="4.40817">
        <ele>830.24</ele>
        <time>2018-05-20T06:45:20Z</time>
      </trkpt>
      <trkpt lat="45.85321" lon="4.40815">
        <ele>827.83</ele>
        <time>2018-05-20T06:45:44Z</time>
      </trkpt>
      <trkpt lat="45.85351" lon="4.40815">
        <ele>823.51</ele>
        <time>2018-05-20T06:46:04Z</time>
      </trkpt>
      <trkpt lat="45.85374" lon="4.40816">
        <ele>819.18</ele>
        <time>2018-05-20T06:46:26Z</time>
      </trkpt>
      <trkpt lat="45.85397" lon="4.4082">
        <ele>820.62</ele>
        <time>2018-05-20T06:46:47Z</time>
      </trkpt>
      <trkpt lat="45.85411" lon="4.40817">
        <ele>813.89</ele>
        <time>2018-05-20T06:47:10Z</time>
      </trkpt>
      <trkpt lat="45.85451" lon="4.4082">
        <ele>810.53</ele>
        <time>2018-05-20T06:47:21Z</time>
      </trkpt>
      <trkpt lat="45.85483" lon="4.40836">
        <ele>809.57</ele>
        <time>2018-05-20T06:47:39Z</time>
      </trkpt>
      <trkpt lat="45.85506" lon="4.40853">
        <ele>811.01</ele>
        <time>2018-05-20T06:47:57Z</time>
      </trkpt>
      <trkpt lat="45.8552" lon="4.40867">
        <ele>809.57</ele>
        <time>2018-05-20T06:48:11Z</time>
      </trkpt>
      <trkpt lat="45.85538" lon="4.40881">
        <ele>806.2</ele>
        <time>2018-05-20T06:48:25Z</time>
      </trkpt>
      <trkpt lat="45.85553" lon="4.40902">
        <ele>801.4</ele>
        <time>2018-05-20T06:48:41Z</time>
      </trkpt>
      <trkpt lat="45.8556" lon="4.40906">
        <ele>799.95</ele>
        <time>2018-05-20T06:48:46Z</time>
      </trkpt>
      <trkpt lat="45.85578" lon="4.40928">
        <ele>796.59</ele>
        <time>2018-05-20T06:49:04Z</time>
      </trkpt>
      <trkpt lat="45.85586" lon="4.40939">
        <ele>795.63</ele>
        <time>2018-05-20T06:49:17Z</time>
      </trkpt>
      <trkpt lat="45.85603" lon="4.4096">
        <ele>795.63</ele>
        <time>2018-05-20T06:49:35Z</time>
      </trkpt>
      <trkpt lat="45.85621" lon="4.40981">
        <ele>795.63</ele>
        <time>2018-05-20T06:49:52Z</time>
      </trkpt>
      <trkpt lat="45.85624" lon="4.40984">
        <ele>795.15</ele>
        <time>2018-05-20T06:49:55Z</time>
      </trkpt>
      <trkpt lat="45.85625" lon="4.40987">
        <ele>795.63</ele>
        <time>2018-05-20T06:49:57Z</time>
      </trkpt>
      <trkpt lat="45.85643" lon="4.41004">
        <ele>796.59</ele>
        <time>2018-05-20T06:50:14Z</time>
      </trkpt>
      <trkpt lat="45.85662" lon="4.41016">
        <ele>795.63</ele>
        <time>2018-05-20T06:50:31Z</time>
      </trkpt>
      <trkpt lat="45.85664" lon="4.41018">
        <ele>794.67</ele>
        <time>2018-05-20T06:50:34Z</time>
      </trkpt>
      <trkpt lat="45.85678" lon="4.41026">
        <ele>795.15</ele>
        <time>2018-05-20T06:50:50Z</time>
      </trkpt>
      <trkpt lat="45.85684" lon="4.41031">
        <ele>795.15</ele>
        <time>2018-05-20T06:51:04Z</time>
      </trkpt>
      <trkpt lat="45.85693" lon="4.41038">
        <ele>795.15</ele>
        <time>2018-05-20T06:51:17Z</time>
      </trkpt>
      <trkpt lat="45.85714" lon="4.41047">
        <ele>791.78</ele>
        <time>2018-05-20T06:51:34Z</time>
      </trkpt>
      <trkpt lat="45.85736" lon="4.41062">
        <ele>788.9</ele>
        <time>2018-05-20T06:51:53Z</time>
      </trkpt>
      <trkpt lat="45.85757" lon="4.41082">
        <ele>791.78</ele>
        <time>2018-05-20T06:52:11Z</time>
      </trkpt>
      <trkpt lat="45.85783" lon="4.41104">
        <ele>792.26</ele>
        <time>2018-05-20T06:52:34Z</time>
      </trkpt>
      <trkpt lat="45.858" lon="4.41117">
        <ele>794.67</ele>
        <time>2018-05-20T06:52:50Z</time>
      </trkpt>
      <trkpt lat="45.85821" lon="4.41143">
        <ele>793.22</ele>
        <time>2018-05-20T06:53:09Z</time>
      </trkpt>
      <trkpt lat="45.85844" lon="4.41171">
        <ele>791.78</ele>
        <time>2018-05-20T06:53:31Z</time>
      </trkpt>
      <trkpt lat="45.85864" lon="4.41191">
        <ele>789.86</ele>
        <time>2018-05-20T06:53:52Z</time>
      </trkpt>
      <trkpt lat="45.85882" lon="4.41234">
        <ele>789.86</ele>
        <time>2018-05-20T06:54:15Z</time>
      </trkpt>
      <trkpt lat="45.85901" lon="4.41261">
        <ele>786.98</ele>
        <time>2018-05-20T06:54:39Z</time>
      </trkpt>
      <trkpt lat="45.85908" lon="4.41296">
        <ele>785.05</ele>
        <time>2018-05-20T06:54:59Z</time>
      </trkpt>
      <trkpt lat="45.85929" lon="4.41329">
        <ele>782.17</ele>
        <time>2018-05-20T06:55:19Z</time>
      </trkpt>
      <trkpt lat="45.85946" lon="4.41335">
        <ele>778.81</ele>
        <time>2018-05-20T06:55:40Z</time>
      </trkpt>
      <trkpt lat="45.85939" lon="4.41336">
        <ele>778.81</ele>
        <time>2018-05-20T06:55:50Z</time>
      </trkpt>
      <trkpt lat="45.85934" lon="4.41341">
        <ele>779.77</ele>
        <time>2018-05-20T06:55:54Z</time>
      </trkpt>
      <trkpt lat="45.85922" lon="4.4137">
        <ele>780.73</ele>
        <time>2018-05-20T06:56:12Z</time>
      </trkpt>
      <trkpt lat="45.85911" lon="4.41397">
        <ele>779.29</ele>
        <time>2018-05-20T06:56:30Z</time>
      </trkpt>
      <trkpt lat="45.85892" lon="4.41416">
        <ele>775.44</ele>
        <time>2018-05-20T06:56:49Z</time>
      </trkpt>
      <trkpt lat="45.85866" lon="4.4143">
        <ele>769.67</ele>
        <time>2018-05-20T06:57:09Z</time>
      </trkpt>
      <trkpt lat="45.85864" lon="4.41438">
        <ele>767.75</ele>
        <time>2018-05-20T06:57:16Z</time>
      </trkpt>
      <trkpt lat="45.85868" lon="4.41441">
        <ele>771.6</ele>
        <time>2018-05-20T06:57:27Z</time>
      </trkpt>
      <trkpt lat="45.85874" lon="4.41442">
        <ele>770.63</ele>
        <time>2018-05-20T06:57:43Z</time>
      </trkpt>
      <trkpt lat="45.85878" lon="4.41457">
        <ele>767.75</ele>
        <time>2018-05-20T06:58:00Z</time>
      </trkpt>
      <trkpt lat="45.85894" lon="4.4148">
        <ele>763.42</ele>
        <time>2018-05-20T06:58:22Z</time>
      </trkpt>
      <trkpt lat="45.85905" lon="4.41506">
        <ele>760.06</ele>
        <time>2018-05-20T06:58:41Z</time>
      </trkpt>
      <trkpt lat="45.85915" lon="4.41537">
        <ele>753.81</ele>
        <time>2018-05-20T06:59:03Z</time>
      </trkpt>
      <trkpt lat="45.85927" lon="4.41573">
        <ele>747.08</ele>
        <time>2018-05-20T06:59:23Z</time>
      </trkpt>
      <trkpt lat="45.85939" lon="4.41608">
        <ele>739.87</ele>
        <time>2018-05-20T06:59:44Z</time>
      </trkpt>
      <trkpt lat="45.85953" lon="4.41644">
        <ele>729.3</ele>
        <time>2018-05-20T07:00:07Z</time>
      </trkpt>
      <trkpt lat="45.85967" lon="4.4167">
        <ele>723.53</ele>
        <time>2018-05-20T07:00:25Z</time>
      </trkpt>
      <trkpt lat="45.85982" lon="4.41702">
        <ele>719.2</ele>
        <time>2018-05-20T07:00:43Z</time>
      </trkpt>
      <trkpt lat="45.85999" lon="4.41728">
        <ele>717.28</ele>
        <time>2018-05-20T07:01:03Z</time>
      </trkpt>
      <trkpt lat="45.86005" lon="4.41764">
        <ele>715.84</ele>
        <time>2018-05-20T07:01:24Z</time>
      </trkpt>
      <trkpt lat="45.86006" lon="4.41805">
        <ele>713.92</ele>
        <time>2018-05-20T07:01:42Z</time>
      </trkpt>
      <trkpt lat="45.86" lon="4.41845">
        <ele>709.11</ele>
        <time>2018-05-20T07:02:03Z</time>
      </trkpt>
      <trkpt lat="45.85993" lon="4.41883">
        <ele>704.78</ele>
        <time>2018-05-20T07:02:23Z</time>
      </trkpt>
      <trkpt lat="45.86" lon="4.41929">
        <ele>698.53</ele>
        <time>2018-05-20T07:02:46Z</time>
      </trkpt>
      <trkpt lat="45.86002" lon="4.41964">
        <ele>691.81</ele>
        <time>2018-05-20T07:03:03Z</time>
      </trkpt>
      <trkpt lat="45.86015" lon="4.41998">
        <ele>684.6</ele>
        <time>2018-05-20T07:03:22Z</time>
      </trkpt>
      <trkpt lat="45.86015" lon="4.42023">
        <ele>686.04</ele>
        <time>2018-05-20T07:03:39Z</time>
      </trkpt>
      <trkpt lat="45.86023" lon="4.4204">
        <ele>685.08</ele>
        <time>2018-05-20T07:04:00Z</time>
      </trkpt>
      <trkpt lat="45.86033" lon="4.42084">
        <ele>683.15</ele>
        <time>2018-05-20T07:04:20Z</time>
      </trkpt>
      <trkpt lat="45.86049" lon="4.42108">
        <ele>677.87</ele>
        <time>2018-05-20T07:04:42Z</time>
      </trkpt>
      <trkpt lat="45.86071" lon="4.42133">
        <ele>674.5</ele>
        <time>2018-05-20T07:05:00Z</time>
      </trkpt>
      <trkpt lat="45.86071" lon="4.42169">
        <ele>673.06</ele>
        <time>2018-05-20T07:05:20Z</time>
      </trkpt>
      <trkpt lat="45.86061" lon="4.42199">
        <ele>667.77</ele>
        <time>2018-05-20T07:05:39Z</time>
      </trkpt>
      <trkpt lat="45.86054" lon="4.42231">
        <ele>660.08</ele>
        <time>2018-05-20T07:05:59Z</time>
      </trkpt>
      <trkpt lat="45.86045" lon="4.4226">
        <ele>653.83</ele>
        <time>2018-05-20T07:06:15Z</time>
      </trkpt>
      <trkpt lat="45.86048" lon="4.42291">
        <ele>649.51</ele>
        <time>2018-05-20T07:06:34Z</time>
      </trkpt>
      <trkpt lat="45.8606" lon="4.42312">
        <ele>643.26</ele>
        <time>2018-05-20T07:06:54Z</time>
      </trkpt>
      <trkpt lat="45.86076" lon="4.42356">
        <ele>640.38</ele>
        <time>2018-05-20T07:07:16Z</time>
      </trkpt>
      <trkpt lat="45.86096" lon="4.42386">
        <ele>640.86</ele>
        <time>2018-05-20T07:07:38Z</time>
      </trkpt>
      <trkpt lat="45.86116" lon="4.42416">
        <ele>640.38</ele>
        <time>2018-05-20T07:08:01Z</time>
      </trkpt>
      <trkpt lat="45.86137" lon="4.42439">
        <ele>644.22</ele>
        <time>2018-05-20T07:08:22Z</time>
      </trkpt>
      <trkpt lat="45.86159" lon="4.42454">
        <ele>645.18</ele>
        <time>2018-05-20T07:08:39Z</time>
      </trkpt>
      <trkpt lat="45.86186" lon="4.42462">
        <ele>649.51</ele>
        <time>2018-05-20T07:09:04Z</time>
      </trkpt>
      <trkpt lat="45.8621" lon="4.42457">
        <ele>652.87</ele>
        <time>2018-05-20T07:09:25Z</time>
      </trkpt>
      <trkpt lat="45.86235" lon="4.42448">
        <ele>657.68</ele>
        <time>2018-05-20T07:09:49Z</time>
      </trkpt>
      <trkpt lat="45.86252" lon="4.42466">
        <ele>660.56</ele>
        <time>2018-05-20T07:10:06Z</time>
      </trkpt>
      <trkpt lat="45.86273" lon="4.42482">
        <ele>662.49</ele>
        <time>2018-05-20T07:10:26Z</time>
      </trkpt>
      <trkpt lat="45.86288" lon="4.42512">
        <ele>663.93</ele>
        <time>2018-05-20T07:10:47Z</time>
      </trkpt>
      <trkpt lat="45.86309" lon="4.42536">
        <ele>666.33</ele>
        <time>2018-05-20T07:11:08Z</time>
      </trkpt>
      <trkpt lat="45.86323" lon="4.42552">
        <ele>663.93</ele>
        <time>2018-05-20T07:11:29Z</time>
      </trkpt>
      <trkpt lat="45.86337" lon="4.4258">
        <ele>663.93</ele>
        <time>2018-05-20T07:11:48Z</time>
      </trkpt>
      <trkpt lat="45.86355" lon="4.42609">
        <ele>662.49</ele>
        <time>2018-05-20T07:12:12Z</time>
      </trkpt>
      <trkpt lat="45.86368" lon="4.42619">
        <ele>665.37</ele>
        <time>2018-05-20T07:12:31Z</time>
      </trkpt>
      <trkpt lat="45.86398" lon="4.42605">
        <ele>668.73</ele>
        <time>2018-05-20T07:12:55Z</time>
      </trkpt>
      <trkpt lat="45.86427" lon="4.42595">
        <ele>668.25</ele>
        <time>2018-05-20T07:13:20Z</time>
      </trkpt>
      <trkpt lat="45.86459" lon="4.42595">
        <ele>670.18</ele>
        <time>2018-05-20T07:13:42Z</time>
      </trkpt>
      <trkpt lat="45.86484" lon="4.42614">
        <ele>676.42</ele>
        <time>2018-05-20T07:14:04Z</time>
      </trkpt>
      <trkpt lat="45.86507" lon="4.42634">
        <ele>676.91</ele>
        <time>2018-05-20T07:14:25Z</time>
      </trkpt>
      <trkpt lat="45.86526" lon="4.4266">
        <ele>675.46</ele>
        <time>2018-05-20T07:14:45Z</time>
      </trkpt>
      <trkpt lat="45.86555" lon="4.42683">
        <ele>676.91</ele>
        <time>2018-05-20T07:15:11Z</time>
      </trkpt>
      <trkpt lat="45.86577" lon="4.42697">
        <ele>678.83</ele>
        <time>2018-05-20T07:15:28Z</time>
      </trkpt>
      <trkpt lat="45.86594" lon="4.4271">
        <ele>677.87</ele>
        <time>2018-05-20T07:15:45Z</time>
      </trkpt>
      <trkpt lat="45.86621" lon="4.42719">
        <ele>677.87</ele>
        <time>2018-05-20T07:16:07Z</time>
      </trkpt>
      <trkpt lat="45.86639" lon="4.42721">
        <ele>675.94</ele>
        <time>2018-05-20T07:16:30Z</time>
      </trkpt>
      <trkpt lat="45.86644" lon="4.42725">
        <ele>677.39</ele>
        <time>2018-05-20T07:16:38Z</time>
      </trkpt>
      <trkpt lat="45.86654" lon="4.42727">
        <ele>689.88</ele>
        <time>2018-05-20T07:16:48Z</time>
      </trkpt>
      <trkpt lat="45.86675" lon="4.42722">
        <ele>692.77</ele>
        <time>2018-05-20T07:17:09Z</time>
      </trkpt>
      <trkpt lat="45.86697" lon="4.4271">
        <ele>692.77</ele>
        <time>2018-05-20T07:17:34Z</time>
      </trkpt>
      <trkpt lat="45.86712" lon="4.42713">
        <ele>692.29</ele>
        <time>2018-05-20T07:17:43Z</time>
      </trkpt>
      <trkpt lat="45.86718" lon="4.42716">
        <ele>692.29</ele>
        <time>2018-05-20T07:17:47Z</time>
      </trkpt>
      <trkpt lat="45.86735" lon="4.4273">
        <ele>691.33</ele>
        <time>2018-05-20T07:18:09Z</time>
      </trkpt>
      <trkpt lat="45.86762" lon="4.42734">
        <ele>691.33</ele>
        <time>2018-05-20T07:18:26Z</time>
      </trkpt>
      <trkpt lat="45.86835" lon="4.42746">
        <ele>692.29</ele>
        <time>2018-05-20T07:18:45Z</time>
      </trkpt>
      <trkpt lat="45.86918" lon="4.42648">
        <ele>694.21</ele>
        <time>2018-05-20T07:19:52Z</time>
      </trkpt>
      <trkpt lat="45.8688" lon="4.42665">
        <ele>683.15</ele>
        <time>2018-05-20T07:20:09Z</time>
      </trkpt>
      <trkpt lat="45.86893" lon="4.42655">
        <ele>673.06</ele>
        <time>2018-05-20T07:20:24Z</time>
      </trkpt>
      <trkpt lat="45.86924" lon="4.42639">
        <ele>654.8</ele>
        <time>2018-05-20T07:20:45Z</time>
      </trkpt>
      <trkpt lat="45.86939" lon="4.42634">
        <ele>642.78</ele>
        <time>2018-05-20T07:21:01Z</time>
      </trkpt>
      <trkpt lat="45.86953" lon="4.42627">
        <ele>635.09</ele>
        <time>2018-05-20T07:21:20Z</time>
      </trkpt>
      <trkpt lat="45.86967" lon="4.4262">
        <ele>631.24</ele>
        <time>2018-05-20T07:21:40Z</time>
      </trkpt>
      <trkpt lat="45.8698" lon="4.42619">
        <ele>627.4</ele>
        <time>2018-05-20T07:21:51Z</time>
      </trkpt>
      <trkpt lat="45.87006" lon="4.4262">
        <ele>625.96</ele>
        <time>2018-05-20T07:22:14Z</time>
      </trkpt>
      <trkpt lat="45.87031" lon="4.42618">
        <ele>624.99</ele>
        <time>2018-05-20T07:22:38Z</time>
      </trkpt>
      <trkpt lat="45.87054" lon="4.42624">
        <ele>620.67</ele>
        <time>2018-05-20T07:23:01Z</time>
      </trkpt>
      <trkpt lat="45.87092" lon="4.42626">
        <ele>616.82</ele>
        <time>2018-05-20T07:23:26Z</time>
      </trkpt>
      <trkpt lat="45.87115" lon="4.42636">
        <ele>612.5</ele>
        <time>2018-05-20T07:23:47Z</time>
      </trkpt>
      <trkpt lat="45.87138" lon="4.42635">
        <ele>604.81</ele>
        <time>2018-05-20T07:24:08Z</time>
      </trkpt>
      <trkpt lat="45.87171" lon="4.4265">
        <ele>592.79</ele>
        <time>2018-05-20T07:24:33Z</time>
      </trkpt>
      <trkpt lat="45.87211" lon="4.42673">
        <ele>583.66</ele>
        <time>2018-05-20T07:24:57Z</time>
      </trkpt>
      <trkpt lat="45.87225" lon="4.42711">
        <ele>573.08</ele>
        <time>2018-05-20T07:25:21Z</time>
      </trkpt>
      <trkpt lat="45.87242" lon="4.42747">
        <ele>567.8</ele>
        <time>2018-05-20T07:25:38Z</time>
      </trkpt>
      <trkpt lat="45.87253" lon="4.42783">
        <ele>550.49</ele>
        <time>2018-05-20T07:26:01Z</time>
      </trkpt>
      <trkpt lat="45.87265" lon="4.42814">
        <ele>543.76</ele>
        <time>2018-05-20T07:26:20Z</time>
      </trkpt>
      <trkpt lat="45.87278" lon="4.42849">
        <ele>546.17</ele>
        <time>2018-05-20T07:26:38Z</time>
      </trkpt>
      <trkpt lat="45.87283" lon="4.42873">
        <ele>540.88</ele>
        <time>2018-05-20T07:27:00Z</time>
      </trkpt>
      <trkpt lat="45.87292" lon="4.4291">
        <ele>541.84</ele>
        <time>2018-05-20T07:27:21Z</time>
      </trkpt>
      <trkpt lat="45.87309" lon="4.42941">
        <ele>544.72</ele>
        <time>2018-05-20T07:27:44Z</time>
      </trkpt>
      <trkpt lat="45.8733" lon="4.42962">
        <ele>544.72</ele>
        <time>2018-05-20T07:28:08Z</time>
      </trkpt>
      <trkpt lat="45.87349" lon="4.4299">
        <ele>541.84</ele>
        <time>2018-05-20T07:28:30Z</time>
      </trkpt>
      <trkpt lat="45.87371" lon="4.43023">
        <ele>544.24</ele>
        <time>2018-05-20T07:28:54Z</time>
      </trkpt>
      <trkpt lat="45.87395" lon="4.43038">
        <ele>550.01</ele>
        <time>2018-05-20T07:29:16Z</time>
      </trkpt>
      <trkpt lat="45.87423" lon="4.43038">
        <ele>551.45</ele>
        <time>2018-05-20T07:29:41Z</time>
      </trkpt>
      <trkpt lat="45.87442" lon="4.43045">
        <ele>556.26</ele>
        <time>2018-05-20T07:30:05Z</time>
      </trkpt>
      <trkpt lat="45.87453" lon="4.43083">
        <ele>564.43</ele>
        <time>2018-05-20T07:30:25Z</time>
      </trkpt>
      <trkpt lat="45.87458" lon="4.43106">
        <ele>563.95</ele>
        <time>2018-05-20T07:30:41Z</time>
      </trkpt>
      <trkpt lat="45.87462" lon="4.43141">
        <ele>560.11</ele>
        <time>2018-05-20T07:31:02Z</time>
      </trkpt>
      <trkpt lat="45.87466" lon="4.43171">
        <ele>571.64</ele>
        <time>2018-05-20T07:31:17Z</time>
      </trkpt>
      <trkpt lat="45.87469" lon="4.43204">
        <ele>575.97</ele>
        <time>2018-05-20T07:31:34Z</time>
      </trkpt>
      <trkpt lat="45.87472" lon="4.43238">
        <ele>578.85</ele>
        <time>2018-05-20T07:31:53Z</time>
      </trkpt>
      <trkpt lat="45.87472" lon="4.43273">
        <ele>579.81</ele>
        <time>2018-05-20T07:32:11Z</time>
      </trkpt>
      <trkpt lat="45.87458" lon="4.43304">
        <ele>577.89</ele>
        <time>2018-05-20T07:32:29Z</time>
      </trkpt>
      <trkpt lat="45.87449" lon="4.43316">
        <ele>575.49</ele>
        <time>2018-05-20T07:32:40Z</time>
      </trkpt>
      <trkpt lat="45.87446" lon="4.43348">
        <ele>574.04</ele>
        <time>2018-05-20T07:33:01Z</time>
      </trkpt>
      <trkpt lat="45.87461" lon="4.43361">
        <ele>574.04</ele>
        <time>2018-05-20T07:33:24Z</time>
      </trkpt>
      <trkpt lat="45.87473" lon="4.43363">
        <ele>574.04</ele>
        <time>2018-05-20T07:33:47Z</time>
      </trkpt>
      <trkpt lat="45.87493" lon="4.43379">
        <ele>573.56</ele>
        <time>2018-05-20T07:34:24Z</time>
      </trkpt>
      <trkpt lat="45.87504" lon="4.43382">
        <ele>575.97</ele>
        <time>2018-05-20T07:34:45Z</time>
      </trkpt>
      <trkpt lat="45.87519" lon="4.43384">
        <ele>579.33</ele>
        <time>2018-05-20T07:35:09Z</time>
      </trkpt>
      <trkpt lat="45.87542" lon="4.43393">
        <ele>579.33</ele>
        <time>2018-05-20T07:35:37Z</time>
      </trkpt>
      <trkpt lat="45.87575" lon="4.43384">
        <ele>590.39</ele>
        <time>2018-05-20T07:35:59Z</time>
      </trkpt>
      <trkpt lat="45.87578" lon="4.43377">
        <ele>589.91</ele>
        <time>2018-05-20T07:36:04Z</time>
      </trkpt>
      <trkpt lat="45.8759" lon="4.43349">
        <ele>594.23</ele>
        <time>2018-05-20T07:36:26Z</time>
      </trkpt>
      <trkpt lat="45.87596" lon="4.43323">
        <ele>596.15</ele>
        <time>2018-05-20T07:36:47Z</time>
      </trkpt>
      <trkpt lat="45.87602" lon="4.43302">
        <ele>596.64</ele>
        <time>2018-05-20T07:37:05Z</time>
      </trkpt>
      <trkpt lat="45.87611" lon="4.43276">
        <ele>598.56</ele>
        <time>2018-05-20T07:37:25Z</time>
      </trkpt>
      <trkpt lat="45.87621" lon="4.43257">
        <ele>600.96</ele>
        <time>2018-05-20T07:37:44Z</time>
      </trkpt>
      <trkpt lat="45.87639" lon="4.43229">
        <ele>602.88</ele>
        <time>2018-05-20T07:38:07Z</time>
      </trkpt>
      <trkpt lat="45.87653" lon="4.43201">
        <ele>603.36</ele>
        <time>2018-05-20T07:38:30Z</time>
      </trkpt>
      <trkpt lat="45.87667" lon="4.43175">
        <ele>606.25</ele>
        <time>2018-05-20T07:38:55Z</time>
      </trkpt>
      <trkpt lat="45.87682" lon="4.43161">
        <ele>611.54</ele>
        <time>2018-05-20T07:39:13Z</time>
      </trkpt>
      <trkpt lat="45.87696" lon="4.43145">
        <ele>619.71</ele>
        <time>2018-05-20T07:39:31Z</time>
      </trkpt>
      <trkpt lat="45.87699" lon="4.43135">
        <ele>625.47</ele>
        <time>2018-05-20T07:39:51Z</time>
      </trkpt>
      <trkpt lat="45.87709" lon="4.43112">
        <ele>634.13</ele>
        <time>2018-05-20T07:40:12Z</time>
      </trkpt>
      <trkpt lat="45.87705" lon="4.43078">
        <ele>637.49</ele>
        <time>2018-05-20T07:40:32Z</time>
      </trkpt>
      <trkpt lat="45.87706" lon="4.43045">
        <ele>637.01</ele>
        <time>2018-05-20T07:40:51Z</time>
      </trkpt>
      <trkpt lat="45.87705" lon="4.43026">
        <ele>635.09</ele>
        <time>2018-05-20T07:40:59Z</time>
      </trkpt>
      <trkpt lat="45.877" lon="4.42985">
        <ele>641.34</ele>
        <time>2018-05-20T07:41:21Z</time>
      </trkpt>
      <trkpt lat="45.87692" lon="4.42962">
        <ele>644.7</ele>
        <time>2018-05-20T07:41:40Z</time>
      </trkpt>
      <trkpt lat="45.87681" lon="4.42933">
        <ele>644.22</ele>
        <time>2018-05-20T07:41:59Z</time>
      </trkpt>
      <trkpt lat="45.87675" lon="4.42907">
        <ele>646.62</ele>
        <time>2018-05-20T07:42:18Z</time>
      </trkpt>
      <trkpt lat="45.87664" lon="4.42879">
        <ele>648.07</ele>
        <time>2018-05-20T07:42:37Z</time>
      </trkpt>
      <trkpt lat="45.87655" lon="4.42853">
        <ele>647.1</ele>
        <time>2018-05-20T07:42:54Z</time>
      </trkpt>
      <trkpt lat="45.87646" lon="4.4283">
        <ele>647.1</ele>
        <time>2018-05-20T07:43:11Z</time>
      </trkpt>
      <trkpt lat="45.87638" lon="4.42806">
        <ele>646.62</ele>
        <time>2018-05-20T07:43:26Z</time>
      </trkpt>
      <trkpt lat="45.87633" lon="4.42789">
        <ele>644.7</ele>
        <time>2018-05-20T07:43:46Z</time>
      </trkpt>
      <trkpt lat="45.87627" lon="4.42781">
        <ele>644.7</ele>
        <time>2018-05-20T07:44:05Z</time>
      </trkpt>
      <trkpt lat="45.87622" lon="4.42755">
        <ele>642.78</ele>
        <time>2018-05-20T07:44:21Z</time>
      </trkpt>
      <trkpt lat="45.87616" lon="4.42724">
        <ele>640.38</ele>
        <time>2018-05-20T07:44:39Z</time>
      </trkpt>
      <trkpt lat="45.87618" lon="4.4272">
        <ele>646.62</ele>
        <time>2018-05-20T07:44:42Z</time>
      </trkpt>
      <trkpt lat="45.87618" lon="4.42718">
        <ele>649.51</ele>
        <time>2018-05-20T07:44:44Z</time>
      </trkpt>
      <trkpt lat="45.87618" lon="4.42716">
        <ele>650.47</ele>
        <time>2018-05-20T07:44:45Z</time>
      </trkpt>
      <trkpt lat="45.8762" lon="4.4269">
        <ele>652.87</ele>
        <time>2018-05-20T07:45:02Z</time>
      </trkpt>
      <trkpt lat="45.87621" lon="4.4267">
        <ele>654.31</ele>
        <time>2018-05-20T07:45:14Z</time>
      </trkpt>
      <trkpt lat="45.87627" lon="4.42641">
        <ele>653.83</ele>
        <time>2018-05-20T07:45:32Z</time>
      </trkpt>
      <trkpt lat="45.87631" lon="4.42611">
        <ele>656.24</ele>
        <time>2018-05-20T07:45:49Z</time>
      </trkpt>
      <trkpt lat="45.87634" lon="4.42592">
        <ele>657.2</ele>
        <time>2018-05-20T07:46:01Z</time>
      </trkpt>
      <trkpt lat="45.87635" lon="4.4256">
        <ele>654.8</ele>
        <time>2018-05-20T07:46:19Z</time>
      </trkpt>
      <trkpt lat="45.87631" lon="4.42537">
        <ele>653.35</ele>
        <time>2018-05-20T07:46:32Z</time>
      </trkpt>
      <trkpt lat="45.87631" lon="4.42535">
        <ele>653.35</ele>
        <time>2018-05-20T07:46:33Z</time>
      </trkpt>
      <trkpt lat="45.8763" lon="4.42514">
        <ele>654.8</ele>
        <time>2018-05-20T07:46:44Z</time>
      </trkpt>
      <trkpt lat="45.87632" lon="4.42483">
        <ele>657.68</ele>
        <time>2018-05-20T07:47:03Z</time>
      </trkpt>
      <trkpt lat="45.87632" lon="4.42447">
        <ele>656.72</ele>
        <time>2018-05-20T07:47:26Z</time>
      </trkpt>
      <trkpt lat="45.87632" lon="4.42441">
        <ele>655.76</ele>
        <time>2018-05-20T07:47:29Z</time>
      </trkpt>
      <trkpt lat="45.87637" lon="4.42404">
        <ele>657.2</ele>
        <time>2018-05-20T07:47:51Z</time>
      </trkpt>
      <trkpt lat="45.87649" lon="4.42372">
        <ele>663.45</ele>
        <time>2018-05-20T07:48:15Z</time>
      </trkpt>
      <trkpt lat="45.8766" lon="4.42344">
        <ele>667.77</ele>
        <time>2018-05-20T07:48:35Z</time>
      </trkpt>
      <trkpt lat="45.87672" lon="4.42317">
        <ele>672.1</ele>
        <time>2018-05-20T07:48:53Z</time>
      </trkpt>
      <trkpt lat="45.87678" lon="4.42274">
        <ele>675.94</ele>
        <time>2018-05-20T07:49:17Z</time>
      </trkpt>
      <trkpt lat="45.87697" lon="4.42236">
        <ele>681.71</ele>
        <time>2018-05-20T07:49:43Z</time>
      </trkpt>
      <trkpt lat="45.87702" lon="4.42201">
        <ele>686.52</ele>
        <time>2018-05-20T07:50:05Z</time>
      </trkpt>
      <trkpt lat="45.87708" lon="4.42169">
        <ele>691.33</ele>
        <time>2018-05-20T07:50:24Z</time>
      </trkpt>
      <trkpt lat="45.87717" lon="4.42136">
        <ele>693.73</ele>
        <time>2018-05-20T07:50:47Z</time>
      </trkpt>
      <trkpt lat="45.87724" lon="4.42097">
        <ele>694.69</ele>
        <time>2018-05-20T07:51:10Z</time>
      </trkpt>
      <trkpt lat="45.87734" lon="4.4207">
        <ele>695.65</ele>
        <time>2018-05-20T07:51:30Z</time>
      </trkpt>
      <trkpt lat="45.87736" lon="4.42068">
        <ele>695.65</ele>
        <time>2018-05-20T07:51:32Z</time>
      </trkpt>
      <trkpt lat="45.87752" lon="4.42041">
        <ele>695.65</ele>
        <time>2018-05-20T07:51:52Z</time>
      </trkpt>
      <trkpt lat="45.87757" lon="4.42005">
        <ele>696.13</ele>
        <time>2018-05-20T07:52:11Z</time>
      </trkpt>
      <trkpt lat="45.87752" lon="4.41982">
        <ele>692.29</ele>
        <time>2018-05-20T07:52:17Z</time>
      </trkpt>
      <trkpt lat="45.87764" lon="4.41966">
        <ele>690.36</ele>
        <time>2018-05-20T07:52:35Z</time>
      </trkpt>
      <trkpt lat="45.87774" lon="4.41962">
        <ele>687.48</ele>
        <time>2018-05-20T07:52:43Z</time>
      </trkpt>
      <trkpt lat="45.87776" lon="4.41959">
        <ele>686.52</ele>
        <time>2018-05-20T07:52:44Z</time>
      </trkpt>
      <trkpt lat="45.87786" lon="4.41949">
        <ele>688.92</ele>
        <time>2018-05-20T07:52:53Z</time>
      </trkpt>
      <trkpt lat="45.87787" lon="4.41949">
        <ele>688.92</ele>
        <time>2018-05-20T07:52:54Z</time>
      </trkpt>
      <trkpt lat="45.87789" lon="4.41948">
        <ele>690.36</ele>
        <time>2018-05-20T07:52:55Z</time>
      </trkpt>
      <trkpt lat="45.8781" lon="4.4194">
        <ele>691.33</ele>
        <time>2018-05-20T07:53:10Z</time>
      </trkpt>
      <trkpt lat="45.87815" lon="4.41934">
        <ele>690.84</ele>
        <time>2018-05-20T07:53:15Z</time>
      </trkpt>
      <trkpt lat="45.87839" lon="4.41912">
        <ele>686.52</ele>
        <time>2018-05-20T07:53:36Z</time>
      </trkpt>
      <trkpt lat="45.87856" lon="4.41889">
        <ele>686.52</ele>
        <time>2018-05-20T07:53:54Z</time>
      </trkpt>
      <trkpt lat="45.87876" lon="4.41869">
        <ele>683.15</ele>
        <time>2018-05-20T07:54:14Z</time>
      </trkpt>
      <trkpt lat="45.879" lon="4.41848">
        <ele>682.19</ele>
        <time>2018-05-20T07:54:30Z</time>
      </trkpt>
      <trkpt lat="45.87924" lon="4.41824">
        <ele>683.15</ele>
        <time>2018-05-20T07:54:51Z</time>
      </trkpt>
      <trkpt lat="45.87948" lon="4.41818">
        <ele>685.08</ele>
        <time>2018-05-20T07:55:12Z</time>
      </trkpt>
      <trkpt lat="45.87959" lon="4.41842">
        <ele>684.12</ele>
        <time>2018-05-20T07:55:29Z</time>
      </trkpt>
      <trkpt lat="45.87976" lon="4.41869">
        <ele>673.06</ele>
        <time>2018-05-20T07:55:49Z</time>
      </trkpt>
      <trkpt lat="45.87993" lon="4.41891">
        <ele>670.66</ele>
        <time>2018-05-20T07:56:08Z</time>
      </trkpt>
      <trkpt lat="45.88014" lon="4.41905">
        <ele>669.7</ele>
        <time>2018-05-20T07:56:26Z</time>
      </trkpt>
      <trkpt lat="45.88039" lon="4.41908">
        <ele>667.29</ele>
        <time>2018-05-20T07:56:47Z</time>
      </trkpt>
      <trkpt lat="45.88062" lon="4.41927">
        <ele>667.29</ele>
        <time>2018-05-20T07:57:06Z</time>
      </trkpt>
      <trkpt lat="45.88082" lon="4.41949">
        <ele>664.89</ele>
        <time>2018-05-20T07:57:24Z</time>
      </trkpt>
      <trkpt lat="45.88083" lon="4.4195">
        <ele>664.41</ele>
        <time>2018-05-20T07:57:25Z</time>
      </trkpt>
      <trkpt lat="45.88107" lon="4.41971">
        <ele>663.45</ele>
        <time>2018-05-20T07:57:45Z</time>
      </trkpt>
      <trkpt lat="45.88114" lon="4.41978">
        <ele>662.97</ele>
        <time>2018-05-20T07:57:52Z</time>
      </trkpt>
      <trkpt lat="45.88127" lon="4.42006">
        <ele>657.2</ele>
        <time>2018-05-20T07:58:12Z</time>
      </trkpt>
      <trkpt lat="45.88142" lon="4.42029">
        <ele>654.31</ele>
        <time>2018-05-20T07:58:32Z</time>
      </trkpt>
      <trkpt lat="45.8816" lon="4.42053">
        <ele>650.47</ele>
        <time>2018-05-20T07:58:51Z</time>
      </trkpt>
      <trkpt lat="45.88179" lon="4.42085">
        <ele>646.14</ele>
        <time>2018-05-20T07:59:12Z</time>
      </trkpt>
      <trkpt lat="45.88198" lon="4.42109">
        <ele>640.86</ele>
        <time>2018-05-20T07:59:33Z</time>
      </trkpt>
      <trkpt lat="45.88218" lon="4.4213">
        <ele>641.34</ele>
        <time>2018-05-20T07:59:51Z</time>
      </trkpt>
      <trkpt lat="45.88239" lon="4.42153">
        <ele>638.93</ele>
        <time>2018-05-20T08:00:09Z</time>
      </trkpt>
      <trkpt lat="45.88248" lon="4.42184">
        <ele>636.05</ele>
        <time>2018-05-20T08:00:26Z</time>
      </trkpt>
      <trkpt lat="45.88264" lon="4.42211">
        <ele>624.99</ele>
        <time>2018-05-20T08:00:44Z</time>
      </trkpt>
      <trkpt lat="45.88268" lon="4.42213">
        <ele>623.55</ele>
        <time>2018-05-20T08:00:47Z</time>
      </trkpt>
      <trkpt lat="45.88287" lon="4.4224">
        <ele>621.63</ele>
        <time>2018-05-20T08:01:07Z</time>
      </trkpt>
      <trkpt lat="45.88301" lon="4.42259">
        <ele>625.47</ele>
        <time>2018-05-20T08:01:22Z</time>
      </trkpt>
      <trkpt lat="45.88307" lon="4.42264">
        <ele>625.96</ele>
        <time>2018-05-20T08:01:25Z</time>
      </trkpt>
      <trkpt lat="45.8831" lon="4.42266">
        <ele>625.96</ele>
        <time>2018-05-20T08:01:27Z</time>
      </trkpt>
      <trkpt lat="45.8833" lon="4.42286">
        <ele>626.92</ele>
        <time>2018-05-20T08:01:51Z</time>
      </trkpt>
      <trkpt lat="45.88358" lon="4.42313">
        <ele>630.28</ele>
        <time>2018-05-20T08:02:12Z</time>
      </trkpt>
      <trkpt lat="45.88384" lon="4.4232">
        <ele>634.61</ele>
        <time>2018-05-20T08:02:33Z</time>
      </trkpt>
      <trkpt lat="45.8841" lon="4.42327">
        <ele>633.17</ele>
        <time>2018-05-20T08:02:55Z</time>
      </trkpt>
      <trkpt lat="45.8842" lon="4.42332">
        <ele>634.13</ele>
        <time>2018-05-20T08:03:03Z</time>
      </trkpt>
      <trkpt lat="45.88425" lon="4.42337">
        <ele>634.13</ele>
        <time>2018-05-20T08:03:08Z</time>
      </trkpt>
      <trkpt lat="45.88447" lon="4.42356">
        <ele>635.09</ele>
        <time>2018-05-20T08:03:30Z</time>
      </trkpt>
      <trkpt lat="45.88466" lon="4.42383">
        <ele>630.28</ele>
        <time>2018-05-20T08:03:49Z</time>
      </trkpt>
      <trkpt lat="45.88479" lon="4.42408">
        <ele>625.47</ele>
        <time>2018-05-20T08:04:06Z</time>
      </trkpt>
      <trkpt lat="45.88484" lon="4.42433">
        <ele>622.59</ele>
        <time>2018-05-20T08:04:23Z</time>
      </trkpt>
      <trkpt lat="45.885" lon="4.42458">
        <ele>618.26</ele>
        <time>2018-05-20T08:04:43Z</time>
      </trkpt>
      <trkpt lat="45.88522" lon="4.42475">
        <ele>614.42</ele>
        <time>2018-05-20T08:05:02Z</time>
      </trkpt>
      <trkpt lat="45.88537" lon="4.42493">
        <ele>605.29</ele>
        <time>2018-05-20T08:05:17Z</time>
      </trkpt>
      <trkpt lat="45.88551" lon="4.42513">
        <ele>587.5</ele>
        <time>2018-05-20T08:05:35Z</time>
      </trkpt>
      <trkpt lat="45.88559" lon="4.42541">
        <ele>576.93</ele>
        <time>2018-05-20T08:05:54Z</time>
      </trkpt>
      <trkpt lat="45.88574" lon="4.42572">
        <ele>571.16</ele>
        <time>2018-05-20T08:06:12Z</time>
      </trkpt>
      <trkpt lat="45.88592" lon="4.42604">
        <ele>564.91</ele>
        <time>2018-05-20T08:06:32Z</time>
      </trkpt>
      <trkpt lat="45.88607" lon="4.42628">
        <ele>562.03</ele>
        <time>2018-05-20T08:06:50Z</time>
      </trkpt>
      <trkpt lat="45.88624" lon="4.42644">
        <ele>560.59</ele>
        <time>2018-05-20T08:07:07Z</time>
      </trkpt>
      <trkpt lat="45.88648" lon="4.42652">
        <ele>563.95</ele>
        <time>2018-05-20T08:07:24Z</time>
      </trkpt>
      <trkpt lat="45.88669" lon="4.42673">
        <ele>567.32</ele>
        <time>2018-05-20T08:07:42Z</time>
      </trkpt>
      <trkpt lat="45.88686" lon="4.42691">
        <ele>563.47</ele>
        <time>2018-05-20T08:08:01Z</time>
      </trkpt>
      <trkpt lat="45.88706" lon="4.42709">
        <ele>562.03</ele>
        <time>2018-05-20T08:08:18Z</time>
      </trkpt>
      <trkpt lat="45.88724" lon="4.4272">
        <ele>557.7</ele>
        <time>2018-05-20T08:08:34Z</time>
      </trkpt>
      <trkpt lat="45.88747" lon="4.42729">
        <ele>551.45</ele>
        <time>2018-05-20T08:08:52Z</time>
      </trkpt>
      <trkpt lat="45.88771" lon="4.42758">
        <ele>549.53</ele>
        <time>2018-05-20T08:09:15Z</time>
      </trkpt>
      <trkpt lat="45.8879" lon="4.42777">
        <ele>549.05</ele>
        <time>2018-05-20T08:09:33Z</time>
      </trkpt>
      <trkpt lat="45.88797" lon="4.42782">
        <ele>550.01</ele>
        <time>2018-05-20T08:09:39Z</time>
      </trkpt>
      <trkpt lat="45.8882" lon="4.42795">
        <ele>550.49</ele>
        <time>2018-05-20T08:09:59Z</time>
      </trkpt>
      <trkpt lat="45.8885" lon="4.42799">
        <ele>553.86</ele>
        <time>2018-05-20T08:10:18Z</time>
      </trkpt>
      <trkpt lat="45.88865" lon="4.42809">
        <ele>555.3</ele>
        <time>2018-05-20T08:10:31Z</time>
      </trkpt>
      <trkpt lat="45.88879" lon="4.42819">
        <ele>553.86</ele>
        <time>2018-05-20T08:10:43Z</time>
      </trkpt>
      <trkpt lat="45.88901" lon="4.42827">
        <ele>550.97</ele>
        <time>2018-05-20T08:11:01Z</time>
      </trkpt>
      <trkpt lat="45.88923" lon="4.42842">
        <ele>548.09</ele>
        <time>2018-05-20T08:11:21Z</time>
      </trkpt>
      <trkpt lat="45.88949" lon="4.42857">
        <ele>544.24</ele>
        <time>2018-05-20T08:11:40Z</time>
      </trkpt>
      <trkpt lat="45.88974" lon="4.42869">
        <ele>538.48</ele>
        <time>2018-05-20T08:11:59Z</time>
      </trkpt>
      <trkpt lat="45.88992" lon="4.4288">
        <ele>531.27</ele>
        <time>2018-05-20T08:12:19Z</time>
      </trkpt>
      <trkpt lat="45.8901" lon="4.42897">
        <ele>526.94</ele>
        <time>2018-05-20T08:12:39Z</time>
      </trkpt>
      <trkpt lat="45.89014" lon="4.42905">
        <ele>524.06</ele>
        <time>2018-05-20T08:13:04Z</time>
      </trkpt>
      <trkpt lat="45.89014" lon="4.42911">
        <ele>522.61</ele>
        <time>2018-05-20T08:13:23Z</time>
      </trkpt>
      <trkpt lat="45.89028" lon="4.42927">
        <ele>526.46</ele>
        <time>2018-05-20T08:13:45Z</time>
      </trkpt>
      <trkpt lat="45.89031" lon="4.42931">
        <ele>526.94</ele>
        <time>2018-05-20T08:13:48Z</time>
      </trkpt>
      <trkpt lat="45.89046" lon="4.42952">
        <ele>527.42</ele>
        <time>2018-05-20T08:14:10Z</time>
      </trkpt>
      <trkpt lat="45.89069" lon="4.42971">
        <ele>524.06</ele>
        <time>2018-05-20T08:14:33Z</time>
      </trkpt>
      <trkpt lat="45.89096" lon="4.42974">
        <ele>518.77</ele>
        <time>2018-05-20T08:14:55Z</time>
      </trkpt>
      <trkpt lat="45.89121" lon="4.42977">
        <ele>513.96</ele>
        <time>2018-05-20T08:15:15Z</time>
      </trkpt>
      <trkpt lat="45.89137" lon="4.42977">
        <ele>510.6</ele>
        <time>2018-05-20T08:15:29Z</time>
      </trkpt>
      <trkpt lat="45.89164" lon="4.42977">
        <ele>508.19</ele>
        <time>2018-05-20T08:15:50Z</time>
      </trkpt>
      <trkpt lat="45.89189" lon="4.42976">
        <ele>503.39</ele>
        <time>2018-05-20T08:16:09Z</time>
      </trkpt>
      <trkpt lat="45.892" lon="4.42977">
        <ele>501.95</ele>
        <time>2018-05-20T08:16:28Z</time>
      </trkpt>
      <trkpt lat="45.89217" lon="4.42977">
        <ele>499.54</ele>
        <time>2018-05-20T08:16:45Z</time>
      </trkpt>
      <trkpt lat="45.89233" lon="4.42978">
        <ele>497.14</ele>
        <time>2018-05-20T08:17:06Z</time>
      </trkpt>
      <trkpt lat="45.89243" lon="4.42983">
        <ele>497.14</ele>
        <time>2018-05-20T08:17:22Z</time>
      </trkpt>
      <trkpt lat="45.89251" lon="4.42989">
        <ele>493.77</ele>
        <time>2018-05-20T08:17:43Z</time>
      </trkpt>
      <trkpt lat="45.8925" lon="4.42994">
        <ele>496.18</ele>
        <time>2018-05-20T08:18:02Z</time>
      </trkpt>
      <trkpt lat="45.89252" lon="4.42996">
        <ele>497.14</ele>
        <time>2018-05-20T08:18:31Z</time>
      </trkpt>
      <trkpt lat="45.89255" lon="4.43003">
        <ele>497.14</ele>
        <time>2018-05-20T08:18:55Z</time>
      </trkpt>
      <trkpt lat="45.89261" lon="4.4302">
        <ele>494.74</ele>
        <time>2018-05-20T08:19:15Z</time>
      </trkpt>
      <trkpt lat="45.89261" lon="4.43009">
        <ele>491.85</ele>
        <time>2018-05-20T08:19:37Z</time>
      </trkpt>
      <trkpt lat="45.8927" lon="4.43029">
        <ele>488.97</ele>
        <time>2018-05-20T08:20:04Z</time>
      </trkpt>
      <trkpt lat="45.89304" lon="4.43049">
        <ele>479.84</ele>
        <time>2018-05-20T08:20:24Z</time>
      </trkpt>
      <trkpt lat="45.89314" lon="4.43055">
        <ele>477.43</ele>
        <time>2018-05-20T08:20:30Z</time>
      </trkpt>
      <trkpt lat="45.89323" lon="4.43061">
        <ele>475.99</ele>
        <time>2018-05-20T08:20:35Z</time>
      </trkpt>
      <trkpt lat="45.89332" lon="4.43078">
        <ele>472.14</ele>
        <time>2018-05-20T08:20:51Z</time>
      </trkpt>
      <trkpt lat="45.89339" lon="4.43093">
        <ele>467.34</ele>
        <time>2018-05-20T08:21:06Z</time>
      </trkpt>
      <trkpt lat="45.89341" lon="4.43114">
        <ele>461.57</ele>
        <time>2018-05-20T08:21:25Z</time>
      </trkpt>
      <trkpt lat="45.89337" lon="4.43137">
        <ele>458.21</ele>
        <time>2018-05-20T08:21:42Z</time>
      </trkpt>
      <trkpt lat="45.89333" lon="4.43163">
        <ele>453.88</ele>
        <time>2018-05-20T08:22:00Z</time>
      </trkpt>
      <trkpt lat="45.89323" lon="4.43185">
        <ele>449.07</ele>
        <time>2018-05-20T08:22:19Z</time>
      </trkpt>
      <trkpt lat="45.89323" lon="4.43196">
        <ele>444.27</ele>
        <time>2018-05-20T08:22:41Z</time>
      </trkpt>
      <trkpt lat="45.89314" lon="4.4322">
        <ele>438.98</ele>
        <time>2018-05-20T08:23:04Z</time>
      </trkpt>
      <trkpt lat="45.89309" lon="4.43242">
        <ele>436.1</ele>
        <time>2018-05-20T08:23:19Z</time>
      </trkpt>
      <trkpt lat="45.89304" lon="4.4327">
        <ele>442.82</ele>
        <time>2018-05-20T08:23:37Z</time>
      </trkpt>
      <trkpt lat="45.89296" lon="4.43303">
        <ele>443.31</ele>
        <time>2018-05-20T08:23:55Z</time>
      </trkpt>
      <trkpt lat="45.89284" lon="4.43343">
        <ele>441.86</ele>
        <time>2018-05-20T08:24:16Z</time>
      </trkpt>
      <trkpt lat="45.89275" lon="4.4337">
        <ele>437.06</ele>
        <time>2018-05-20T08:24:35Z</time>
      </trkpt>
      <trkpt lat="45.8927" lon="4.43398">
        <ele>433.21</ele>
        <time>2018-05-20T08:24:52Z</time>
      </trkpt>
      <trkpt lat="45.89284" lon="4.43412">
        <ele>432.73</ele>
        <time>2018-05-20T08:25:11Z</time>
      </trkpt>
      <trkpt lat="45.89293" lon="4.43414">
        <ele>432.73</ele>
        <time>2018-05-20T08:25:30Z</time>
      </trkpt>
      <trkpt lat="45.89307" lon="4.43418">
        <ele>432.25</ele>
        <time>2018-05-20T08:25:51Z</time>
      </trkpt>
      <trkpt lat="45.89331" lon="4.43405">
        <ele>425.04</ele>
        <time>2018-05-20T08:26:11Z</time>
      </trkpt>
      <trkpt lat="45.89343" lon="4.43408">
        <ele>424.08</ele>
        <time>2018-05-20T08:26:34Z</time>
      </trkpt>
      <trkpt lat="45.89373" lon="4.43401">
        <ele>420.71</ele>
        <time>2018-05-20T08:26:57Z</time>
      </trkpt>
      <trkpt lat="45.894" lon="4.43388">
        <ele>408.7</ele>
        <time>2018-05-20T08:27:15Z</time>
      </trkpt>
      <trkpt lat="45.89398" lon="4.43408">
        <ele>404.85</ele>
        <time>2018-05-20T08:27:33Z</time>
      </trkpt>
      <trkpt lat="45.89386" lon="4.43424">
        <ele>399.08</ele>
        <time>2018-05-20T08:27:55Z</time>
      </trkpt>
      <trkpt lat="45.89382" lon="4.43457">
        <ele>392.84</ele>
        <time>2018-05-20T08:28:11Z</time>
      </trkpt>
      <trkpt lat="45.89384" lon="4.43484">
        <ele>388.51</ele>
        <time>2018-05-20T08:28:30Z</time>
      </trkpt>
      <trkpt lat="45.89396" lon="4.43491">
        <ele>388.51</ele>
        <time>2018-05-20T08:28:42Z</time>
      </trkpt>
      <trkpt lat="45.8942" lon="4.43501">
        <ele>388.03</ele>
        <time>2018-05-20T08:28:59Z</time>
      </trkpt>
      <trkpt lat="45.89443" lon="4.43514">
        <ele>392.84</ele>
        <time>2018-05-20T08:29:19Z</time>
      </trkpt>
      <trkpt lat="45.89461" lon="4.43521">
        <ele>394.76</ele>
        <time>2018-05-20T08:29:35Z</time>
      </trkpt>
      <trkpt lat="45.89477" lon="4.43519">
        <ele>389.95</ele>
        <time>2018-05-20T08:29:57Z</time>
      </trkpt>
      <trkpt lat="45.89511" lon="4.43552">
        <ele>384.18</ele>
        <time>2018-05-20T08:30:19Z</time>
      </trkpt>
      <trkpt lat="45.89525" lon="4.43544">
        <ele>390.43</ele>
        <time>2018-05-20T08:30:28Z</time>
      </trkpt>
      <trkpt lat="45.8953" lon="4.43541">
        <ele>401.01</ele>
        <time>2018-05-20T08:30:51Z</time>
      </trkpt>
      <trkpt lat="45.89536" lon="4.43529">
        <ele>400.53</ele>
        <time>2018-05-20T08:31:06Z</time>
      </trkpt>
      <trkpt lat="45.89556" lon="4.43521">
        <ele>399.57</ele>
        <time>2018-05-20T08:31:26Z</time>
      </trkpt>
      <trkpt lat="45.89557" lon="4.43518">
        <ele>399.57</ele>
        <time>2018-05-20T08:31:27Z</time>
      </trkpt>
      <trkpt lat="45.89559" lon="4.43504">
        <ele>397.64</ele>
        <time>2018-05-20T08:31:40Z</time>
      </trkpt>
      <trkpt lat="45.89571" lon="4.43486">
        <ele>394.76</ele>
        <time>2018-05-20T08:31:56Z</time>
      </trkpt>
      <trkpt lat="45.89587" lon="4.43469">
        <ele>393.8</ele>
        <time>2018-05-20T08:32:15Z</time>
      </trkpt>
      <trkpt lat="45.8961" lon="4.43435">
        <ele>396.2</ele>
        <time>2018-05-20T08:32:36Z</time>
      </trkpt>
      <trkpt lat="45.89622" lon="4.43415">
        <ele>396.68</ele>
        <time>2018-05-20T08:32:54Z</time>
      </trkpt>
      <trkpt lat="45.89637" lon="4.434">
        <ele>395.24</ele>
        <time>2018-05-20T08:33:17Z</time>
      </trkpt>
      <trkpt lat="45.8965" lon="4.43375">
        <ele>393.8</ele>
        <time>2018-05-20T08:33:37Z</time>
      </trkpt>
      <trkpt lat="45.8966" lon="4.43374">
        <ele>400.53</ele>
        <time>2018-05-20T08:33:52Z</time>
      </trkpt>
      <trkpt lat="45.89671" lon="4.43379">
        <ele>427.44</ele>
        <time>2018-05-20T08:34:12Z</time>
      </trkpt>
      <trkpt lat="45.89668" lon="4.43381">
        <ele>435.13</ele>
        <time>2018-05-20T08:34:31Z</time>
      </trkpt>
      <trkpt lat="45.89665" lon="4.43367">
        <ele>437.54</ele>
        <time>2018-05-20T08:34:55Z</time>
      </trkpt>
      <trkpt lat="45.89664" lon="4.4336">
        <ele>434.65</ele>
        <time>2018-05-20T08:35:31Z</time>
      </trkpt>
      <trkpt lat="45.8966" lon="4.43361">
        <ele>441.38</ele>
        <time>2018-05-20T08:36:09Z</time>
      </trkpt>
      <trkpt lat="45.89663" lon="4.43369">
        <ele>449.07</ele>
        <time>2018-05-20T08:36:39Z</time>
      </trkpt>
      <trkpt lat="45.89663" lon="4.43364">
        <ele>448.59</ele>
        <time>2018-05-20T08:37:01Z</time>
      </trkpt>
      <trkpt lat="45.89665" lon="4.43356">
        <ele>444.27</ele>
        <time>2018-05-20T08:37:17Z</time>
      </trkpt>
      <trkpt lat="45.89676" lon="4.43364">
        <ele>439.94</ele>
        <time>2018-05-20T08:37:32Z</time>
      </trkpt>
      <trkpt lat="45.89678" lon="4.43365">
        <ele>439.46</ele>
        <time>2018-05-20T08:37:34Z</time>
      </trkpt>
      <trkpt lat="45.89694" lon="4.43369">
        <ele>435.13</ele>
        <time>2018-05-20T08:37:53Z</time>
      </trkpt>
      <trkpt lat="45.89708" lon="4.43376">
        <ele>429.85</ele>
        <time>2018-05-20T08:38:14Z</time>
      </trkpt>
      <trkpt lat="45.89707" lon="4.43379">
        <ele>419.75</ele>
        <time>2018-05-20T08:38:47Z</time>
      </trkpt>
      <trkpt lat="45.89708" lon="4.43377">
        <ele>424.56</ele>
        <time>2018-05-20T08:39:13Z</time>
      </trkpt>
      <trkpt lat="45.89718" lon="4.43367">
        <ele>421.19</ele>
        <time>2018-05-20T08:39:35Z</time>
      </trkpt>
      <trkpt lat="45.89733" lon="4.43325">
        <ele>412.06</ele>
        <time>2018-05-20T08:39:53Z</time>
      </trkpt>
      <trkpt lat="45.89748" lon="4.43295">
        <ele>405.33</ele>
        <time>2018-05-20T08:40:12Z</time>
      </trkpt>
      <trkpt lat="45.89744" lon="4.43263">
        <ele>397.64</ele>
        <time>2018-05-20T08:40:32Z</time>
      </trkpt>
      <trkpt lat="45.89721" lon="4.4326">
        <ele>394.76</ele>
        <time>2018-05-20T08:40:49Z</time>
      </trkpt>
      <trkpt lat="45.897" lon="4.43283">
        <ele>393.8</ele>
        <time>2018-05-20T08:41:08Z</time>
      </trkpt>
      <trkpt lat="45.89687" lon="4.43284">
        <ele>392.36</ele>
        <time>2018-05-20T08:41:23Z</time>
      </trkpt>
      <trkpt lat="45.89671" lon="4.43273">
        <ele>391.87</ele>
        <time>2018-05-20T08:41:40Z</time>
      </trkpt>
      <trkpt lat="45.89652" lon="4.43267">
        <ele>388.51</ele>
        <time>2018-05-20T08:41:58Z</time>
      </trkpt>
      <trkpt lat="45.89653" lon="4.43258">
        <ele>383.22</ele>
        <time>2018-05-20T08:42:23Z</time>
      </trkpt>
      <trkpt lat="45.89654" lon="4.43262">
        <ele>388.51</ele>
        <time>2018-05-20T08:42:41Z</time>
      </trkpt>
      <trkpt lat="45.89652" lon="4.43257">
        <ele>389.47</ele>
        <time>2018-05-20T08:53:04Z</time>
      </trkpt>
      <trkpt lat="45.89651" lon="4.43264">
        <ele>394.28</ele>
        <time>2018-05-20T08:53:25Z</time>
      </trkpt>
      <trkpt lat="45.8965" lon="4.43278">
        <ele>411.58</ele>
        <time>2018-05-20T08:53:48Z</time>
      </trkpt>
      <trkpt lat="45.89669" lon="4.43282">
        <ele>409.66</ele>
        <time>2018-05-20T08:54:09Z</time>
      </trkpt>
      <trkpt lat="45.8968" lon="4.43295">
        <ele>407.74</ele>
        <time>2018-05-20T08:54:26Z</time>
      </trkpt>
      <trkpt lat="45.89705" lon="4.43285">
        <ele>403.41</ele>
        <time>2018-05-20T08:54:47Z</time>
      </trkpt>
      <trkpt lat="45.89723" lon="4.43268">
        <ele>391.87</ele>
        <time>2018-05-20T08:55:11Z</time>
      </trkpt>
      <trkpt lat="45.8975" lon="4.43235">
        <ele>387.55</ele>
        <time>2018-05-20T08:55:33Z</time>
      </trkpt>
      <trkpt lat="45.89767" lon="4.43218">
        <ele>390.91</ele>
        <time>2018-05-20T08:55:57Z</time>
      </trkpt>
      <trkpt lat="45.89794" lon="4.43202">
        <ele>389.47</ele>
        <time>2018-05-20T08:56:18Z</time>
      </trkpt>
      <trkpt lat="45.89819" lon="4.43205">
        <ele>387.07</ele>
        <time>2018-05-20T08:56:34Z</time>
      </trkpt>
      <trkpt lat="45.89843" lon="4.43221">
        <ele>385.15</ele>
        <time>2018-05-20T08:56:56Z</time>
      </trkpt>
      <trkpt lat="45.89862" lon="4.43226">
        <ele>387.07</ele>
        <time>2018-05-20T08:57:16Z</time>
      </trkpt>
      <trkpt lat="45.89876" lon="4.43248">
        <ele>382.26</ele>
        <time>2018-05-20T08:57:37Z</time>
      </trkpt>
      <trkpt lat="45.89881" lon="4.43282">
        <ele>379.38</ele>
        <time>2018-05-20T08:57:58Z</time>
      </trkpt>
      <trkpt lat="45.89885" lon="4.43317">
        <ele>381.3</ele>
        <time>2018-05-20T08:58:15Z</time>
      </trkpt>
      <trkpt lat="45.89895" lon="4.4334">
        <ele>385.63</ele>
        <time>2018-05-20T08:58:34Z</time>
      </trkpt>
      <trkpt lat="45.89901" lon="4.43363">
        <ele>379.86</ele>
        <time>2018-05-20T08:58:54Z</time>
      </trkpt>
      <trkpt lat="45.89894" lon="4.4341">
        <ele>387.55</ele>
        <time>2018-05-20T08:59:16Z</time>
      </trkpt>
      <trkpt lat="45.89893" lon="4.43412">
        <ele>387.07</ele>
        <time>2018-05-20T08:59:17Z</time>
      </trkpt>
      <trkpt lat="45.89885" lon="4.43451">
        <ele>394.28</ele>
        <time>2018-05-20T08:59:38Z</time>
      </trkpt>
      <trkpt lat="45.89894" lon="4.43475">
        <ele>394.28</ele>
        <time>2018-05-20T08:59:56Z</time>
      </trkpt>
      <trkpt lat="45.89891" lon="4.43505">
        <ele>395.72</ele>
        <time>2018-05-20T09:00:13Z</time>
      </trkpt>
      <trkpt lat="45.8991" lon="4.43509">
        <ele>395.72</ele>
        <time>2018-05-20T09:00:31Z</time>
      </trkpt>
      <trkpt lat="45.89943" lon="4.43513">
        <ele>404.37</ele>
        <time>2018-05-20T09:00:55Z</time>
      </trkpt>
      <trkpt lat="45.89959" lon="4.43534">
        <ele>404.85</ele>
        <time>2018-05-20T09:01:18Z</time>
      </trkpt>
      <trkpt lat="45.89979" lon="4.43554">
        <ele>402.45</ele>
        <time>2018-05-20T09:01:38Z</time>
      </trkpt>
      <trkpt lat="45.89995" lon="4.43566">
        <ele>403.41</ele>
        <time>2018-05-20T09:01:59Z</time>
      </trkpt>
      <trkpt lat="45.90011" lon="4.43572">
        <ele>399.08</ele>
        <time>2018-05-20T09:02:15Z</time>
      </trkpt>
      <trkpt lat="45.90017" lon="4.43603">
        <ele>403.89</ele>
        <time>2018-05-20T09:02:30Z</time>
      </trkpt>
      <trkpt lat="45.9004" lon="4.43619">
        <ele>408.22</ele>
        <time>2018-05-20T09:02:51Z</time>
      </trkpt>
      <trkpt lat="45.90049" lon="4.43643">
        <ele>412.54</ele>
        <time>2018-05-20T09:03:10Z</time>
      </trkpt>
      <trkpt lat="45.9006" lon="4.43665">
        <ele>418.79</ele>
        <time>2018-05-20T09:03:27Z</time>
      </trkpt>
      <trkpt lat="45.90062" lon="4.43684">
        <ele>419.27</ele>
        <time>2018-05-20T09:03:44Z</time>
      </trkpt>
      <trkpt lat="45.90075" lon="4.43707">
        <ele>423.6</ele>
        <time>2018-05-20T09:04:03Z</time>
      </trkpt>
      <trkpt lat="45.9009" lon="4.43736">
        <ele>430.81</ele>
        <time>2018-05-20T09:04:24Z</time>
      </trkpt>
      <trkpt lat="45.90092" lon="4.4376">
        <ele>432.73</ele>
        <time>2018-05-20T09:04:45Z</time>
      </trkpt>
      <trkpt lat="45.90088" lon="4.43795">
        <ele>442.82</ele>
        <time>2018-05-20T09:05:06Z</time>
      </trkpt>
      <trkpt lat="45.90087" lon="4.43814">
        <ele>443.79</ele>
        <time>2018-05-20T09:05:25Z</time>
      </trkpt>
      <trkpt lat="45.90083" lon="4.43829">
        <ele>442.82</ele>
        <time>2018-05-20T09:05:33Z</time>
      </trkpt>
      <trkpt lat="45.9007" lon="4.4386">
        <ele>444.27</ele>
        <time>2018-05-20T09:05:54Z</time>
      </trkpt>
      <trkpt lat="45.90067" lon="4.43886">
        <ele>450.52</ele>
        <time>2018-05-20T09:06:14Z</time>
      </trkpt>
      <trkpt lat="45.90056" lon="4.43914">
        <ele>455.8</ele>
        <time>2018-05-20T09:06:33Z</time>
      </trkpt>
      <trkpt lat="45.90054" lon="4.43938">
        <ele>456.76</ele>
        <time>2018-05-20T09:06:54Z</time>
      </trkpt>
      <trkpt lat="45.90058" lon="4.43954">
        <ele>459.17</ele>
        <time>2018-05-20T09:07:10Z</time>
      </trkpt>
      <trkpt lat="45.90057" lon="4.43974">
        <ele>460.61</ele>
        <time>2018-05-20T09:07:28Z</time>
      </trkpt>
      <trkpt lat="45.90061" lon="4.44006">
        <ele>461.09</ele>
        <time>2018-05-20T09:07:53Z</time>
      </trkpt>
      <trkpt lat="45.9006" lon="4.44041">
        <ele>470.22</ele>
        <time>2018-05-20T09:08:16Z</time>
      </trkpt>
      <trkpt lat="45.90055" lon="4.44064">
        <ele>473.11</ele>
        <time>2018-05-20T09:08:39Z</time>
      </trkpt>
      <trkpt lat="45.90051" lon="4.44086">
        <ele>476.95</ele>
        <time>2018-05-20T09:09:00Z</time>
      </trkpt>
      <trkpt lat="45.90049" lon="4.44117">
        <ele>478.87</ele>
        <time>2018-05-20T09:09:25Z</time>
      </trkpt>
      <trkpt lat="45.90047" lon="4.44146">
        <ele>483.68</ele>
        <time>2018-05-20T09:09:51Z</time>
      </trkpt>
      <trkpt lat="45.90032" lon="4.44157">
        <ele>493.77</ele>
        <time>2018-05-20T09:10:12Z</time>
      </trkpt>
      <trkpt lat="45.9001" lon="4.4416">
        <ele>500.02</ele>
        <time>2018-05-20T09:10:31Z</time>
      </trkpt>
      <trkpt lat="45.89995" lon="4.44146">
        <ele>502.43</ele>
        <time>2018-05-20T09:10:49Z</time>
      </trkpt>
      <trkpt lat="45.89972" lon="4.44147">
        <ele>503.87</ele>
        <time>2018-05-20T09:11:08Z</time>
      </trkpt>
      <trkpt lat="45.8996" lon="4.44152">
        <ele>504.35</ele>
        <time>2018-05-20T09:11:18Z</time>
      </trkpt>
      <trkpt lat="45.89943" lon="4.44158">
        <ele>506.27</ele>
        <time>2018-05-20T09:11:38Z</time>
      </trkpt>
      <trkpt lat="45.89924" lon="4.4417">
        <ele>506.75</ele>
        <time>2018-05-20T09:11:56Z</time>
      </trkpt>
      <trkpt lat="45.89908" lon="4.44185">
        <ele>509.64</ele>
        <time>2018-05-20T09:12:15Z</time>
      </trkpt>
      <trkpt lat="45.89896" lon="4.44209">
        <ele>510.6</ele>
        <time>2018-05-20T09:12:35Z</time>
      </trkpt>
      <trkpt lat="45.89891" lon="4.44237">
        <ele>509.16</ele>
        <time>2018-05-20T09:12:55Z</time>
      </trkpt>
      <trkpt lat="45.89889" lon="4.44263">
        <ele>509.16</ele>
        <time>2018-05-20T09:13:09Z</time>
      </trkpt>
      <trkpt lat="45.89887" lon="4.44273">
        <ele>509.64</ele>
        <time>2018-05-20T09:13:26Z</time>
      </trkpt>
      <trkpt lat="45.89898" lon="4.44268">
        <ele>510.6</ele>
        <time>2018-05-20T09:13:42Z</time>
      </trkpt>
      <trkpt lat="45.89903" lon="4.44246">
        <ele>518.29</ele>
        <time>2018-05-20T09:13:58Z</time>
      </trkpt>
      <trkpt lat="45.89911" lon="4.44234">
        <ele>514.44</ele>
        <time>2018-05-20T09:14:16Z</time>
      </trkpt>
      <trkpt lat="45.89931" lon="4.44217">
        <ele>511.56</ele>
        <time>2018-05-20T09:14:38Z</time>
      </trkpt>
      <trkpt lat="45.89954" lon="4.4422">
        <ele>514.92</ele>
        <time>2018-05-20T09:14:58Z</time>
      </trkpt>
      <trkpt lat="45.89974" lon="4.44238">
        <ele>515.4</ele>
        <time>2018-05-20T09:15:18Z</time>
      </trkpt>
      <trkpt lat="45.89984" lon="4.44264">
        <ele>518.77</ele>
        <time>2018-05-20T09:15:38Z</time>
      </trkpt>
      <trkpt lat="45.89974" lon="4.44269">
        <ele>518.77</ele>
        <time>2018-05-20T09:15:55Z</time>
      </trkpt>
      <trkpt lat="45.89958" lon="4.44262">
        <ele>519.25</ele>
        <time>2018-05-20T09:16:13Z</time>
      </trkpt>
      <trkpt lat="45.89945" lon="4.4426">
        <ele>521.17</ele>
        <time>2018-05-20T09:16:24Z</time>
      </trkpt>
      <trkpt lat="45.89932" lon="4.44275">
        <ele>522.13</ele>
        <time>2018-05-20T09:16:44Z</time>
      </trkpt>
      <trkpt lat="45.89932" lon="4.44296">
        <ele>525.02</ele>
        <time>2018-05-20T09:17:08Z</time>
      </trkpt>
      <trkpt lat="45.89935" lon="4.44333">
        <ele>527.9</ele>
        <time>2018-05-20T09:17:30Z</time>
      </trkpt>
      <trkpt lat="45.89944" lon="4.44351">
        <ele>534.15</ele>
        <time>2018-05-20T09:17:47Z</time>
      </trkpt>
      <trkpt lat="45.89955" lon="4.44361">
        <ele>535.11</ele>
        <time>2018-05-20T09:18:03Z</time>
      </trkpt>
      <trkpt lat="45.8996" lon="4.44381">
        <ele>538.96</ele>
        <time>2018-05-20T09:18:17Z</time>
      </trkpt>
      <trkpt lat="45.89968" lon="4.44407">
        <ele>542.8</ele>
        <time>2018-05-20T09:18:36Z</time>
      </trkpt>
      <trkpt lat="45.8998" lon="4.44418">
        <ele>543.76</ele>
        <time>2018-05-20T09:18:56Z</time>
      </trkpt>
      <trkpt lat="45.89982" lon="4.44438">
        <ele>546.65</ele>
        <time>2018-05-20T09:19:16Z</time>
      </trkpt>
      <trkpt lat="45.89988" lon="4.44449">
        <ele>551.45</ele>
        <time>2018-05-20T09:19:38Z</time>
      </trkpt>
      <trkpt lat="45.89994" lon="4.44446">
        <ele>552.41</ele>
        <time>2018-05-20T09:20:07Z</time>
      </trkpt>
      <trkpt lat="45.89995" lon="4.4446">
        <ele>552.9</ele>
        <time>2018-05-20T09:20:29Z</time>
      </trkpt>
      <trkpt lat="45.90003" lon="4.44475">
        <ele>551.93</ele>
        <time>2018-05-20T09:20:46Z</time>
      </trkpt>
      <trkpt lat="45.90007" lon="4.44482">
        <ele>551.93</ele>
        <time>2018-05-20T09:21:02Z</time>
      </trkpt>
      <trkpt lat="45.9001" lon="4.44483">
        <ele>552.9</ele>
        <time>2018-05-20T09:21:24Z</time>
      </trkpt>
      <trkpt lat="45.90006" lon="4.44497">
        <ele>556.26</ele>
        <time>2018-05-20T09:21:39Z</time>
      </trkpt>
      <trkpt lat="45.90012" lon="4.44514">
        <ele>558.66</ele>
        <time>2018-05-20T09:22:01Z</time>
      </trkpt>
      <trkpt lat="45.90014" lon="4.44524">
        <ele>562.51</ele>
        <time>2018-05-20T09:22:23Z</time>
      </trkpt>
      <trkpt lat="45.90019" lon="4.44547">
        <ele>566.35</ele>
        <time>2018-05-20T09:22:43Z</time>
      </trkpt>
      <trkpt lat="45.90023" lon="4.44563">
        <ele>569.72</ele>
        <time>2018-05-20T09:22:59Z</time>
      </trkpt>
      <trkpt lat="45.90027" lon="4.44585">
        <ele>574.53</ele>
        <time>2018-05-20T09:23:15Z</time>
      </trkpt>
      <trkpt lat="45.90036" lon="4.44603">
        <ele>578.37</ele>
        <time>2018-05-20T09:23:33Z</time>
      </trkpt>
      <trkpt lat="45.90045" lon="4.44626">
        <ele>581.25</ele>
        <time>2018-05-20T09:23:53Z</time>
      </trkpt>
      <trkpt lat="45.90055" lon="4.44652">
        <ele>583.66</ele>
        <time>2018-05-20T09:24:16Z</time>
      </trkpt>
      <trkpt lat="45.90064" lon="4.44687">
        <ele>589.43</ele>
        <time>2018-05-20T09:24:39Z</time>
      </trkpt>
      <trkpt lat="45.90076" lon="4.44698">
        <ele>592.79</ele>
        <time>2018-05-20T09:24:57Z</time>
      </trkpt>
      <trkpt lat="45.90084" lon="4.44727">
        <ele>593.27</ele>
        <time>2018-05-20T09:25:19Z</time>
      </trkpt>
      <trkpt lat="45.90096" lon="4.44742">
        <ele>595.19</ele>
        <time>2018-05-20T09:25:37Z</time>
      </trkpt>
      <trkpt lat="45.90105" lon="4.44746">
        <ele>595.19</ele>
        <time>2018-05-20T09:25:58Z</time>
      </trkpt>
      <trkpt lat="45.90106" lon="4.44757">
        <ele>592.79</ele>
        <time>2018-05-20T09:26:13Z</time>
      </trkpt>
      <trkpt lat="45.90119" lon="4.44777">
        <ele>593.75</ele>
        <time>2018-05-20T09:26:34Z</time>
      </trkpt>
      <trkpt lat="45.90128" lon="4.44816">
        <ele>599.52</ele>
        <time>2018-05-20T09:26:54Z</time>
      </trkpt>
      <trkpt lat="45.90149" lon="4.44825">
        <ele>603.85</ele>
        <time>2018-05-20T09:27:14Z</time>
      </trkpt>
      <trkpt lat="45.90163" lon="4.44837">
        <ele>605.77</ele>
        <time>2018-05-20T09:27:32Z</time>
      </trkpt>
      <trkpt lat="45.90187" lon="4.44847">
        <ele>607.69</ele>
        <time>2018-05-20T09:27:53Z</time>
      </trkpt>
      <trkpt lat="45.90201" lon="4.44873">
        <ele>609.61</ele>
        <time>2018-05-20T09:28:13Z</time>
      </trkpt>
      <trkpt lat="45.90216" lon="4.44887">
        <ele>611.54</ele>
        <time>2018-05-20T09:28:32Z</time>
      </trkpt>
      <trkpt lat="45.90233" lon="4.44909">
        <ele>613.46</ele>
        <time>2018-05-20T09:28:52Z</time>
      </trkpt>
      <trkpt lat="45.90253" lon="4.44925">
        <ele>617.3</ele>
        <time>2018-05-20T09:29:14Z</time>
      </trkpt>
      <trkpt lat="45.90275" lon="4.44945">
        <ele>618.75</ele>
        <time>2018-05-20T09:29:38Z</time>
      </trkpt>
      <trkpt lat="45.903" lon="4.44967">
        <ele>623.55</ele>
        <time>2018-05-20T09:30:04Z</time>
      </trkpt>
      <trkpt lat="45.90321" lon="4.44984">
        <ele>624.99</ele>
        <time>2018-05-20T09:30:25Z</time>
      </trkpt>
      <trkpt lat="45.90338" lon="4.45004">
        <ele>633.17</ele>
        <time>2018-05-20T09:30:48Z</time>
      </trkpt>
      <trkpt lat="45.90353" lon="4.45023">
        <ele>639.41</ele>
        <time>2018-05-20T09:31:10Z</time>
      </trkpt>
      <trkpt lat="45.90369" lon="4.4503">
        <ele>645.18</ele>
        <time>2018-05-20T09:31:33Z</time>
      </trkpt>
      <trkpt lat="45.9039" lon="4.4505">
        <ele>648.07</ele>
        <time>2018-05-20T09:31:55Z</time>
      </trkpt>
      <trkpt lat="45.90423" lon="4.45055">
        <ele>652.39</ele>
        <time>2018-05-20T09:32:16Z</time>
      </trkpt>
      <trkpt lat="45.90438" lon="4.45069">
        <ele>660.56</ele>
        <time>2018-05-20T09:32:40Z</time>
      </trkpt>
      <trkpt lat="45.90458" lon="4.45078">
        <ele>664.89</ele>
        <time>2018-05-20T09:33:04Z</time>
      </trkpt>
      <trkpt lat="45.90483" lon="4.45084">
        <ele>669.7</ele>
        <time>2018-05-20T09:33:27Z</time>
      </trkpt>
      <trkpt lat="45.90505" lon="4.45095">
        <ele>671.14</ele>
        <time>2018-05-20T09:33:55Z</time>
      </trkpt>
      <trkpt lat="45.90534" lon="4.45104">
        <ele>677.87</ele>
        <time>2018-05-20T09:34:19Z</time>
      </trkpt>
      <trkpt lat="45.9056" lon="4.45114">
        <ele>684.6</ele>
        <time>2018-05-20T09:34:51Z</time>
      </trkpt>
      <trkpt lat="45.90569" lon="4.4511">
        <ele>684.12</ele>
        <time>2018-05-20T09:35:18Z</time>
      </trkpt>
      <trkpt lat="45.90572" lon="4.45114">
        <ele>684.12</ele>
        <time>2018-05-20T09:35:45Z</time>
      </trkpt>
      <trkpt lat="45.9058" lon="4.45116">
        <ele>687.48</ele>
        <time>2018-05-20T09:36:05Z</time>
      </trkpt>
      <trkpt lat="45.90592" lon="4.45114">
        <ele>689.4</ele>
        <time>2018-05-20T09:36:18Z</time>
      </trkpt>
      <trkpt lat="45.90612" lon="4.45106">
        <ele>684.6</ele>
        <time>2018-05-20T09:36:34Z</time>
      </trkpt>
      <trkpt lat="45.90633" lon="4.45109">
        <ele>678.35</ele>
        <time>2018-05-20T09:36:56Z</time>
      </trkpt>
      <trkpt lat="45.90656" lon="4.45109">
        <ele>677.87</ele>
        <time>2018-05-20T09:37:17Z</time>
      </trkpt>
      <trkpt lat="45.90681" lon="4.45113">
        <ele>676.42</ele>
        <time>2018-05-20T09:37:38Z</time>
      </trkpt>
      <trkpt lat="45.90703" lon="4.45127">
        <ele>674.5</ele>
        <time>2018-05-20T09:37:58Z</time>
      </trkpt>
      <trkpt lat="45.90723" lon="4.45139">
        <ele>673.54</ele>
        <time>2018-05-20T09:38:19Z</time>
      </trkpt>
      <trkpt lat="45.90739" lon="4.45158">
        <ele>676.42</ele>
        <time>2018-05-20T09:38:38Z</time>
      </trkpt>
      <trkpt lat="45.90757" lon="4.45166">
        <ele>678.35</ele>
        <time>2018-05-20T09:38:56Z</time>
      </trkpt>
      <trkpt lat="45.90762" lon="4.45187">
        <ele>681.23</ele>
        <time>2018-05-20T09:39:12Z</time>
      </trkpt>
      <trkpt lat="45.90775" lon="4.45202">
        <ele>683.63</ele>
        <time>2018-05-20T09:39:29Z</time>
      </trkpt>
      <trkpt lat="45.90787" lon="4.45235">
        <ele>685.56</ele>
        <time>2018-05-20T09:39:49Z</time>
      </trkpt>
      <trkpt lat="45.90801" lon="4.45251">
        <ele>684.6</ele>
        <time>2018-05-20T09:40:07Z</time>
      </trkpt>
      <trkpt lat="45.90819" lon="4.45278">
        <ele>683.63</ele>
        <time>2018-05-20T09:40:29Z</time>
      </trkpt>
      <trkpt lat="45.90835" lon="4.45315">
        <ele>682.19</ele>
        <time>2018-05-20T09:40:54Z</time>
      </trkpt>
      <trkpt lat="45.90844" lon="4.4535">
        <ele>678.35</ele>
        <time>2018-05-20T09:41:17Z</time>
      </trkpt>
      <trkpt lat="45.90854" lon="4.45387">
        <ele>679.31</ele>
        <time>2018-05-20T09:41:42Z</time>
      </trkpt>
      <trkpt lat="45.90854" lon="4.45426">
        <ele>677.87</ele>
        <time>2018-05-20T09:42:06Z</time>
      </trkpt>
      <trkpt lat="45.90857" lon="4.45459">
        <ele>674.5</ele>
        <time>2018-05-20T09:42:24Z</time>
      </trkpt>
      <trkpt lat="45.90865" lon="4.45489">
        <ele>671.14</ele>
        <time>2018-05-20T09:42:43Z</time>
      </trkpt>
      <trkpt lat="45.90874" lon="4.45525">
        <ele>668.25</ele>
        <time>2018-05-20T09:43:04Z</time>
      </trkpt>
      <trkpt lat="45.90886" lon="4.45563">
        <ele>668.25</ele>
        <time>2018-05-20T09:43:26Z</time>
      </trkpt>
      <trkpt lat="45.90894" lon="4.45596">
        <ele>672.1</ele>
        <time>2018-05-20T09:43:44Z</time>
      </trkpt>
      <trkpt lat="45.90906" lon="4.45638">
        <ele>674.5</ele>
        <time>2018-05-20T09:44:07Z</time>
      </trkpt>
      <trkpt lat="45.90918" lon="4.45671">
        <ele>673.54</ele>
        <time>2018-05-20T09:44:29Z</time>
      </trkpt>
      <trkpt lat="45.90925" lon="4.45708">
        <ele>673.06</ele>
        <time>2018-05-20T09:44:51Z</time>
      </trkpt>
      <trkpt lat="45.90916" lon="4.4574">
        <ele>674.02</ele>
        <time>2018-05-20T09:45:13Z</time>
      </trkpt>
      <trkpt lat="45.90907" lon="4.4577">
        <ele>672.1</ele>
        <time>2018-05-20T09:45:34Z</time>
      </trkpt>
      <trkpt lat="45.90906" lon="4.45778">
        <ele>671.62</ele>
        <time>2018-05-20T09:45:40Z</time>
      </trkpt>
      <trkpt lat="45.90892" lon="4.45825">
        <ele>668.73</ele>
        <time>2018-05-20T09:46:02Z</time>
      </trkpt>
      <trkpt lat="45.90883" lon="4.45842">
        <ele>668.73</ele>
        <time>2018-05-20T09:46:21Z</time>
      </trkpt>
      <trkpt lat="45.90869" lon="4.45874">
        <ele>665.85</ele>
        <time>2018-05-20T09:46:45Z</time>
      </trkpt>
      <trkpt lat="45.90856" lon="4.45896">
        <ele>663.93</ele>
        <time>2018-05-20T09:47:08Z</time>
      </trkpt>
      <trkpt lat="45.90858" lon="4.45896">
        <ele>662.01</ele>
        <time>2018-05-20T09:47:28Z</time>
      </trkpt>
      <trkpt lat="45.90846" lon="4.45926">
        <ele>661.04</ele>
        <time>2018-05-20T09:47:47Z</time>
      </trkpt>
      <trkpt lat="45.90835" lon="4.4596">
        <ele>662.01</ele>
        <time>2018-05-20T09:48:09Z</time>
      </trkpt>
      <trkpt lat="45.9083" lon="4.46004">
        <ele>660.08</ele>
        <time>2018-05-20T09:48:31Z</time>
      </trkpt>
      <trkpt lat="45.90844" lon="4.46025">
        <ele>655.28</ele>
        <time>2018-05-20T09:48:50Z</time>
      </trkpt>
      <trkpt lat="45.9087" lon="4.46023">
        <ele>649.51</ele>
        <time>2018-05-20T09:49:13Z</time>
      </trkpt>
      <trkpt lat="45.90885" lon="4.46008">
        <ele>645.18</ele>
        <time>2018-05-20T09:49:34Z</time>
      </trkpt>
      <trkpt lat="45.90894" lon="4.45999">
        <ele>644.22</ele>
        <time>2018-05-20T09:49:54Z</time>
      </trkpt>
      <trkpt lat="45.90911" lon="4.45987">
        <ele>641.82</ele>
        <time>2018-05-20T09:50:14Z</time>
      </trkpt>
      <trkpt lat="45.90933" lon="4.45985">
        <ele>636.05</ele>
        <time>2018-05-20T09:50:37Z</time>
      </trkpt>
      <trkpt lat="45.90952" lon="4.45995">
        <ele>633.17</ele>
        <time>2018-05-20T09:50:56Z</time>
      </trkpt>
      <trkpt lat="45.90969" lon="4.46012">
        <ele>634.61</ele>
        <time>2018-05-20T09:51:17Z</time>
      </trkpt>
      <trkpt lat="45.90979" lon="4.46023">
        <ele>635.09</ele>
        <time>2018-05-20T09:51:36Z</time>
      </trkpt>
      <trkpt lat="45.90998" lon="4.46038">
        <ele>634.61</ele>
        <time>2018-05-20T09:51:56Z</time>
      </trkpt>
      <trkpt lat="45.91023" lon="4.46044">
        <ele>632.68</ele>
        <time>2018-05-20T09:52:18Z</time>
      </trkpt>
      <trkpt lat="45.9103" lon="4.46046">
        <ele>631.24</ele>
        <time>2018-05-20T09:52:24Z</time>
      </trkpt>
      <trkpt lat="45.91055" lon="4.46051">
        <ele>629.32</ele>
        <time>2018-05-20T09:52:45Z</time>
      </trkpt>
      <trkpt lat="45.91078" lon="4.46066">
        <ele>627.88</ele>
        <time>2018-05-20T09:53:08Z</time>
      </trkpt>
      <trkpt lat="45.91085" lon="4.46069">
        <ele>627.4</ele>
        <time>2018-05-20T09:53:24Z</time>
      </trkpt>
      <trkpt lat="45.91086" lon="4.46069">
        <ele>628.84</ele>
        <time>2018-05-20T09:53:36Z</time>
      </trkpt>
      <trkpt lat="45.91095" lon="4.46053">
        <ele>629.8</ele>
        <time>2018-05-20T09:53:58Z</time>
      </trkpt>
      <trkpt lat="45.91098" lon="4.4605">
        <ele>630.28</ele>
        <time>2018-05-20T09:54:03Z</time>
      </trkpt>
      <trkpt lat="45.91108" lon="4.46045">
        <ele>630.28</ele>
        <time>2018-05-20T09:54:11Z</time>
      </trkpt>
      <trkpt lat="45.91133" lon="4.46019">
        <ele>630.76</ele>
        <time>2018-05-20T09:54:36Z</time>
      </trkpt>
      <trkpt lat="45.91147" lon="4.45991">
        <ele>631.72</ele>
        <time>2018-05-20T09:55:01Z</time>
      </trkpt>
      <trkpt lat="45.91158" lon="4.45961">
        <ele>631.24</ele>
        <time>2018-05-20T09:55:23Z</time>
      </trkpt>
      <trkpt lat="45.9117" lon="4.45922">
        <ele>631.72</ele>
        <time>2018-05-20T09:55:47Z</time>
      </trkpt>
      <trkpt lat="45.91182" lon="4.45909">
        <ele>632.2</ele>
        <time>2018-05-20T09:56:03Z</time>
      </trkpt>
      <trkpt lat="45.91186" lon="4.45915">
        <ele>631.24</ele>
        <time>2018-05-20T09:56:08Z</time>
      </trkpt>
      <trkpt lat="45.91199" lon="4.4595">
        <ele>633.17</ele>
        <time>2018-05-20T09:56:29Z</time>
      </trkpt>
      <trkpt lat="45.91214" lon="4.4598">
        <ele>630.76</ele>
        <time>2018-05-20T09:56:51Z</time>
      </trkpt>
      <trkpt lat="45.91226" lon="4.46007">
        <ele>630.76</ele>
        <time>2018-05-20T09:57:06Z</time>
      </trkpt>
      <trkpt lat="45.91243" lon="4.46033">
        <ele>628.36</ele>
        <time>2018-05-20T09:57:27Z</time>
      </trkpt>
      <trkpt lat="45.91252" lon="4.46072">
        <ele>625.96</ele>
        <time>2018-05-20T09:57:47Z</time>
      </trkpt>
      <trkpt lat="45.91259" lon="4.46114">
        <ele>626.44</ele>
        <time>2018-05-20T09:58:08Z</time>
      </trkpt>
      <trkpt lat="45.91266" lon="4.46144">
        <ele>625.96</ele>
        <time>2018-05-20T09:58:24Z</time>
      </trkpt>
      <trkpt lat="45.9128" lon="4.46182">
        <ele>626.92</ele>
        <time>2018-05-20T09:58:48Z</time>
      </trkpt>
      <trkpt lat="45.91287" lon="4.46219">
        <ele>626.92</ele>
        <time>2018-05-20T09:59:08Z</time>
      </trkpt>
      <trkpt lat="45.91298" lon="4.46248">
        <ele>625.47</ele>
        <time>2018-05-20T09:59:26Z</time>
      </trkpt>
      <trkpt lat="45.91308" lon="4.46279">
        <ele>623.07</ele>
        <time>2018-05-20T09:59:43Z</time>
      </trkpt>
      <trkpt lat="45.91323" lon="4.46314">
        <ele>618.26</ele>
        <time>2018-05-20T10:00:05Z</time>
      </trkpt>
      <trkpt lat="45.91322" lon="4.46343">
        <ele>616.34</ele>
        <time>2018-05-20T10:00:23Z</time>
      </trkpt>
      <trkpt lat="45.91322" lon="4.46344">
        <ele>616.34</ele>
        <time>2018-05-20T10:00:24Z</time>
      </trkpt>
      <trkpt lat="45.91321" lon="4.46388">
        <ele>612.98</ele>
        <time>2018-05-20T10:00:45Z</time>
      </trkpt>
      <trkpt lat="45.91324" lon="4.46412">
        <ele>608.65</ele>
        <time>2018-05-20T10:01:04Z</time>
      </trkpt>
      <trkpt lat="45.91325" lon="4.46449">
        <ele>599.52</ele>
        <time>2018-05-20T10:01:29Z</time>
      </trkpt>
      <trkpt lat="45.91324" lon="4.46481">
        <ele>590.39</ele>
        <time>2018-05-20T10:01:53Z</time>
      </trkpt>
      <trkpt lat="45.91323" lon="4.4652">
        <ele>583.18</ele>
        <time>2018-05-20T10:02:14Z</time>
      </trkpt>
      <trkpt lat="45.91332" lon="4.4656">
        <ele>585.58</ele>
        <time>2018-05-20T10:02:34Z</time>
      </trkpt>
      <trkpt lat="45.91321" lon="4.46601">
        <ele>581.73</ele>
        <time>2018-05-20T10:02:54Z</time>
      </trkpt>
      <trkpt lat="45.91318" lon="4.46637">
        <ele>581.73</ele>
        <time>2018-05-20T10:03:14Z</time>
      </trkpt>
      <trkpt lat="45.91315" lon="4.46676">
        <ele>582.7</ele>
        <time>2018-05-20T10:03:38Z</time>
      </trkpt>
      <trkpt lat="45.91311" lon="4.46715">
        <ele>581.73</ele>
        <time>2018-05-20T10:03:59Z</time>
      </trkpt>
      <trkpt lat="45.91316" lon="4.46732">
        <ele>584.14</ele>
        <time>2018-05-20T10:04:21Z</time>
      </trkpt>
      <trkpt lat="45.91318" lon="4.46744">
        <ele>588.95</ele>
        <time>2018-05-20T10:04:46Z</time>
      </trkpt>
      <trkpt lat="45.91325" lon="4.4676">
        <ele>589.43</ele>
        <time>2018-05-20T10:05:08Z</time>
      </trkpt>
      <trkpt lat="45.91327" lon="4.46767">
        <ele>586.06</ele>
        <time>2018-05-20T10:05:32Z</time>
      </trkpt>
      <trkpt lat="45.91327" lon="4.46761">
        <ele>584.62</ele>
        <time>2018-05-20T10:05:56Z</time>
      </trkpt>
      <trkpt lat="45.91329" lon="4.46775">
        <ele>586.06</ele>
        <time>2018-05-20T10:06:25Z</time>
      </trkpt>
      <trkpt lat="45.91318" lon="4.4677">
        <ele>589.91</ele>
        <time>2018-05-20T10:06:50Z</time>
      </trkpt>
      <trkpt lat="45.91323" lon="4.46784">
        <ele>589.91</ele>
        <time>2018-05-20T10:07:12Z</time>
      </trkpt>
      <trkpt lat="45.91323" lon="4.46774">
        <ele>592.79</ele>
        <time>2018-05-20T10:07:37Z</time>
      </trkpt>
      <trkpt lat="45.91326" lon="4.4677">
        <ele>593.75</ele>
        <time>2018-05-20T10:08:03Z</time>
      </trkpt>
      <trkpt lat="45.91325" lon="4.46759">
        <ele>594.71</ele>
        <time>2018-05-20T10:08:24Z</time>
      </trkpt>
      <trkpt lat="45.91325" lon="4.46753">
        <ele>594.23</ele>
        <time>2018-05-20T10:08:28Z</time>
      </trkpt>
      <trkpt lat="45.91322" lon="4.46735">
        <ele>595.19</ele>
        <time>2018-05-20T10:08:48Z</time>
      </trkpt>
      <trkpt lat="45.91333" lon="4.46745">
        <ele>594.71</ele>
        <time>2018-05-20T10:09:11Z</time>
      </trkpt>
      <trkpt lat="45.9132" lon="4.4676">
        <ele>596.64</ele>
        <time>2018-05-20T10:09:31Z</time>
      </trkpt>
      <trkpt lat="45.91303" lon="4.46778">
        <ele>596.64</ele>
        <time>2018-05-20T10:10:01Z</time>
      </trkpt>
      <trkpt lat="45.91305" lon="4.46774">
        <ele>597.12</ele>
        <time>2018-05-20T10:10:23Z</time>
      </trkpt>
      <trkpt lat="45.91304" lon="4.46774">
        <ele>597.12</ele>
        <time>2018-05-20T10:10:37Z</time>
      </trkpt>
      <trkpt lat="45.91289" lon="4.46751">
        <ele>596.64</ele>
        <time>2018-05-20T10:11:03Z</time>
      </trkpt>
      <trkpt lat="45.91304" lon="4.46755">
        <ele>597.12</ele>
        <time>2018-05-20T10:11:26Z</time>
      </trkpt>
      <trkpt lat="45.91319" lon="4.46756">
        <ele>597.6</ele>
        <time>2018-05-20T10:11:55Z</time>
      </trkpt>
      <trkpt lat="45.91328" lon="4.46755">
        <ele>601.44</ele>
        <time>2018-05-20T10:12:20Z</time>
      </trkpt>
      <trkpt lat="45.91321" lon="4.46751">
        <ele>606.25</ele>
        <time>2018-05-20T10:12:43Z</time>
      </trkpt>
      <trkpt lat="45.91319" lon="4.46765">
        <ele>612.02</ele>
        <time>2018-05-20T10:13:10Z</time>
      </trkpt>
      <trkpt lat="45.91314" lon="4.46767">
        <ele>613.94</ele>
        <time>2018-05-20T10:13:33Z</time>
      </trkpt>
      <trkpt lat="45.91325" lon="4.46753">
        <ele>603.36</ele>
        <time>2018-05-20T10:13:58Z</time>
      </trkpt>
      <trkpt lat="45.91323" lon="4.46757">
        <ele>600</ele>
        <time>2018-05-20T10:14:29Z</time>
      </trkpt>
      <trkpt lat="45.91318" lon="4.46761">
        <ele>600</ele>
        <time>2018-05-20T10:14:56Z</time>
      </trkpt>
      <trkpt lat="45.91316" lon="4.46763">
        <ele>598.08</ele>
        <time>2018-05-20T10:15:01Z</time>
      </trkpt>
      <trkpt lat="45.91314" lon="4.46768">
        <ele>589.91</ele>
        <time>2018-05-20T10:15:26Z</time>
      </trkpt>
      <trkpt lat="45.91328" lon="4.46754">
        <ele>585.58</ele>
        <time>2018-05-20T10:15:52Z</time>
      </trkpt>
      <trkpt lat="45.9132" lon="4.46766">
        <ele>587.5</ele>
        <time>2018-05-20T10:16:17Z</time>
      </trkpt>
      <trkpt lat="45.91321" lon="4.46769">
        <ele>586.06</ele>
        <time>2018-05-20T10:16:46Z</time>
      </trkpt>
      <trkpt lat="45.91327" lon="4.46755">
        <ele>589.43</ele>
        <time>2018-05-20T10:17:09Z</time>
      </trkpt>
      <trkpt lat="45.91327" lon="4.4675">
        <ele>592.31</ele>
        <time>2018-05-20T10:17:33Z</time>
      </trkpt>
      <trkpt lat="45.91323" lon="4.46748">
        <ele>592.79</ele>
        <time>2018-05-20T10:17:57Z</time>
      </trkpt>
      <trkpt lat="45.91329" lon="4.46763">
        <ele>598.56</ele>
        <time>2018-05-20T10:18:40Z</time>
      </trkpt>
      <trkpt lat="45.91321" lon="4.46753">
        <ele>598.56</ele>
        <time>2018-05-20T10:19:03Z</time>
      </trkpt>
      <trkpt lat="45.9132" lon="4.46755">
        <ele>600.96</ele>
        <time>2018-05-20T10:19:29Z</time>
      </trkpt>
      <trkpt lat="45.91317" lon="4.46756">
        <ele>601.44</ele>
        <time>2018-05-20T10:20:00Z</time>
      </trkpt>
      <trkpt lat="45.91328" lon="4.46753">
        <ele>599.52</ele>
        <time>2018-05-20T10:20:29Z</time>
      </trkpt>
      <trkpt lat="45.9133" lon="4.46751">
        <ele>596.15</ele>
        <time>2018-05-20T10:20:49Z</time>
      </trkpt>
      <trkpt lat="45.91332" lon="4.46756">
        <ele>596.64</ele>
        <time>2018-05-20T10:21:09Z</time>
      </trkpt>
      <trkpt lat="45.91328" lon="4.4676">
        <ele>595.67</ele>
        <time>2018-05-20T10:21:34Z</time>
      </trkpt>
      <trkpt lat="45.91325" lon="4.46756">
        <ele>595.67</ele>
        <time>2018-05-20T10:21:55Z</time>
      </trkpt>
      <trkpt lat="45.91326" lon="4.4676">
        <ele>599.52</ele>
        <time>2018-05-20T10:22:21Z</time>
      </trkpt>
      <trkpt lat="45.91327" lon="4.46757">
        <ele>596.15</ele>
        <time>2018-05-20T10:22:35Z</time>
      </trkpt>
      <trkpt lat="45.91326" lon="4.46758">
        <ele>597.6</ele>
        <time>2018-05-20T10:22:58Z</time>
      </trkpt>
      <trkpt lat="45.91326" lon="4.46759">
        <ele>598.08</ele>
        <time>2018-05-20T10:23:20Z</time>
      </trkpt>
      <trkpt lat="45.91333" lon="4.46758">
        <ele>599.52</ele>
        <time>2018-05-20T10:23:48Z</time>
      </trkpt>
      <trkpt lat="45.91324" lon="4.4676">
        <ele>600.48</ele>
        <time>2018-05-20T10:24:15Z</time>
      </trkpt>
      <trkpt lat="45.91326" lon="4.46759">
        <ele>597.6</ele>
        <time>2018-05-20T10:24:37Z</time>
      </trkpt>
      <trkpt lat="45.91334" lon="4.4675">
        <ele>587.98</ele>
        <time>2018-05-20T10:25:07Z</time>
      </trkpt>
      <trkpt lat="45.91334" lon="4.46753">
        <ele>583.66</ele>
        <time>2018-05-20T10:25:39Z</time>
      </trkpt>
      <trkpt lat="45.91333" lon="4.46757">
        <ele>587.02</ele>
        <time>2018-05-20T10:26:08Z</time>
      </trkpt>
      <trkpt lat="45.91326" lon="4.46742">
        <ele>591.83</ele>
        <time>2018-05-20T10:26:28Z</time>
      </trkpt>
      <trkpt lat="45.91329" lon="4.46757">
        <ele>595.67</ele>
        <time>2018-05-20T10:26:55Z</time>
      </trkpt>
      <trkpt lat="45.9134" lon="4.46754">
        <ele>591.35</ele>
        <time>2018-05-20T10:27:20Z</time>
      </trkpt>
      <trkpt lat="45.9132" lon="4.46743">
        <ele>588.95</ele>
        <time>2018-05-20T10:27:41Z</time>
      </trkpt>
      <trkpt lat="45.91315" lon="4.46744">
        <ele>589.91</ele>
        <time>2018-05-20T10:28:01Z</time>
      </trkpt>
      <trkpt lat="45.9131" lon="4.46738">
        <ele>590.39</ele>
        <time>2018-05-20T10:28:12Z</time>
      </trkpt>
      <trkpt lat="45.91288" lon="4.46747">
        <ele>600</ele>
        <time>2018-05-20T10:28:28Z</time>
      </trkpt>
      <trkpt lat="45.91271" lon="4.46766">
        <ele>599.04</ele>
        <time>2018-05-20T10:28:49Z</time>
      </trkpt>
      <trkpt lat="45.91257" lon="4.46781">
        <ele>595.67</ele>
        <time>2018-05-20T10:29:03Z</time>
      </trkpt>
      <trkpt lat="45.91236" lon="4.46805">
        <ele>592.31</ele>
        <time>2018-05-20T10:29:25Z</time>
      </trkpt>
      <trkpt lat="45.91222" lon="4.46841">
        <ele>587.02</ele>
        <time>2018-05-20T10:29:47Z</time>
      </trkpt>
      <trkpt lat="45.91211" lon="4.46876">
        <ele>584.14</ele>
        <time>2018-05-20T10:30:09Z</time>
      </trkpt>
      <trkpt lat="45.91196" lon="4.46915">
        <ele>580.77</ele>
        <time>2018-05-20T10:30:32Z</time>
      </trkpt>
      <trkpt lat="45.91184" lon="4.46952">
        <ele>576.45</ele>
        <time>2018-05-20T10:30:54Z</time>
      </trkpt>
      <trkpt lat="45.9117" lon="4.4699">
        <ele>575.49</ele>
        <time>2018-05-20T10:31:15Z</time>
      </trkpt>
      <trkpt lat="45.91163" lon="4.47026">
        <ele>570.68</ele>
        <time>2018-05-20T10:31:37Z</time>
      </trkpt>
      <trkpt lat="45.91158" lon="4.47068">
        <ele>562.99</ele>
        <time>2018-05-20T10:32:02Z</time>
      </trkpt>
      <trkpt lat="45.91149" lon="4.47102">
        <ele>559.62</ele>
        <time>2018-05-20T10:32:22Z</time>
      </trkpt>
      <trkpt lat="45.91152" lon="4.47136">
        <ele>556.26</ele>
        <time>2018-05-20T10:32:42Z</time>
      </trkpt>
      <trkpt lat="45.91155" lon="4.47151">
        <ele>554.34</ele>
        <time>2018-05-20T10:32:52Z</time>
      </trkpt>
      <trkpt lat="45.9117" lon="4.47184">
        <ele>551.93</ele>
        <time>2018-05-20T10:33:14Z</time>
      </trkpt>
      <trkpt lat="45.9118" lon="4.47201">
        <ele>549.05</ele>
        <time>2018-05-20T10:33:32Z</time>
      </trkpt>
      <trkpt lat="45.91189" lon="4.47235">
        <ele>546.17</ele>
        <time>2018-05-20T10:33:52Z</time>
      </trkpt>
      <trkpt lat="45.91187" lon="4.47265">
        <ele>542.32</ele>
        <time>2018-05-20T10:34:12Z</time>
      </trkpt>
      <trkpt lat="45.91175" lon="4.47288">
        <ele>540.88</ele>
        <time>2018-05-20T10:34:31Z</time>
      </trkpt>
      <trkpt lat="45.91159" lon="4.47312">
        <ele>541.36</ele>
        <time>2018-05-20T10:34:52Z</time>
      </trkpt>
      <trkpt lat="45.91147" lon="4.47332">
        <ele>541.36</ele>
        <time>2018-05-20T10:35:11Z</time>
      </trkpt>
      <trkpt lat="45.91146" lon="4.47333">
        <ele>540.88</ele>
        <time>2018-05-20T10:35:12Z</time>
      </trkpt>
      <trkpt lat="45.91135" lon="4.47365">
        <ele>539.92</ele>
        <time>2018-05-20T10:35:33Z</time>
      </trkpt>
      <trkpt lat="45.91133" lon="4.4738">
        <ele>540.4</ele>
        <time>2018-05-20T10:35:45Z</time>
      </trkpt>
      <trkpt lat="45.91129" lon="4.47396">
        <ele>540.4</ele>
        <time>2018-05-20T10:36:02Z</time>
      </trkpt>
      <trkpt lat="45.91126" lon="4.47438">
        <ele>539.44</ele>
        <time>2018-05-20T10:36:24Z</time>
      </trkpt>
      <trkpt lat="45.91124" lon="4.47472">
        <ele>536.07</ele>
        <time>2018-05-20T10:36:43Z</time>
      </trkpt>
      <trkpt lat="45.91125" lon="4.47485">
        <ele>534.63</ele>
        <time>2018-05-20T10:36:51Z</time>
      </trkpt>
      <trkpt lat="45.9113" lon="4.47521">
        <ele>528.86</ele>
        <time>2018-05-20T10:37:12Z</time>
      </trkpt>
      <trkpt lat="45.9115" lon="4.47541">
        <ele>527.9</ele>
        <time>2018-05-20T10:37:33Z</time>
      </trkpt>
      <trkpt lat="45.91177" lon="4.47551">
        <ele>527.9</ele>
        <time>2018-05-20T10:37:58Z</time>
      </trkpt>
      <trkpt lat="45.91202" lon="4.47554">
        <ele>531.27</ele>
        <time>2018-05-20T10:38:21Z</time>
      </trkpt>
      <trkpt lat="45.91232" lon="4.47555">
        <ele>532.23</ele>
        <time>2018-05-20T10:38:46Z</time>
      </trkpt>
      <trkpt lat="45.91238" lon="4.47572">
        <ele>533.19</ele>
        <time>2018-05-20T10:38:58Z</time>
      </trkpt>
      <trkpt lat="45.91236" lon="4.47587">
        <ele>532.71</ele>
        <time>2018-05-20T10:39:05Z</time>
      </trkpt>
      <trkpt lat="45.91233" lon="4.47606">
        <ele>528.38</ele>
        <time>2018-05-20T10:39:18Z</time>
      </trkpt>
      <trkpt lat="45.91236" lon="4.47641">
        <ele>527.9</ele>
        <time>2018-05-20T10:39:35Z</time>
      </trkpt>
      <trkpt lat="45.91235" lon="4.47676">
        <ele>526.94</ele>
        <time>2018-05-20T10:39:55Z</time>
      </trkpt>
      <trkpt lat="45.91235" lon="4.47702">
        <ele>526.46</ele>
        <time>2018-05-20T10:40:10Z</time>
      </trkpt>
      <trkpt lat="45.91236" lon="4.47734">
        <ele>526.46</ele>
        <time>2018-05-20T10:40:30Z</time>
      </trkpt>
      <trkpt lat="45.91239" lon="4.4777">
        <ele>524.06</ele>
        <time>2018-05-20T10:40:51Z</time>
      </trkpt>
      <trkpt lat="45.91244" lon="4.47802">
        <ele>520.69</ele>
        <time>2018-05-20T10:41:10Z</time>
      </trkpt>
      <trkpt lat="45.9125" lon="4.47827">
        <ele>516.37</ele>
        <time>2018-05-20T10:41:29Z</time>
      </trkpt>
      <trkpt lat="45.91256" lon="4.47865">
        <ele>512.52</ele>
        <time>2018-05-20T10:41:49Z</time>
      </trkpt>
      <trkpt lat="45.91263" lon="4.479">
        <ele>509.64</ele>
        <time>2018-05-20T10:42:12Z</time>
      </trkpt>
      <trkpt lat="45.91284" lon="4.47913">
        <ele>506.27</ele>
        <time>2018-05-20T10:42:35Z</time>
      </trkpt>
      <trkpt lat="45.91295" lon="4.4793">
        <ele>501.46</ele>
        <time>2018-05-20T10:42:59Z</time>
      </trkpt>
      <trkpt lat="45.91308" lon="4.47962">
        <ele>494.26</ele>
        <time>2018-05-20T10:43:25Z</time>
      </trkpt>
      <trkpt lat="45.91318" lon="4.47979">
        <ele>483.2</ele>
        <time>2018-05-20T10:43:49Z</time>
      </trkpt>
      <trkpt lat="45.91337" lon="4.48001">
        <ele>475.51</ele>
        <time>2018-05-20T10:44:15Z</time>
      </trkpt>
      <trkpt lat="45.91347" lon="4.4803">
        <ele>470.22</ele>
        <time>2018-05-20T10:44:38Z</time>
      </trkpt>
      <trkpt lat="45.91368" lon="4.48063">
        <ele>458.21</ele>
        <time>2018-05-20T10:45:08Z</time>
      </trkpt>
      <trkpt lat="45.91375" lon="4.48084">
        <ele>454.84</ele>
        <time>2018-05-20T10:45:32Z</time>
      </trkpt>
      <trkpt lat="45.91385" lon="4.48112">
        <ele>450.03</ele>
        <time>2018-05-20T10:45:56Z</time>
      </trkpt>
      <trkpt lat="45.91384" lon="4.48104">
        <ele>446.67</ele>
        <time>2018-05-20T10:46:12Z</time>
      </trkpt>
      <trkpt lat="45.91363" lon="4.48101">
        <ele>443.79</ele>
        <time>2018-05-20T10:46:33Z</time>
      </trkpt>
      <trkpt lat="45.91373" lon="4.48108">
        <ele>443.79</ele>
        <time>2018-05-20T10:46:51Z</time>
      </trkpt>
      <trkpt lat="45.91384" lon="4.48122">
        <ele>451</ele>
        <time>2018-05-20T10:47:16Z</time>
      </trkpt>
      <trkpt lat="45.91386" lon="4.4812">
        <ele>455.32</ele>
        <time>2018-05-20T10:47:38Z</time>
      </trkpt>
      <trkpt lat="45.91381" lon="4.4811">
        <ele>454.84</ele>
        <time>2018-05-20T10:48:03Z</time>
      </trkpt>
      <trkpt lat="45.9138" lon="4.4811">
        <ele>455.32</ele>
        <time>2018-05-20T10:48:30Z</time>
      </trkpt>
      <trkpt lat="45.91378" lon="4.48114">
        <ele>458.69</ele>
        <time>2018-05-20T10:48:52Z</time>
      </trkpt>
      <trkpt lat="45.91373" lon="4.48114">
        <ele>460.13</ele>
        <time>2018-05-20T10:49:10Z</time>
      </trkpt>
      <trkpt lat="45.91383" lon="4.4814">
        <ele>462.05</ele>
        <time>2018-05-20T10:49:32Z</time>
      </trkpt>
      <trkpt lat="45.91386" lon="4.48169">
        <ele>456.76</ele>
        <time>2018-05-20T10:49:52Z</time>
      </trkpt>
      <trkpt lat="45.91382" lon="4.48199">
        <ele>451</ele>
        <time>2018-05-20T10:50:15Z</time>
      </trkpt>
      <trkpt lat="45.91382" lon="4.48236">
        <ele>438.5</ele>
        <time>2018-05-20T10:50:39Z</time>
      </trkpt>
      <trkpt lat="45.91372" lon="4.48269">
        <ele>432.25</ele>
        <time>2018-05-20T10:51:00Z</time>
      </trkpt>
      <trkpt lat="45.91362" lon="4.48303">
        <ele>425.52</ele>
        <time>2018-05-20T10:51:22Z</time>
      </trkpt>
      <trkpt lat="45.91349" lon="4.48344">
        <ele>420.71</ele>
        <time>2018-05-20T10:51:48Z</time>
      </trkpt>
      <trkpt lat="45.91337" lon="4.48379">
        <ele>417.35</ele>
        <time>2018-05-20T10:52:09Z</time>
      </trkpt>
      <trkpt lat="45.91327" lon="4.48419">
        <ele>411.58</ele>
        <time>2018-05-20T10:52:31Z</time>
      </trkpt>
      <trkpt lat="45.91319" lon="4.48454">
        <ele>408.7</ele>
        <time>2018-05-20T10:52:50Z</time>
      </trkpt>
      <trkpt lat="45.91325" lon="4.4849">
        <ele>399.08</ele>
        <time>2018-05-20T10:53:14Z</time>
      </trkpt>
      <trkpt lat="45.91338" lon="4.48528">
        <ele>390.91</ele>
        <time>2018-05-20T10:53:37Z</time>
      </trkpt>
      <trkpt lat="45.91349" lon="4.48548">
        <ele>386.11</ele>
        <time>2018-05-20T10:53:56Z</time>
      </trkpt>
      <trkpt lat="45.91356" lon="4.48583">
        <ele>379.86</ele>
        <time>2018-05-20T10:54:16Z</time>
      </trkpt>
      <trkpt lat="45.9136" lon="4.48623">
        <ele>375.05</ele>
        <time>2018-05-20T10:54:38Z</time>
      </trkpt>
      <trkpt lat="45.91365" lon="4.48659">
        <ele>370.73</ele>
        <time>2018-05-20T10:54:59Z</time>
      </trkpt>
      <trkpt lat="45.91372" lon="4.48692">
        <ele>363.52</ele>
        <time>2018-05-20T10:55:20Z</time>
      </trkpt>
      <trkpt lat="45.9138" lon="4.48723">
        <ele>358.23</ele>
        <time>2018-05-20T10:55:37Z</time>
      </trkpt>
      <trkpt lat="45.914" lon="4.48761">
        <ele>358.71</ele>
        <time>2018-05-20T10:55:59Z</time>
      </trkpt>
      <trkpt lat="45.91413" lon="4.48792">
        <ele>358.71</ele>
        <time>2018-05-20T10:56:16Z</time>
      </trkpt>
      <trkpt lat="45.91428" lon="4.48827">
        <ele>359.67</ele>
        <time>2018-05-20T10:56:36Z</time>
      </trkpt>
      <trkpt lat="45.91442" lon="4.4886">
        <ele>360.63</ele>
        <time>2018-05-20T10:56:56Z</time>
      </trkpt>
      <trkpt lat="45.91444" lon="4.48867">
        <ele>367.84</ele>
        <time>2018-05-20T10:57:08Z</time>
      </trkpt>
      <trkpt lat="45.91445" lon="4.48868">
        <ele>366.88</ele>
        <time>2018-05-20T10:57:20Z</time>
      </trkpt>
      <trkpt lat="45.91446" lon="4.48869">
        <ele>365.92</ele>
        <time>2018-05-20T10:57:36Z</time>
      </trkpt>
      <trkpt lat="45.91448" lon="4.48865">
        <ele>365.92</ele>
        <time>2018-05-20T10:57:40Z</time>
      </trkpt>
      <trkpt lat="45.91468" lon="4.48848">
        <ele>363.52</ele>
        <time>2018-05-20T10:57:56Z</time>
      </trkpt>
      <trkpt lat="45.9148" lon="4.48831">
        <ele>361.11</ele>
        <time>2018-05-20T10:58:16Z</time>
      </trkpt>
      <trkpt lat="45.91493" lon="4.48801">
        <ele>356.79</ele>
        <time>2018-05-20T10:58:37Z</time>
      </trkpt>
      <trkpt lat="45.91491" lon="4.48781">
        <ele>355.34</ele>
        <time>2018-05-20T10:58:53Z</time>
      </trkpt>
      <trkpt lat="45.91483" lon="4.48758">
        <ele>353.42</ele>
        <time>2018-05-20T10:59:10Z</time>
      </trkpt>
      <trkpt lat="45.91467" lon="4.48733">
        <ele>351.98</ele>
        <time>2018-05-20T10:59:29Z</time>
      </trkpt>
      <trkpt lat="45.91462" lon="4.48709">
        <ele>350.06</ele>
        <time>2018-05-20T10:59:49Z</time>
      </trkpt>
      <trkpt lat="45.91475" lon="4.48709">
        <ele>351.02</ele>
        <time>2018-05-20T11:00:11Z</time>
      </trkpt>
      <trkpt lat="45.91496" lon="4.48735">
        <ele>348.62</ele>
        <time>2018-05-20T11:00:33Z</time>
      </trkpt>
      <trkpt lat="45.91514" lon="4.48758">
        <ele>343.81</ele>
        <time>2018-05-20T11:00:53Z</time>
      </trkpt>
      <trkpt lat="45.91531" lon="4.48764">
        <ele>341.41</ele>
        <time>2018-05-20T11:01:11Z</time>
      </trkpt>
      <trkpt lat="45.91557" lon="4.48778">
        <ele>336.6</ele>
        <time>2018-05-20T11:01:31Z</time>
      </trkpt>
      <trkpt lat="45.91574" lon="4.48804">
        <ele>332.27</ele>
        <time>2018-05-20T11:01:51Z</time>
      </trkpt>
      <trkpt lat="45.91593" lon="4.48827">
        <ele>326.5</ele>
        <time>2018-05-20T11:02:12Z</time>
      </trkpt>
      <trkpt lat="45.91609" lon="4.48848">
        <ele>321.22</ele>
        <time>2018-05-20T11:02:31Z</time>
      </trkpt>
      <trkpt lat="45.9163" lon="4.48874">
        <ele>317.37</ele>
        <time>2018-05-20T11:02:50Z</time>
      </trkpt>
      <trkpt lat="45.91652" lon="4.48895">
        <ele>315.45</ele>
        <time>2018-05-20T11:03:09Z</time>
      </trkpt>
      <trkpt lat="45.91662" lon="4.48905">
        <ele>315.45</ele>
        <time>2018-05-20T11:03:19Z</time>
      </trkpt>
      <trkpt lat="45.91683" lon="4.48917">
        <ele>315.93</ele>
        <time>2018-05-20T11:03:37Z</time>
      </trkpt>
      <trkpt lat="45.91701" lon="4.48931">
        <ele>319.78</ele>
        <time>2018-05-20T11:03:57Z</time>
      </trkpt>
      <trkpt lat="45.91732" lon="4.48934">
        <ele>322.18</ele>
        <time>2018-05-20T11:04:23Z</time>
      </trkpt>
      <trkpt lat="45.91752" lon="4.48919">
        <ele>324.1</ele>
        <time>2018-05-20T11:04:45Z</time>
      </trkpt>
      <trkpt lat="45.91778" lon="4.48898">
        <ele>326.99</ele>
        <time>2018-05-20T11:05:09Z</time>
      </trkpt>
      <trkpt lat="45.91801" lon="4.48902">
        <ele>327.95</ele>
        <time>2018-05-20T11:05:29Z</time>
      </trkpt>
      <trkpt lat="45.91815" lon="4.48901">
        <ele>329.39</ele>
        <time>2018-05-20T11:05:46Z</time>
      </trkpt>
      <trkpt lat="45.91827" lon="4.48882">
        <ele>332.27</ele>
        <time>2018-05-20T11:06:09Z</time>
      </trkpt>
      <trkpt lat="45.91837" lon="4.48864">
        <ele>333.71</ele>
        <time>2018-05-20T11:06:29Z</time>
      </trkpt>
      <trkpt lat="45.91853" lon="4.48854">
        <ele>336.6</ele>
        <time>2018-05-20T11:06:50Z</time>
      </trkpt>
      <trkpt lat="45.91873" lon="4.48846">
        <ele>339.48</ele>
        <time>2018-05-20T11:07:12Z</time>
      </trkpt>
      <trkpt lat="45.91884" lon="4.48822">
        <ele>341.89</ele>
        <time>2018-05-20T11:07:33Z</time>
      </trkpt>
      <trkpt lat="45.91903" lon="4.48808">
        <ele>344.77</ele>
        <time>2018-05-20T11:07:55Z</time>
      </trkpt>
      <trkpt lat="45.91925" lon="4.48803">
        <ele>347.65</ele>
        <time>2018-05-20T11:08:18Z</time>
      </trkpt>
      <trkpt lat="45.91944" lon="4.48801">
        <ele>350.54</ele>
        <time>2018-05-20T11:08:41Z</time>
      </trkpt>
      <trkpt lat="45.91969" lon="4.48796">
        <ele>357.75</ele>
        <time>2018-05-20T11:09:05Z</time>
      </trkpt>
      <trkpt lat="45.91983" lon="4.48772">
        <ele>362.07</ele>
        <time>2018-05-20T11:09:24Z</time>
      </trkpt>
      <trkpt lat="45.91997" lon="4.48749">
        <ele>364.96</ele>
        <time>2018-05-20T11:09:43Z</time>
      </trkpt>
      <trkpt lat="45.92013" lon="4.4872">
        <ele>369.28</ele>
        <time>2018-05-20T11:10:08Z</time>
      </trkpt>
      <trkpt lat="45.92026" lon="4.48698">
        <ele>373.61</ele>
        <time>2018-05-20T11:10:28Z</time>
      </trkpt>
      <trkpt lat="45.92044" lon="4.48678">
        <ele>373.61</ele>
        <time>2018-05-20T11:10:49Z</time>
      </trkpt>
      <trkpt lat="45.9206" lon="4.48656">
        <ele>371.69</ele>
        <time>2018-05-20T11:11:11Z</time>
      </trkpt>
      <trkpt lat="45.9208" lon="4.48644">
        <ele>373.61</ele>
        <time>2018-05-20T11:11:34Z</time>
      </trkpt>
      <trkpt lat="45.92098" lon="4.4863">
        <ele>375.05</ele>
        <time>2018-05-20T11:11:56Z</time>
      </trkpt>
      <trkpt lat="45.9212" lon="4.48615">
        <ele>377.94</ele>
        <time>2018-05-20T11:12:19Z</time>
      </trkpt>
      <trkpt lat="45.92141" lon="4.48608">
        <ele>384.18</ele>
        <time>2018-05-20T11:12:40Z</time>
      </trkpt>
      <trkpt lat="45.92159" lon="4.48606">
        <ele>391.87</ele>
        <time>2018-05-20T11:13:05Z</time>
      </trkpt>
      <trkpt lat="45.92186" lon="4.48601">
        <ele>395.72</ele>
        <time>2018-05-20T11:13:30Z</time>
      </trkpt>
      <trkpt lat="45.92202" lon="4.48595">
        <ele>402.93</ele>
        <time>2018-05-20T11:13:52Z</time>
      </trkpt>
      <trkpt lat="45.92223" lon="4.48584">
        <ele>411.58</ele>
        <time>2018-05-20T11:14:14Z</time>
      </trkpt>
      <trkpt lat="45.92251" lon="4.48568">
        <ele>413.98</ele>
        <time>2018-05-20T11:14:38Z</time>
      </trkpt>
      <trkpt lat="45.92275" lon="4.48555">
        <ele>416.39</ele>
        <time>2018-05-20T11:15:03Z</time>
      </trkpt>
      <trkpt lat="45.92292" lon="4.48546">
        <ele>418.31</ele>
        <time>2018-05-20T11:15:16Z</time>
      </trkpt>
      <trkpt lat="45.92318" lon="4.48529">
        <ele>420.71</ele>
        <time>2018-05-20T11:15:39Z</time>
      </trkpt>
      <trkpt lat="45.92322" lon="4.48527">
        <ele>424.56</ele>
        <time>2018-05-20T11:16:01Z</time>
      </trkpt>
      <trkpt lat="45.92322" lon="4.48526">
        <ele>429.37</ele>
        <time>2018-05-20T11:16:26Z</time>
      </trkpt>
      <trkpt lat="45.92332" lon="4.48524">
        <ele>429.37</ele>
        <time>2018-05-20T11:16:52Z</time>
      </trkpt>
      <trkpt lat="45.92349" lon="4.48508">
        <ele>428.89</ele>
        <time>2018-05-20T11:17:13Z</time>
      </trkpt>
      <trkpt lat="45.92374" lon="4.48492">
        <ele>429.85</ele>
        <time>2018-05-20T11:17:37Z</time>
      </trkpt>
      <trkpt lat="45.92391" lon="4.48469">
        <ele>433.21</ele>
        <time>2018-05-20T11:18:00Z</time>
      </trkpt>
      <trkpt lat="45.92392" lon="4.48468">
        <ele>433.69</ele>
        <time>2018-05-20T11:18:01Z</time>
      </trkpt>
      <trkpt lat="45.92412" lon="4.48451">
        <ele>440.9</ele>
        <time>2018-05-20T11:18:24Z</time>
      </trkpt>
      <trkpt lat="45.92435" lon="4.48433">
        <ele>443.79</ele>
        <time>2018-05-20T11:18:48Z</time>
      </trkpt>
      <trkpt lat="45.92466" lon="4.48419">
        <ele>446.67</ele>
        <time>2018-05-20T11:19:16Z</time>
      </trkpt>
      <trkpt lat="45.92493" lon="4.48408">
        <ele>445.23</ele>
        <time>2018-05-20T11:19:40Z</time>
      </trkpt>
      <trkpt lat="45.9252" lon="4.48406">
        <ele>442.82</ele>
        <time>2018-05-20T11:20:04Z</time>
      </trkpt>
      <trkpt lat="45.92548" lon="4.48407">
        <ele>442.34</ele>
        <time>2018-05-20T11:20:25Z</time>
      </trkpt>
      <trkpt lat="45.92575" lon="4.4841">
        <ele>442.82</ele>
        <time>2018-05-20T11:20:49Z</time>
      </trkpt>
      <trkpt lat="45.92591" lon="4.48408">
        <ele>442.82</ele>
        <time>2018-05-20T11:21:01Z</time>
      </trkpt>
      <trkpt lat="45.92618" lon="4.48411">
        <ele>445.71</ele>
        <time>2018-05-20T11:21:24Z</time>
      </trkpt>
      <trkpt lat="45.92643" lon="4.48412">
        <ele>443.79</ele>
        <time>2018-05-20T11:21:47Z</time>
      </trkpt>
      <trkpt lat="45.92662" lon="4.48417">
        <ele>444.75</ele>
        <time>2018-05-20T11:22:07Z</time>
      </trkpt>
      <trkpt lat="45.92693" lon="4.48415">
        <ele>446.67</ele>
        <time>2018-05-20T11:22:26Z</time>
      </trkpt>
      <trkpt lat="45.92718" lon="4.48412">
        <ele>448.11</ele>
        <time>2018-05-20T11:22:48Z</time>
      </trkpt>
      <trkpt lat="45.92741" lon="4.48398">
        <ele>444.75</ele>
        <time>2018-05-20T11:23:08Z</time>
      </trkpt>
      <trkpt lat="45.92769" lon="4.4839">
        <ele>444.75</ele>
        <time>2018-05-20T11:23:31Z</time>
      </trkpt>
      <trkpt lat="45.92794" lon="4.48385">
        <ele>446.19</ele>
        <time>2018-05-20T11:23:53Z</time>
      </trkpt>
      <trkpt lat="45.92819" lon="4.48377">
        <ele>446.67</ele>
        <time>2018-05-20T11:24:14Z</time>
      </trkpt>
      <trkpt lat="45.92839" lon="4.48376">
        <ele>446.19</ele>
        <time>2018-05-20T11:24:31Z</time>
      </trkpt>
      <trkpt lat="45.92851" lon="4.48382">
        <ele>444.75</ele>
        <time>2018-05-20T11:24:42Z</time>
      </trkpt>
      <trkpt lat="45.92871" lon="4.48383">
        <ele>444.75</ele>
        <time>2018-05-20T11:25:01Z</time>
      </trkpt>
      <trkpt lat="45.92886" lon="4.48374">
        <ele>444.75</ele>
        <time>2018-05-20T11:25:21Z</time>
      </trkpt>
      <trkpt lat="45.92906" lon="4.48363">
        <ele>441.86</ele>
        <time>2018-05-20T11:25:42Z</time>
      </trkpt>
      <trkpt lat="45.92905" lon="4.48362">
        <ele>438.98</ele>
        <time>2018-05-20T11:26:13Z</time>
      </trkpt>
      <trkpt lat="45.92934" lon="4.48344">
        <ele>438.02</ele>
        <time>2018-05-20T11:26:37Z</time>
      </trkpt>
      <trkpt lat="45.92959" lon="4.48333">
        <ele>440.9</ele>
        <time>2018-05-20T11:26:58Z</time>
      </trkpt>
      <trkpt lat="45.92974" lon="4.48326">
        <ele>438.02</ele>
        <time>2018-05-20T11:27:17Z</time>
      </trkpt>
      <trkpt lat="45.93002" lon="4.48302">
        <ele>434.17</ele>
        <time>2018-05-20T11:27:41Z</time>
      </trkpt>
      <trkpt lat="45.9303" lon="4.48291">
        <ele>432.73</ele>
        <time>2018-05-20T11:28:03Z</time>
      </trkpt>
      <trkpt lat="45.93057" lon="4.48282">
        <ele>430.81</ele>
        <time>2018-05-20T11:28:25Z</time>
      </trkpt>
      <trkpt lat="45.93079" lon="4.48272">
        <ele>426.96</ele>
        <time>2018-05-20T11:28:49Z</time>
      </trkpt>
      <trkpt lat="45.93104" lon="4.48266">
        <ele>425.04</ele>
        <time>2018-05-20T11:29:08Z</time>
      </trkpt>
      <trkpt lat="45.93131" lon="4.48251">
        <ele>423.12</ele>
        <time>2018-05-20T11:29:30Z</time>
      </trkpt>
      <trkpt lat="45.93146" lon="4.48244">
        <ele>423.6</ele>
        <time>2018-05-20T11:29:47Z</time>
      </trkpt>
      <trkpt lat="45.93177" lon="4.48224">
        <ele>424.56</ele>
        <time>2018-05-20T11:30:11Z</time>
      </trkpt>
      <trkpt lat="45.93197" lon="4.48213">
        <ele>426.48</ele>
        <time>2018-05-20T11:30:31Z</time>
      </trkpt>
      <trkpt lat="45.93223" lon="4.48205">
        <ele>427.44</ele>
        <time>2018-05-20T11:30:54Z</time>
      </trkpt>
      <trkpt lat="45.93241" lon="4.48219">
        <ele>421.19</ele>
        <time>2018-05-20T11:31:14Z</time>
      </trkpt>
      <trkpt lat="45.9326" lon="4.48239">
        <ele>418.31</ele>
        <time>2018-05-20T11:31:34Z</time>
      </trkpt>
      <trkpt lat="45.93284" lon="4.48251">
        <ele>414.95</ele>
        <time>2018-05-20T11:31:54Z</time>
      </trkpt>
      <trkpt lat="45.93306" lon="4.4825">
        <ele>420.23</ele>
        <time>2018-05-20T11:32:12Z</time>
      </trkpt>
      <trkpt lat="45.93314" lon="4.48246">
        <ele>421.19</ele>
        <time>2018-05-20T11:32:20Z</time>
      </trkpt>
      <trkpt lat="45.93317" lon="4.48245">
        <ele>420.71</ele>
        <time>2018-05-20T11:32:23Z</time>
      </trkpt>
      <trkpt lat="45.93325" lon="4.48242">
        <ele>419.75</ele>
        <time>2018-05-20T11:32:30Z</time>
      </trkpt>
      <trkpt lat="45.93347" lon="4.48222">
        <ele>418.31</ele>
        <time>2018-05-20T11:32:51Z</time>
      </trkpt>
      <trkpt lat="45.93369" lon="4.48203">
        <ele>414.95</ele>
        <time>2018-05-20T11:33:13Z</time>
      </trkpt>
      <trkpt lat="45.93394" lon="4.4819">
        <ele>415.91</ele>
        <time>2018-05-20T11:33:33Z</time>
      </trkpt>
      <trkpt lat="45.93404" lon="4.4818">
        <ele>413.98</ele>
        <time>2018-05-20T11:33:43Z</time>
      </trkpt>
      <trkpt lat="45.93426" lon="4.48161">
        <ele>410.14</ele>
        <time>2018-05-20T11:34:04Z</time>
      </trkpt>
      <trkpt lat="45.93451" lon="4.48143">
        <ele>410.14</ele>
        <time>2018-05-20T11:34:24Z</time>
      </trkpt>
      <trkpt lat="45.93472" lon="4.48124">
        <ele>408.22</ele>
        <time>2018-05-20T11:34:46Z</time>
      </trkpt>
      <trkpt lat="45.93499" lon="4.48125">
        <ele>405.81</ele>
        <time>2018-05-20T11:35:09Z</time>
      </trkpt>
      <trkpt lat="45.93501" lon="4.4813">
        <ele>401.97</ele>
        <time>2018-05-20T11:35:33Z</time>
      </trkpt>
      <trkpt lat="45.93505" lon="4.48124">
        <ele>401.49</ele>
        <time>2018-05-20T11:35:58Z</time>
      </trkpt>
      <trkpt lat="45.93509" lon="4.48121">
        <ele>402.45</ele>
        <time>2018-05-20T11:36:21Z</time>
      </trkpt>
      <trkpt lat="45.93536" lon="4.48106">
        <ele>402.93</ele>
        <time>2018-05-20T11:36:44Z</time>
      </trkpt>
      <trkpt lat="45.93556" lon="4.4809">
        <ele>401.97</ele>
        <time>2018-05-20T11:37:04Z</time>
      </trkpt>
      <trkpt lat="45.93577" lon="4.48072">
        <ele>399.08</ele>
        <time>2018-05-20T11:37:24Z</time>
      </trkpt>
      <trkpt lat="45.93598" lon="4.4806">
        <ele>395.72</ele>
        <time>2018-05-20T11:37:45Z</time>
      </trkpt>
      <trkpt lat="45.93628" lon="4.48046">
        <ele>391.39</ele>
        <time>2018-05-20T11:38:09Z</time>
      </trkpt>
      <trkpt lat="45.93659" lon="4.48038">
        <ele>389.47</ele>
        <time>2018-05-20T11:38:29Z</time>
      </trkpt>
      <trkpt lat="45.93683" lon="4.48038">
        <ele>389.47</ele>
        <time>2018-05-20T11:38:49Z</time>
      </trkpt>
      <trkpt lat="45.93702" lon="4.48034">
        <ele>388.51</ele>
        <time>2018-05-20T11:39:08Z</time>
      </trkpt>
      <trkpt lat="45.93715" lon="4.47991">
        <ele>385.15</ele>
        <time>2018-05-20T11:39:31Z</time>
      </trkpt>
      <trkpt lat="45.9372" lon="4.47949">
        <ele>381.78</ele>
        <time>2018-05-20T11:39:56Z</time>
      </trkpt>
      <trkpt lat="45.93733" lon="4.47942">
        <ele>382.26</ele>
        <time>2018-05-20T11:40:19Z</time>
      </trkpt>
      <trkpt lat="45.93751" lon="4.47952">
        <ele>384.18</ele>
        <time>2018-05-20T11:40:26Z</time>
      </trkpt>
      <trkpt lat="45.93752" lon="4.47957">
        <ele>396.68</ele>
        <time>2018-05-20T11:40:29Z</time>
      </trkpt>
      <trkpt lat="45.93755" lon="4.47993">
        <ele>385.15</ele>
        <time>2018-05-20T11:40:49Z</time>
      </trkpt>
      <trkpt lat="45.93761" lon="4.48033">
        <ele>374.09</ele>
        <time>2018-05-20T11:41:12Z</time>
      </trkpt>
      <trkpt lat="45.93778" lon="4.4805">
        <ele>368.8</ele>
        <time>2018-05-20T11:41:31Z</time>
      </trkpt>
      <trkpt lat="45.93801" lon="4.48045">
        <ele>368.8</ele>
        <time>2018-05-20T11:41:52Z</time>
      </trkpt>
      <trkpt lat="45.93821" lon="4.48023">
        <ele>368.8</ele>
        <time>2018-05-20T11:42:14Z</time>
      </trkpt>
      <trkpt lat="45.93844" lon="4.48007">
        <ele>369.28</ele>
        <time>2018-05-20T11:42:35Z</time>
      </trkpt>
      <trkpt lat="45.93862" lon="4.47985">
        <ele>370.24</ele>
        <time>2018-05-20T11:42:55Z</time>
      </trkpt>
      <trkpt lat="45.93871" lon="4.4798">
        <ele>377.45</ele>
        <time>2018-05-20T11:43:04Z</time>
      </trkpt>
      <trkpt lat="45.93885" lon="4.47971">
        <ele>393.32</ele>
        <time>2018-05-20T11:43:22Z</time>
      </trkpt>
      <trkpt lat="45.939" lon="4.47956">
        <ele>394.76</ele>
        <time>2018-05-20T11:43:40Z</time>
      </trkpt>
      <trkpt lat="45.93926" lon="4.47933">
        <ele>394.28</ele>
        <time>2018-05-20T11:44:02Z</time>
      </trkpt>
      <trkpt lat="45.93953" lon="4.47912">
        <ele>396.2</ele>
        <time>2018-05-20T11:44:24Z</time>
      </trkpt>
      <trkpt lat="45.93978" lon="4.47899">
        <ele>393.8</ele>
        <time>2018-05-20T11:44:43Z</time>
      </trkpt>
      <trkpt lat="45.93995" lon="4.47891">
        <ele>391.87</ele>
        <time>2018-05-20T11:45:02Z</time>
      </trkpt>
      <trkpt lat="45.94024" lon="4.479">
        <ele>389.47</ele>
        <time>2018-05-20T11:45:22Z</time>
      </trkpt>
      <trkpt lat="45.94043" lon="4.4792">
        <ele>389.95</ele>
        <time>2018-05-20T11:45:41Z</time>
      </trkpt>
      <trkpt lat="45.94065" lon="4.47934">
        <ele>391.87</ele>
        <time>2018-05-20T11:45:59Z</time>
      </trkpt>
      <trkpt lat="45.9408" lon="4.47952">
        <ele>393.32</ele>
        <time>2018-05-20T11:46:18Z</time>
      </trkpt>
      <trkpt lat="45.94112" lon="4.47968">
        <ele>396.2</ele>
        <time>2018-05-20T11:46:42Z</time>
      </trkpt>
      <trkpt lat="45.94135" lon="4.47979">
        <ele>394.28</ele>
        <time>2018-05-20T11:47:04Z</time>
      </trkpt>
      <trkpt lat="45.94163" lon="4.47988">
        <ele>393.8</ele>
        <time>2018-05-20T11:47:27Z</time>
      </trkpt>
      <trkpt lat="45.94191" lon="4.47992">
        <ele>395.72</ele>
        <time>2018-05-20T11:47:48Z</time>
      </trkpt>
      <trkpt lat="45.94218" lon="4.47995">
        <ele>396.2</ele>
        <time>2018-05-20T11:48:07Z</time>
      </trkpt>
      <trkpt lat="45.94231" lon="4.48013">
        <ele>397.64</ele>
        <time>2018-05-20T11:48:24Z</time>
      </trkpt>
      <trkpt lat="45.94261" lon="4.48017">
        <ele>400.05</ele>
        <time>2018-05-20T11:48:45Z</time>
      </trkpt>
      <trkpt lat="45.94278" lon="4.48029">
        <ele>394.28</ele>
        <time>2018-05-20T11:49:05Z</time>
      </trkpt>
      <trkpt lat="45.94304" lon="4.4804">
        <ele>399.08</ele>
        <time>2018-05-20T11:49:23Z</time>
      </trkpt>
      <trkpt lat="45.94324" lon="4.48048">
        <ele>399.08</ele>
        <time>2018-05-20T11:49:42Z</time>
      </trkpt>
      <trkpt lat="45.94348" lon="4.48063">
        <ele>396.2</ele>
        <time>2018-05-20T11:50:04Z</time>
      </trkpt>
      <trkpt lat="45.94378" lon="4.48078">
        <ele>397.16</ele>
        <time>2018-05-20T11:50:27Z</time>
      </trkpt>
      <trkpt lat="45.94395" lon="4.4809">
        <ele>390.43</ele>
        <time>2018-05-20T11:50:48Z</time>
      </trkpt>
      <trkpt lat="45.94423" lon="4.48106">
        <ele>378.42</ele>
        <time>2018-05-20T11:51:14Z</time>
      </trkpt>
      <trkpt lat="45.94443" lon="4.4811">
        <ele>369.76</ele>
        <time>2018-05-20T11:51:33Z</time>
      </trkpt>
      <trkpt lat="45.94463" lon="4.48104">
        <ele>358.23</ele>
        <time>2018-05-20T11:51:53Z</time>
      </trkpt>
      <trkpt lat="45.94504" lon="4.48108">
        <ele>362.07</ele>
        <time>2018-05-20T11:52:05Z</time>
      </trkpt>
      <trkpt lat="45.94515" lon="4.48114">
        <ele>361.11</ele>
        <time>2018-05-20T11:52:25Z</time>
      </trkpt>
      <trkpt lat="45.94538" lon="4.48121">
        <ele>362.07</ele>
        <time>2018-05-20T11:52:48Z</time>
      </trkpt>
      <trkpt lat="45.94561" lon="4.48132">
        <ele>363.04</ele>
        <time>2018-05-20T11:53:11Z</time>
      </trkpt>
      <trkpt lat="45.94587" lon="4.48143">
        <ele>364</ele>
        <time>2018-05-20T11:53:32Z</time>
      </trkpt>
      <trkpt lat="45.94608" lon="4.48158">
        <ele>364.48</ele>
        <time>2018-05-20T11:53:53Z</time>
      </trkpt>
      <trkpt lat="45.94628" lon="4.48165">
        <ele>364.48</ele>
        <time>2018-05-20T11:54:15Z</time>
      </trkpt>
      <trkpt lat="45.94663" lon="4.48178">
        <ele>362.07</ele>
        <time>2018-05-20T11:54:36Z</time>
      </trkpt>
      <trkpt lat="45.9468" lon="4.48192">
        <ele>352.46</ele>
        <time>2018-05-20T11:54:57Z</time>
      </trkpt>
      <trkpt lat="45.9469" lon="4.48206">
        <ele>346.21</ele>
        <time>2018-05-20T11:55:13Z</time>
      </trkpt>
      <trkpt lat="45.94717" lon="4.48217">
        <ele>345.25</ele>
        <time>2018-05-20T11:55:31Z</time>
      </trkpt>
      <trkpt lat="45.9475" lon="4.48219">
        <ele>336.12</ele>
        <time>2018-05-20T11:55:51Z</time>
      </trkpt>
      <trkpt lat="45.94776" lon="4.48222">
        <ele>326.99</ele>
        <time>2018-05-20T11:56:11Z</time>
      </trkpt>
      <trkpt lat="45.94791" lon="4.4824">
        <ele>328.91</ele>
        <time>2018-05-20T11:56:30Z</time>
      </trkpt>
      <trkpt lat="45.94815" lon="4.48278">
        <ele>374.09</ele>
        <time>2018-05-20T11:56:44Z</time>
      </trkpt>
      <trkpt lat="45.94821" lon="4.48292">
        <ele>370.73</ele>
        <time>2018-05-20T11:57:03Z</time>
      </trkpt>
      <trkpt lat="45.94831" lon="4.48311">
        <ele>365.44</ele>
        <time>2018-05-20T11:57:18Z</time>
      </trkpt>
      <trkpt lat="45.94845" lon="4.4833">
        <ele>358.23</ele>
        <time>2018-05-20T11:57:35Z</time>
      </trkpt>
      <trkpt lat="45.9487" lon="4.48335">
        <ele>350.06</ele>
        <time>2018-05-20T11:57:51Z</time>
      </trkpt>
      <trkpt lat="45.94882" lon="4.48346">
        <ele>341.89</ele>
        <time>2018-05-20T11:58:08Z</time>
      </trkpt>
      <trkpt lat="45.94903" lon="4.48357">
        <ele>335.16</ele>
        <time>2018-05-20T11:58:26Z</time>
      </trkpt>
      <trkpt lat="45.94932" lon="4.48369">
        <ele>327.95</ele>
        <time>2018-05-20T11:58:45Z</time>
      </trkpt>
      <trkpt lat="45.94947" lon="4.48381">
        <ele>324.1</ele>
        <time>2018-05-20T11:59:04Z</time>
      </trkpt>
      <trkpt lat="45.94963" lon="4.48387">
        <ele>319.3</ele>
        <time>2018-05-20T11:59:25Z</time>
      </trkpt>
      <trkpt lat="45.94991" lon="4.48394">
        <ele>314.49</ele>
        <time>2018-05-20T11:59:44Z</time>
      </trkpt>
      <trkpt lat="45.95019" lon="4.48398">
        <ele>308.24</ele>
        <time>2018-05-20T12:00:04Z</time>
      </trkpt>
      <trkpt lat="45.95057" lon="4.48405">
        <ele>300.07</ele>
        <time>2018-05-20T12:00:28Z</time>
      </trkpt>
      <trkpt lat="45.95078" lon="4.48409">
        <ele>296.22</ele>
        <time>2018-05-20T12:00:52Z</time>
      </trkpt>
      <trkpt lat="45.95112" lon="4.48417">
        <ele>284.21</ele>
        <time>2018-05-20T12:01:12Z</time>
      </trkpt>
      <trkpt lat="45.95135" lon="4.48426">
        <ele>284.21</ele>
        <time>2018-05-20T12:01:31Z</time>
      </trkpt>
      <trkpt lat="45.95159" lon="4.48414">
        <ele>288.05</ele>
        <time>2018-05-20T12:01:51Z</time>
      </trkpt>
      <trkpt lat="45.95182" lon="4.48416">
        <ele>304.39</ele>
        <time>2018-05-20T12:02:12Z</time>
      </trkpt>
      <trkpt lat="45.95205" lon="4.48403">
        <ele>306.8</ele>
        <time>2018-05-20T12:02:34Z</time>
      </trkpt>
      <trkpt lat="45.9522" lon="4.48401">
        <ele>307.28</ele>
        <time>2018-05-20T12:02:54Z</time>
      </trkpt>
      <trkpt lat="45.95246" lon="4.48416">
        <ele>307.28</ele>
        <time>2018-05-20T12:03:16Z</time>
      </trkpt>
      <trkpt lat="45.95273" lon="4.48419">
        <ele>307.28</ele>
        <time>2018-05-20T12:03:37Z</time>
      </trkpt>
      <trkpt lat="45.95306" lon="4.48419">
        <ele>307.28</ele>
        <time>2018-05-20T12:04:01Z</time>
      </trkpt>
      <trkpt lat="45.95326" lon="4.48447">
        <ele>316.41</ele>
        <time>2018-05-20T12:04:24Z</time>
      </trkpt>
      <trkpt lat="45.95345" lon="4.48444">
        <ele>340.92</ele>
        <time>2018-05-20T12:04:46Z</time>
      </trkpt>
      <trkpt lat="45.95353" lon="4.48475">
        <ele>365.92</ele>
        <time>2018-05-20T12:05:07Z</time>
      </trkpt>
      <trkpt lat="45.95374" lon="4.48497">
        <ele>380.82</ele>
        <time>2018-05-20T12:05:29Z</time>
      </trkpt>
      <trkpt lat="45.95402" lon="4.48508">
        <ele>385.63</ele>
        <time>2018-05-20T12:05:52Z</time>
      </trkpt>
      <trkpt lat="45.95429" lon="4.48514">
        <ele>387.55</ele>
        <time>2018-05-20T12:06:14Z</time>
      </trkpt>
      <trkpt lat="45.9546" lon="4.4851">
        <ele>389.95</ele>
        <time>2018-05-20T12:06:38Z</time>
      </trkpt>
      <trkpt lat="45.95487" lon="4.48502">
        <ele>392.36</ele>
        <time>2018-05-20T12:07:00Z</time>
      </trkpt>
      <trkpt lat="45.95519" lon="4.48501">
        <ele>397.64</ele>
        <time>2018-05-20T12:07:50Z</time>
      </trkpt>
      <trkpt lat="45.95544" lon="4.48481">
        <ele>397.64</ele>
        <time>2018-05-20T12:08:13Z</time>
      </trkpt>
      <trkpt lat="45.95608" lon="4.4848">
        <ele>406.29</ele>
        <time>2018-05-20T12:09:03Z</time>
      </trkpt>
      <trkpt lat="45.95616" lon="4.48503">
        <ele>410.14</ele>
        <time>2018-05-20T12:09:27Z</time>
      </trkpt>
      <trkpt lat="45.95635" lon="4.48515">
        <ele>415.43</ele>
        <time>2018-05-20T12:09:51Z</time>
      </trkpt>
      <trkpt lat="45.9567" lon="4.48518">
        <ele>416.39</ele>
        <time>2018-05-20T12:10:22Z</time>
      </trkpt>
      <trkpt lat="45.95686" lon="4.48515">
        <ele>416.87</ele>
        <time>2018-05-20T12:10:44Z</time>
      </trkpt>
      <trkpt lat="45.95687" lon="4.48517">
        <ele>416.87</ele>
        <time>2018-05-20T12:10:46Z</time>
      </trkpt>
      <trkpt lat="45.95713" lon="4.48502">
        <ele>417.35</ele>
        <time>2018-05-20T12:11:08Z</time>
      </trkpt>
      <trkpt lat="45.95737" lon="4.48499">
        <ele>417.35</ele>
        <time>2018-05-20T12:11:27Z</time>
      </trkpt>
      <trkpt lat="45.95673" lon="4.48614">
        <ele>517.33</ele>
        <time>2018-05-20T12:11:45Z</time>
      </trkpt>
      <trkpt lat="45.95656" lon="4.4864">
        <ele>528.38</ele>
        <time>2018-05-20T12:12:05Z</time>
      </trkpt>
      <trkpt lat="45.95636" lon="4.48677">
        <ele>545.2</ele>
        <time>2018-05-20T12:12:23Z</time>
      </trkpt>
      <trkpt lat="45.95622" lon="4.48695">
        <ele>547.13</ele>
        <time>2018-05-20T12:12:45Z</time>
      </trkpt>
      <trkpt lat="45.95613" lon="4.48706">
        <ele>552.9</ele>
        <time>2018-05-20T12:13:10Z</time>
      </trkpt>
      <trkpt lat="45.95597" lon="4.48706">
        <ele>578.85</ele>
        <time>2018-05-20T12:13:26Z</time>
      </trkpt>
      <trkpt lat="45.95595" lon="4.48707">
        <ele>576.45</ele>
        <time>2018-05-20T12:13:50Z</time>
      </trkpt>
      <trkpt lat="45.95594" lon="4.48707">
        <ele>576.45</ele>
        <time>2018-05-20T12:13:51Z</time>
      </trkpt>
      <trkpt lat="45.95577" lon="4.48717">
        <ele>586.54</ele>
        <time>2018-05-20T12:14:05Z</time>
      </trkpt>
      <trkpt lat="45.9557" lon="4.4872">
        <ele>594.71</ele>
        <time>2018-05-20T12:14:27Z</time>
      </trkpt>
      <trkpt lat="45.95559" lon="4.48721">
        <ele>595.67</ele>
        <time>2018-05-20T12:14:46Z</time>
      </trkpt>
      <trkpt lat="45.95545" lon="4.48729">
        <ele>595.67</ele>
        <time>2018-05-20T12:14:59Z</time>
      </trkpt>
      <trkpt lat="45.95532" lon="4.48736">
        <ele>597.12</ele>
        <time>2018-05-20T12:15:03Z</time>
      </trkpt>
      <trkpt lat="45.95509" lon="4.48754">
        <ele>606.25</ele>
        <time>2018-05-20T12:15:27Z</time>
      </trkpt>
      <trkpt lat="45.95487" lon="4.48792">
        <ele>604.33</ele>
        <time>2018-05-20T12:15:51Z</time>
      </trkpt>
      <trkpt lat="45.95482" lon="4.48813">
        <ele>602.4</ele>
        <time>2018-05-20T12:16:10Z</time>
      </trkpt>
      <trkpt lat="45.95465" lon="4.48828">
        <ele>600</ele>
        <time>2018-05-20T12:16:34Z</time>
      </trkpt>
      <trkpt lat="45.9546" lon="4.48837">
        <ele>598.56</ele>
        <time>2018-05-20T12:17:00Z</time>
      </trkpt>
      <trkpt lat="45.95447" lon="4.48833">
        <ele>596.64</ele>
        <time>2018-05-20T12:17:23Z</time>
      </trkpt>
      <trkpt lat="45.95433" lon="4.4882">
        <ele>593.27</ele>
        <time>2018-05-20T12:17:46Z</time>
      </trkpt>
      <trkpt lat="45.9541" lon="4.48812">
        <ele>593.27</ele>
        <time>2018-05-20T12:18:06Z</time>
      </trkpt>
      <trkpt lat="45.95375" lon="4.48818">
        <ele>589.43</ele>
        <time>2018-05-20T12:18:28Z</time>
      </trkpt>
      <trkpt lat="45.95351" lon="4.48819">
        <ele>586.54</ele>
        <time>2018-05-20T12:18:49Z</time>
      </trkpt>
      <trkpt lat="45.95328" lon="4.48817">
        <ele>586.06</ele>
        <time>2018-05-20T12:19:09Z</time>
      </trkpt>
      <trkpt lat="45.95307" lon="4.4881">
        <ele>581.73</ele>
        <time>2018-05-20T12:19:31Z</time>
      </trkpt>
      <trkpt lat="45.95286" lon="4.48802">
        <ele>589.43</ele>
        <time>2018-05-20T12:19:46Z</time>
      </trkpt>
      <trkpt lat="45.95263" lon="4.488">
        <ele>586.54</ele>
        <time>2018-05-20T12:20:12Z</time>
      </trkpt>
      <trkpt lat="45.95237" lon="4.48797">
        <ele>580.77</ele>
        <time>2018-05-20T12:20:35Z</time>
      </trkpt>
      <trkpt lat="45.95203" lon="4.48804">
        <ele>576.45</ele>
        <time>2018-05-20T12:21:01Z</time>
      </trkpt>
      <trkpt lat="45.95185" lon="4.48826">
        <ele>574.04</ele>
        <time>2018-05-20T12:21:23Z</time>
      </trkpt>
      <trkpt lat="45.95167" lon="4.48854">
        <ele>566.83</ele>
        <time>2018-05-20T12:21:48Z</time>
      </trkpt>
      <trkpt lat="45.95164" lon="4.48864">
        <ele>569.24</ele>
        <time>2018-05-20T12:21:52Z</time>
      </trkpt>
      <trkpt lat="45.9515" lon="4.48893">
        <ele>567.8</ele>
        <time>2018-05-20T12:22:13Z</time>
      </trkpt>
      <trkpt lat="45.95146" lon="4.4893">
        <ele>562.99</ele>
        <time>2018-05-20T12:22:34Z</time>
      </trkpt>
      <trkpt lat="45.95138" lon="4.4896">
        <ele>557.7</ele>
        <time>2018-05-20T12:22:55Z</time>
      </trkpt>
      <trkpt lat="45.95128" lon="4.48981">
        <ele>550.49</ele>
        <time>2018-05-20T12:23:19Z</time>
      </trkpt>
      <trkpt lat="45.95107" lon="4.49002">
        <ele>551.93</ele>
        <time>2018-05-20T12:23:42Z</time>
      </trkpt>
      <trkpt lat="45.9509" lon="4.49024">
        <ele>549.05</ele>
        <time>2018-05-20T12:24:04Z</time>
      </trkpt>
      <trkpt lat="45.95074" lon="4.49063">
        <ele>545.69</ele>
        <time>2018-05-20T12:24:28Z</time>
      </trkpt>
      <trkpt lat="45.95072" lon="4.49099">
        <ele>545.69</ele>
        <time>2018-05-20T12:24:52Z</time>
      </trkpt>
      <trkpt lat="45.95062" lon="4.49132">
        <ele>555.3</ele>
        <time>2018-05-20T12:25:15Z</time>
      </trkpt>
      <trkpt lat="45.95051" lon="4.49149">
        <ele>560.59</ele>
        <time>2018-05-20T12:25:36Z</time>
      </trkpt>
      <trkpt lat="45.95042" lon="4.49167">
        <ele>566.35</ele>
        <time>2018-05-20T12:25:57Z</time>
      </trkpt>
      <trkpt lat="45.95022" lon="4.4918">
        <ele>573.56</ele>
        <time>2018-05-20T12:26:18Z</time>
      </trkpt>
      <trkpt lat="45.95021" lon="4.49187">
        <ele>575.01</ele>
        <time>2018-05-20T12:26:36Z</time>
      </trkpt>
      <trkpt lat="45.94995" lon="4.49205">
        <ele>577.41</ele>
        <time>2018-05-20T12:26:59Z</time>
      </trkpt>
      <trkpt lat="45.94964" lon="4.49221">
        <ele>576.45</ele>
        <time>2018-05-20T12:27:23Z</time>
      </trkpt>
      <trkpt lat="45.94952" lon="4.4923">
        <ele>567.8</ele>
        <time>2018-05-20T12:27:49Z</time>
      </trkpt>
      <trkpt lat="45.94942" lon="4.49238">
        <ele>558.18</ele>
        <time>2018-05-20T12:28:13Z</time>
      </trkpt>
      <trkpt lat="45.94911" lon="4.49268">
        <ele>559.62</ele>
        <time>2018-05-20T12:28:35Z</time>
      </trkpt>
      <trkpt lat="45.94904" lon="4.49283">
        <ele>555.78</ele>
        <time>2018-05-20T12:28:58Z</time>
      </trkpt>
      <trkpt lat="45.94905" lon="4.49288">
        <ele>554.82</ele>
        <time>2018-05-20T12:29:23Z</time>
      </trkpt>
      <trkpt lat="45.94909" lon="4.49289">
        <ele>552.41</ele>
        <time>2018-05-20T12:29:47Z</time>
      </trkpt>
      <trkpt lat="45.94907" lon="4.49293">
        <ele>557.22</ele>
        <time>2018-05-20T12:30:10Z</time>
      </trkpt>
      <trkpt lat="45.94902" lon="4.4928">
        <ele>555.3</ele>
        <time>2018-05-20T12:30:30Z</time>
      </trkpt>
      <trkpt lat="45.94905" lon="4.49274">
        <ele>552.9</ele>
        <time>2018-05-20T12:30:56Z</time>
      </trkpt>
      <trkpt lat="45.94916" lon="4.49279">
        <ele>556.26</ele>
        <time>2018-05-20T12:31:18Z</time>
      </trkpt>
      <trkpt lat="45.94927" lon="4.49314">
        <ele>576.93</ele>
        <time>2018-05-20T12:31:38Z</time>
      </trkpt>
      <trkpt lat="45.94935" lon="4.49347">
        <ele>592.31</ele>
        <time>2018-05-20T12:31:55Z</time>
      </trkpt>
      <trkpt lat="45.9493" lon="4.49373">
        <ele>600.48</ele>
        <time>2018-05-20T12:32:15Z</time>
      </trkpt>
      <trkpt lat="45.94924" lon="4.494">
        <ele>606.25</ele>
        <time>2018-05-20T12:32:35Z</time>
      </trkpt>
      <trkpt lat="45.94924" lon="4.49415">
        <ele>609.61</ele>
        <time>2018-05-20T12:32:48Z</time>
      </trkpt>
      <trkpt lat="45.94926" lon="4.4941">
        <ele>614.42</ele>
        <time>2018-05-20T12:33:14Z</time>
      </trkpt>
      <trkpt lat="45.94925" lon="4.49413">
        <ele>612.98</ele>
        <time>2018-05-20T12:33:35Z</time>
      </trkpt>
      <trkpt lat="45.94931" lon="4.49424">
        <ele>611.06</ele>
        <time>2018-05-20T12:33:54Z</time>
      </trkpt>
      <trkpt lat="45.94926" lon="4.49457">
        <ele>608.65</ele>
        <time>2018-05-20T12:34:13Z</time>
      </trkpt>
      <trkpt lat="45.94917" lon="4.49491">
        <ele>608.65</ele>
        <time>2018-05-20T12:34:34Z</time>
      </trkpt>
      <trkpt lat="45.94909" lon="4.49526">
        <ele>609.13</ele>
        <time>2018-05-20T12:34:57Z</time>
      </trkpt>
      <trkpt lat="45.94899" lon="4.49554">
        <ele>605.29</ele>
        <time>2018-05-20T12:35:20Z</time>
      </trkpt>
      <trkpt lat="45.94886" lon="4.49579">
        <ele>602.4</ele>
        <time>2018-05-20T12:35:38Z</time>
      </trkpt>
      <trkpt lat="45.94876" lon="4.49598">
        <ele>599.04</ele>
        <time>2018-05-20T12:35:55Z</time>
      </trkpt>
      <trkpt lat="45.94862" lon="4.49621">
        <ele>592.31</ele>
        <time>2018-05-20T12:36:17Z</time>
      </trkpt>
      <trkpt lat="45.94851" lon="4.49649">
        <ele>585.1</ele>
        <time>2018-05-20T12:36:38Z</time>
      </trkpt>
      <trkpt lat="45.94848" lon="4.49676">
        <ele>574.53</ele>
        <time>2018-05-20T12:37:02Z</time>
      </trkpt>
      <trkpt lat="45.94855" lon="4.49704">
        <ele>566.35</ele>
        <time>2018-05-20T12:37:22Z</time>
      </trkpt>
      <trkpt lat="45.9487" lon="4.49722">
        <ele>566.83</ele>
        <time>2018-05-20T12:37:42Z</time>
      </trkpt>
      <trkpt lat="45.94883" lon="4.49729">
        <ele>566.83</ele>
        <time>2018-05-20T12:38:05Z</time>
      </trkpt>
      <trkpt lat="45.94898" lon="4.49733">
        <ele>567.32</ele>
        <time>2018-05-20T12:38:23Z</time>
      </trkpt>
      <trkpt lat="45.94905" lon="4.49754">
        <ele>567.32</ele>
        <time>2018-05-20T12:38:39Z</time>
      </trkpt>
      <trkpt lat="45.94905" lon="4.49773">
        <ele>566.83</ele>
        <time>2018-05-20T12:38:54Z</time>
      </trkpt>
      <trkpt lat="45.94902" lon="4.49789">
        <ele>566.83</ele>
        <time>2018-05-20T12:39:05Z</time>
      </trkpt>
      <trkpt lat="45.94898" lon="4.49819">
        <ele>566.35</ele>
        <time>2018-05-20T12:39:22Z</time>
      </trkpt>
      <trkpt lat="45.94897" lon="4.4985">
        <ele>564.91</ele>
        <time>2018-05-20T12:39:40Z</time>
      </trkpt>
      <trkpt lat="45.94892" lon="4.49882">
        <ele>562.99</ele>
        <time>2018-05-20T12:39:58Z</time>
      </trkpt>
      <trkpt lat="45.94893" lon="4.49895">
        <ele>561.55</ele>
        <time>2018-05-20T12:40:07Z</time>
      </trkpt>
      <trkpt lat="45.94897" lon="4.49922">
        <ele>553.86</ele>
        <time>2018-05-20T12:40:30Z</time>
      </trkpt>
      <trkpt lat="45.94892" lon="4.4994">
        <ele>545.2</ele>
        <time>2018-05-20T12:40:51Z</time>
      </trkpt>
      <trkpt lat="45.9488" lon="4.49959">
        <ele>539.44</ele>
        <time>2018-05-20T12:41:17Z</time>
      </trkpt>
      <trkpt lat="45.94883" lon="4.49971">
        <ele>536.07</ele>
        <time>2018-05-20T12:41:34Z</time>
      </trkpt>
      <trkpt lat="45.94879" lon="4.49999">
        <ele>527.9</ele>
        <time>2018-05-20T12:41:56Z</time>
      </trkpt>
      <trkpt lat="45.94878" lon="4.50036">
        <ele>526.94</ele>
        <time>2018-05-20T12:42:15Z</time>
      </trkpt>
      <trkpt lat="45.94874" lon="4.50068">
        <ele>525.5</ele>
        <time>2018-05-20T12:42:36Z</time>
      </trkpt>
      <trkpt lat="45.94871" lon="4.50082">
        <ele>524.06</ele>
        <time>2018-05-20T12:42:46Z</time>
      </trkpt>
      <trkpt lat="45.94871" lon="4.50121">
        <ele>524.06</ele>
        <time>2018-05-20T12:43:08Z</time>
      </trkpt>
      <trkpt lat="45.9487" lon="4.50146">
        <ele>524.06</ele>
        <time>2018-05-20T12:43:26Z</time>
      </trkpt>
      <trkpt lat="45.94864" lon="4.50188">
        <ele>521.17</ele>
        <time>2018-05-20T12:43:51Z</time>
      </trkpt>
      <trkpt lat="45.94854" lon="4.50224">
        <ele>516.37</ele>
        <time>2018-05-20T12:44:12Z</time>
      </trkpt>
      <trkpt lat="45.94853" lon="4.50257">
        <ele>515.88</ele>
        <time>2018-05-20T12:44:30Z</time>
      </trkpt>
      <trkpt lat="45.94856" lon="4.5029">
        <ele>515.4</ele>
        <time>2018-05-20T12:44:50Z</time>
      </trkpt>
      <trkpt lat="45.94858" lon="4.50314">
        <ele>513.48</ele>
        <time>2018-05-20T12:45:07Z</time>
      </trkpt>
      <trkpt lat="45.94863" lon="4.50324">
        <ele>512.04</ele>
        <time>2018-05-20T12:45:14Z</time>
      </trkpt>
      <trkpt lat="45.94866" lon="4.50363">
        <ele>509.16</ele>
        <time>2018-05-20T12:45:36Z</time>
      </trkpt>
      <trkpt lat="45.94865" lon="4.50368">
        <ele>508.67</ele>
        <time>2018-05-20T12:45:39Z</time>
      </trkpt>
      <trkpt lat="45.94863" lon="4.50368">
        <ele>504.35</ele>
        <time>2018-05-20T12:45:43Z</time>
      </trkpt>
      <trkpt lat="45.94863" lon="4.50403">
        <ele>501.95</ele>
        <time>2018-05-20T12:46:04Z</time>
      </trkpt>
      <trkpt lat="45.94857" lon="4.50432">
        <ele>498.58</ele>
        <time>2018-05-20T12:46:25Z</time>
      </trkpt>
      <trkpt lat="45.94858" lon="4.50467">
        <ele>494.26</ele>
        <time>2018-05-20T12:46:45Z</time>
      </trkpt>
      <trkpt lat="45.94869" lon="4.50494">
        <ele>489.45</ele>
        <time>2018-05-20T12:47:04Z</time>
      </trkpt>
      <trkpt lat="45.9487" lon="4.50502">
        <ele>487.05</ele>
        <time>2018-05-20T12:47:10Z</time>
      </trkpt>
      <trkpt lat="45.94868" lon="4.50538">
        <ele>477.91</ele>
        <time>2018-05-20T12:47:33Z</time>
      </trkpt>
      <trkpt lat="45.94855" lon="4.50567">
        <ele>473.59</ele>
        <time>2018-05-20T12:47:53Z</time>
      </trkpt>
      <trkpt lat="45.94845" lon="4.50599">
        <ele>471.18</ele>
        <time>2018-05-20T12:48:11Z</time>
      </trkpt>
      <trkpt lat="45.94857" lon="4.50633">
        <ele>467.82</ele>
        <time>2018-05-20T12:48:32Z</time>
      </trkpt>
      <trkpt lat="45.94869" lon="4.50659">
        <ele>462.53</ele>
        <time>2018-05-20T12:48:54Z</time>
      </trkpt>
      <trkpt lat="45.94873" lon="4.50687">
        <ele>453.88</ele>
        <time>2018-05-20T12:49:16Z</time>
      </trkpt>
      <trkpt lat="45.94872" lon="4.5069">
        <ele>452.44</ele>
        <time>2018-05-20T12:49:19Z</time>
      </trkpt>
      <trkpt lat="45.94867" lon="4.50723">
        <ele>448.11</ele>
        <time>2018-05-20T12:49:39Z</time>
      </trkpt>
      <trkpt lat="45.9486" lon="4.50749">
        <ele>445.71</ele>
        <time>2018-05-20T12:49:58Z</time>
      </trkpt>
      <trkpt lat="45.94846" lon="4.50776">
        <ele>444.27</ele>
        <time>2018-05-20T12:50:19Z</time>
      </trkpt>
      <trkpt lat="45.94833" lon="4.50787">
        <ele>442.34</ele>
        <time>2018-05-20T12:50:37Z</time>
      </trkpt>
      <trkpt lat="45.94821" lon="4.50808">
        <ele>439.94</ele>
        <time>2018-05-20T12:50:55Z</time>
      </trkpt>
      <trkpt lat="45.94824" lon="4.50825">
        <ele>439.46</ele>
        <time>2018-05-20T12:51:13Z</time>
      </trkpt>
      <trkpt lat="45.94826" lon="4.50843">
        <ele>437.54</ele>
        <time>2018-05-20T12:51:28Z</time>
      </trkpt>
      <trkpt lat="45.94826" lon="4.50871">
        <ele>436.58</ele>
        <time>2018-05-20T12:51:47Z</time>
      </trkpt>
      <trkpt lat="45.94826" lon="4.50879">
        <ele>436.58</ele>
        <time>2018-05-20T12:51:52Z</time>
      </trkpt>
      <trkpt lat="45.94832" lon="4.50891">
        <ele>436.58</ele>
        <time>2018-05-20T12:52:10Z</time>
      </trkpt>
      <trkpt lat="45.94831" lon="4.50901">
        <ele>434.17</ele>
        <time>2018-05-20T12:52:30Z</time>
      </trkpt>
      <trkpt lat="45.94832" lon="4.50932">
        <ele>433.69</ele>
        <time>2018-05-20T12:52:51Z</time>
      </trkpt>
      <trkpt lat="45.94836" lon="4.5096">
        <ele>432.25</ele>
        <time>2018-05-20T12:53:08Z</time>
      </trkpt>
      <trkpt lat="45.94839" lon="4.50986">
        <ele>428.89</ele>
        <time>2018-05-20T12:53:26Z</time>
      </trkpt>
      <trkpt lat="45.94841" lon="4.51014">
        <ele>426</ele>
        <time>2018-05-20T12:53:44Z</time>
      </trkpt>
      <trkpt lat="45.94846" lon="4.51044">
        <ele>424.08</ele>
        <time>2018-05-20T12:54:05Z</time>
      </trkpt>
      <trkpt lat="45.94851" lon="4.5106">
        <ele>423.12</ele>
        <time>2018-05-20T12:54:16Z</time>
      </trkpt>
      <trkpt lat="45.94868" lon="4.51094">
        <ele>422.64</ele>
        <time>2018-05-20T12:54:38Z</time>
      </trkpt>
      <trkpt lat="45.94874" lon="4.51118">
        <ele>421.68</ele>
        <time>2018-05-20T12:54:55Z</time>
      </trkpt>
      <trkpt lat="45.9487" lon="4.51149">
        <ele>419.75</ele>
        <time>2018-05-20T12:55:17Z</time>
      </trkpt>
      <trkpt lat="45.94869" lon="4.51157">
        <ele>419.75</ele>
        <time>2018-05-20T12:55:21Z</time>
      </trkpt>
      <trkpt lat="45.94867" lon="4.51194">
        <ele>419.75</ele>
        <time>2018-05-20T12:55:42Z</time>
      </trkpt>
      <trkpt lat="45.94864" lon="4.51213">
        <ele>419.75</ele>
        <time>2018-05-20T12:55:54Z</time>
      </trkpt>
      <trkpt lat="45.94856" lon="4.51242">
        <ele>418.31</ele>
        <time>2018-05-20T12:56:14Z</time>
      </trkpt>
      <trkpt lat="45.94857" lon="4.51274">
        <ele>415.91</ele>
        <time>2018-05-20T12:56:33Z</time>
      </trkpt>
      <trkpt lat="45.94855" lon="4.51283">
        <ele>415.43</ele>
        <time>2018-05-20T12:56:39Z</time>
      </trkpt>
      <trkpt lat="45.94847" lon="4.51308">
        <ele>413.98</ele>
        <time>2018-05-20T12:56:56Z</time>
      </trkpt>
      <trkpt lat="45.94839" lon="4.51334">
        <ele>412.06</ele>
        <time>2018-05-20T12:57:13Z</time>
      </trkpt>
      <trkpt lat="45.94836" lon="4.51363">
        <ele>409.66</ele>
        <time>2018-05-20T12:57:31Z</time>
      </trkpt>
      <trkpt lat="45.94831" lon="4.51396">
        <ele>405.33</ele>
        <time>2018-05-20T12:57:52Z</time>
      </trkpt>
      <trkpt lat="45.94836" lon="4.51437">
        <ele>402.93</ele>
        <time>2018-05-20T12:58:16Z</time>
      </trkpt>
      <trkpt lat="45.94833" lon="4.51457">
        <ele>401.97</ele>
        <time>2018-05-20T12:58:29Z</time>
      </trkpt>
      <trkpt lat="45.94835" lon="4.51484">
        <ele>399.08</ele>
        <time>2018-05-20T12:58:47Z</time>
      </trkpt>
      <trkpt lat="45.94835" lon="4.51523">
        <ele>396.2</ele>
        <time>2018-05-20T12:59:09Z</time>
      </trkpt>
      <trkpt lat="45.94831" lon="4.51548">
        <ele>394.76</ele>
        <time>2018-05-20T12:59:24Z</time>
      </trkpt>
      <trkpt lat="45.94826" lon="4.51565">
        <ele>388.99</ele>
        <time>2018-05-20T12:59:37Z</time>
      </trkpt>
      <trkpt lat="45.94831" lon="4.51595">
        <ele>384.66</ele>
        <time>2018-05-20T12:59:54Z</time>
      </trkpt>
      <trkpt lat="45.94829" lon="4.51619">
        <ele>385.15</ele>
        <time>2018-05-20T13:00:07Z</time>
      </trkpt>
      <trkpt lat="45.94826" lon="4.51653">
        <ele>384.66</ele>
        <time>2018-05-20T13:00:27Z</time>
      </trkpt>
      <trkpt lat="45.94828" lon="4.51686">
        <ele>382.26</ele>
        <time>2018-05-20T13:00:47Z</time>
      </trkpt>
      <trkpt lat="45.94818" lon="4.51721">
        <ele>378.9</ele>
        <time>2018-05-20T13:01:08Z</time>
      </trkpt>
      <trkpt lat="45.94814" lon="4.51758">
        <ele>377.94</ele>
        <time>2018-05-20T13:01:30Z</time>
      </trkpt>
      <trkpt lat="45.9481" lon="4.5178">
        <ele>373.61</ele>
        <time>2018-05-20T13:01:50Z</time>
      </trkpt>
      <trkpt lat="45.94807" lon="4.5181">
        <ele>372.65</ele>
        <time>2018-05-20T13:02:11Z</time>
      </trkpt>
      <trkpt lat="45.948" lon="4.51842">
        <ele>370.73</ele>
        <time>2018-05-20T13:02:31Z</time>
      </trkpt>
      <trkpt lat="45.94795" lon="4.51875">
        <ele>366.88</ele>
        <time>2018-05-20T13:02:52Z</time>
      </trkpt>
      <trkpt lat="45.94793" lon="4.51905">
        <ele>362.55</ele>
        <time>2018-05-20T13:03:13Z</time>
      </trkpt>
      <trkpt lat="45.94792" lon="4.51923">
        <ele>361.59</ele>
        <time>2018-05-20T13:03:24Z</time>
      </trkpt>
      <trkpt lat="45.94798" lon="4.51947">
        <ele>362.07</ele>
        <time>2018-05-20T13:03:44Z</time>
      </trkpt>
      <trkpt lat="45.94794" lon="4.51978">
        <ele>361.11</ele>
        <time>2018-05-20T13:04:06Z</time>
      </trkpt>
      <trkpt lat="45.94794" lon="4.51991">
        <ele>357.27</ele>
        <time>2018-05-20T13:04:24Z</time>
      </trkpt>
      <trkpt lat="45.94794" lon="4.51992">
        <ele>355.34</ele>
        <time>2018-05-20T13:04:39Z</time>
      </trkpt>
      <trkpt lat="45.94791" lon="4.51986">
        <ele>354.38</ele>
        <time>2018-05-20T13:05:08Z</time>
      </trkpt>
      <trkpt lat="45.94788" lon="4.52003">
        <ele>353.42</ele>
        <time>2018-05-20T13:05:28Z</time>
      </trkpt>
      <trkpt lat="45.94783" lon="4.52022">
        <ele>352.94</ele>
        <time>2018-05-20T13:05:48Z</time>
      </trkpt>
      <trkpt lat="45.94782" lon="4.52036">
        <ele>351.02</ele>
        <time>2018-05-20T13:06:13Z</time>
      </trkpt>
      <trkpt lat="45.94771" lon="4.5206">
        <ele>343.81</ele>
        <time>2018-05-20T13:06:35Z</time>
      </trkpt>
      <trkpt lat="45.94766" lon="4.52067">
        <ele>342.37</ele>
        <time>2018-05-20T13:06:41Z</time>
      </trkpt>
      <trkpt lat="45.94762" lon="4.52085">
        <ele>339</ele>
        <time>2018-05-20T13:07:01Z</time>
      </trkpt>
      <trkpt lat="45.94747" lon="4.52112">
        <ele>334.2</ele>
        <time>2018-05-20T13:07:21Z</time>
      </trkpt>
      <trkpt lat="45.94738" lon="4.52136">
        <ele>330.35</ele>
        <time>2018-05-20T13:07:41Z</time>
      </trkpt>
      <trkpt lat="45.94726" lon="4.52157">
        <ele>323.62</ele>
        <time>2018-05-20T13:08:01Z</time>
      </trkpt>
      <trkpt lat="45.94707" lon="4.52189">
        <ele>321.7</ele>
        <time>2018-05-20T13:08:25Z</time>
      </trkpt>
      <trkpt lat="45.94694" lon="4.52215">
        <ele>323.14</ele>
        <time>2018-05-20T13:08:44Z</time>
      </trkpt>
      <trkpt lat="45.94676" lon="4.52224">
        <ele>321.22</ele>
        <time>2018-05-20T13:09:07Z</time>
      </trkpt>
      <trkpt lat="45.94677" lon="4.52231">
        <ele>319.78</ele>
        <time>2018-05-20T13:09:23Z</time>
      </trkpt>
      <trkpt lat="45.94691" lon="4.52243">
        <ele>314.49</ele>
        <time>2018-05-20T13:09:33Z</time>
      </trkpt>
      <trkpt lat="45.94693" lon="4.52265">
        <ele>307.28</ele>
        <time>2018-05-20T13:09:54Z</time>
      </trkpt>
      <trkpt lat="45.94693" lon="4.52325">
        <ele>304.88</ele>
        <time>2018-05-20T13:10:36Z</time>
      </trkpt>
      <trkpt lat="45.94695" lon="4.52356">
        <ele>304.88</ele>
        <time>2018-05-20T13:10:57Z</time>
      </trkpt>
      <trkpt lat="45.94696" lon="4.52386">
        <ele>304.88</ele>
        <time>2018-05-20T13:11:17Z</time>
      </trkpt>
      <trkpt lat="45.94691" lon="4.5242">
        <ele>304.88</ele>
        <time>2018-05-20T13:11:44Z</time>
      </trkpt>
      <trkpt lat="45.94685" lon="4.52455">
        <ele>307.28</ele>
        <time>2018-05-20T13:12:09Z</time>
      </trkpt>
      <trkpt lat="45.94674" lon="4.52476">
        <ele>312.09</ele>
        <time>2018-05-20T13:12:30Z</time>
      </trkpt>
      <trkpt lat="45.9466" lon="4.52498">
        <ele>317.85</ele>
        <time>2018-05-20T13:12:53Z</time>
      </trkpt>
      <trkpt lat="45.94646" lon="4.52518">
        <ele>322.18</ele>
        <time>2018-05-20T13:13:17Z</time>
      </trkpt>
      <trkpt lat="45.94648" lon="4.52523">
        <ele>325.06</ele>
        <time>2018-05-20T13:13:36Z</time>
      </trkpt>
      <trkpt lat="45.94653" lon="4.52532">
        <ele>327.95</ele>
        <time>2018-05-20T13:13:56Z</time>
      </trkpt>
      <trkpt lat="45.94646" lon="4.52552">
        <ele>332.75</ele>
        <time>2018-05-20T13:14:19Z</time>
      </trkpt>
      <trkpt lat="45.94602" lon="4.52565">
        <ele>354.38</ele>
        <time>2018-05-20T13:14:39Z</time>
      </trkpt>
      <trkpt lat="45.94594" lon="4.5258">
        <ele>349.1</ele>
        <time>2018-05-20T13:14:56Z</time>
      </trkpt>
      <trkpt lat="45.94596" lon="4.52604">
        <ele>351.02</ele>
        <time>2018-05-20T13:15:08Z</time>
      </trkpt>
      <trkpt lat="45.94582" lon="4.52647">
        <ele>359.19</ele>
        <time>2018-05-20T13:15:32Z</time>
      </trkpt>
      <trkpt lat="45.94579" lon="4.52669">
        <ele>358.23</ele>
        <time>2018-05-20T13:15:51Z</time>
      </trkpt>
      <trkpt lat="45.94584" lon="4.52674">
        <ele>357.75</ele>
        <time>2018-05-20T13:16:07Z</time>
      </trkpt>
      <trkpt lat="45.94574" lon="4.52678">
        <ele>358.71</ele>
        <time>2018-05-20T13:16:34Z</time>
      </trkpt>
      <trkpt lat="45.9457" lon="4.52718">
        <ele>356.31</ele>
        <time>2018-05-20T13:16:58Z</time>
      </trkpt>
      <trkpt lat="45.94563" lon="4.52733">
        <ele>358.71</ele>
        <time>2018-05-20T13:17:18Z</time>
      </trkpt>
      <trkpt lat="45.94565" lon="4.5272">
        <ele>359.19</ele>
        <time>2018-05-20T13:17:43Z</time>
      </trkpt>
      <trkpt lat="45.94577" lon="4.52685">
        <ele>358.71</ele>
        <time>2018-05-20T13:18:05Z</time>
      </trkpt>
      <trkpt lat="45.94583" lon="4.52676">
        <ele>354.38</ele>
        <time>2018-05-20T13:18:20Z</time>
      </trkpt>
      <trkpt lat="45.94587" lon="4.52685">
        <ele>350.06</ele>
        <time>2018-05-20T13:18:42Z</time>
      </trkpt>
      <trkpt lat="45.94592" lon="4.52692">
        <ele>346.69</ele>
        <time>2018-05-20T13:19:04Z</time>
      </trkpt>
      <trkpt lat="45.94597" lon="4.52687">
        <ele>340.92</ele>
        <time>2018-05-20T13:19:19Z</time>
      </trkpt>
      <trkpt lat="45.94591" lon="4.52693">
        <ele>333.71</ele>
        <time>2018-05-20T13:19:35Z</time>
      </trkpt>
      <trkpt lat="45.94587" lon="4.52719">
        <ele>331.79</ele>
        <time>2018-05-20T13:19:54Z</time>
      </trkpt>
      <trkpt lat="45.94579" lon="4.52749">
        <ele>330.83</ele>
        <time>2018-05-20T13:20:15Z</time>
      </trkpt>
      <trkpt lat="45.94571" lon="4.52785">
        <ele>329.87</ele>
        <time>2018-05-20T13:20:38Z</time>
      </trkpt>
      <trkpt lat="45.9456" lon="4.52823">
        <ele>330.35</ele>
        <time>2018-05-20T13:21:03Z</time>
      </trkpt>
      <trkpt lat="45.94549" lon="4.52856">
        <ele>326.02</ele>
        <time>2018-05-20T13:21:25Z</time>
      </trkpt>
      <trkpt lat="45.94537" lon="4.52888">
        <ele>326.5</ele>
        <time>2018-05-20T13:21:46Z</time>
      </trkpt>
      <trkpt lat="45.94524" lon="4.5292">
        <ele>324.58</ele>
        <time>2018-05-20T13:22:09Z</time>
      </trkpt>
      <trkpt lat="45.94521" lon="4.52928">
        <ele>324.1</ele>
        <time>2018-05-20T13:22:15Z</time>
      </trkpt>
      <trkpt lat="45.94507" lon="4.52956">
        <ele>319.78</ele>
        <time>2018-05-20T13:22:36Z</time>
      </trkpt>
      <trkpt lat="45.94498" lon="4.52985">
        <ele>316.41</ele>
        <time>2018-05-20T13:22:56Z</time>
      </trkpt>
      <trkpt lat="45.94492" lon="4.5302">
        <ele>314.49</ele>
        <time>2018-05-20T13:23:15Z</time>
      </trkpt>
      <trkpt lat="45.94489" lon="4.5305">
        <ele>309.2</ele>
        <time>2018-05-20T13:23:37Z</time>
      </trkpt>
      <trkpt lat="45.94489" lon="4.53083">
        <ele>304.39</ele>
        <time>2018-05-20T13:23:58Z</time>
      </trkpt>
      <trkpt lat="45.94484" lon="4.53109">
        <ele>301.03</ele>
        <time>2018-05-20T13:24:17Z</time>
      </trkpt>
      <trkpt lat="45.94479" lon="4.53131">
        <ele>298.63</ele>
        <time>2018-05-20T13:24:35Z</time>
      </trkpt>
      <trkpt lat="45.94478" lon="4.53164">
        <ele>295.74</ele>
        <time>2018-05-20T13:24:57Z</time>
      </trkpt>
      <trkpt lat="45.94475" lon="4.53189">
        <ele>292.38</ele>
        <time>2018-05-20T13:25:18Z</time>
      </trkpt>
      <trkpt lat="45.94469" lon="4.53218">
        <ele>289.49</ele>
        <time>2018-05-20T13:25:38Z</time>
      </trkpt>
      <trkpt lat="45.94468" lon="4.53243">
        <ele>285.17</ele>
        <time>2018-05-20T13:25:57Z</time>
      </trkpt>
      <trkpt lat="45.94467" lon="4.53277">
        <ele>283.73</ele>
        <time>2018-05-20T13:26:19Z</time>
      </trkpt>
      <trkpt lat="45.94467" lon="4.5331">
        <ele>281.8</ele>
        <time>2018-05-20T13:26:38Z</time>
      </trkpt>
      <trkpt lat="45.94461" lon="4.53338">
        <ele>280.84</ele>
        <time>2018-05-20T13:26:59Z</time>
      </trkpt>
      <trkpt lat="45.94455" lon="4.53346">
        <ele>281.32</ele>
        <time>2018-05-20T13:27:18Z</time>
      </trkpt>
      <trkpt lat="45.94449" lon="4.53352">
        <ele>280.84</ele>
        <time>2018-05-20T13:27:24Z</time>
      </trkpt>
      <trkpt lat="45.94429" lon="4.53369">
        <ele>279.88</ele>
        <time>2018-05-20T13:27:45Z</time>
      </trkpt>
      <trkpt lat="45.94427" lon="4.53372">
        <ele>279.88</ele>
        <time>2018-05-20T13:27:47Z</time>
      </trkpt>
      <trkpt lat="45.94419" lon="4.53409">
        <ele>277</ele>
        <time>2018-05-20T13:28:09Z</time>
      </trkpt>
      <trkpt lat="45.94432" lon="4.53427">
        <ele>274.59</ele>
        <time>2018-05-20T13:28:28Z</time>
      </trkpt>
      <trkpt lat="45.94439" lon="4.53438">
        <ele>274.11</ele>
        <time>2018-05-20T13:28:36Z</time>
      </trkpt>
      <trkpt lat="45.94448" lon="4.53456">
        <ele>272.67</ele>
        <time>2018-05-20T13:28:50Z</time>
      </trkpt>
      <trkpt lat="45.94462" lon="4.53486">
        <ele>269.79</ele>
        <time>2018-05-20T13:29:11Z</time>
      </trkpt>
      <trkpt lat="45.94474" lon="4.53519">
        <ele>270.75</ele>
        <time>2018-05-20T13:29:33Z</time>
      </trkpt>
      <trkpt lat="45.94486" lon="4.53558">
        <ele>269.79</ele>
        <time>2018-05-20T13:29:55Z</time>
      </trkpt>
      <trkpt lat="45.94494" lon="4.53583">
        <ele>270.75</ele>
        <time>2018-05-20T13:30:12Z</time>
      </trkpt>
      <trkpt lat="45.9451" lon="4.5361">
        <ele>273.15</ele>
        <time>2018-05-20T13:30:34Z</time>
      </trkpt>
      <trkpt lat="45.94527" lon="4.53632">
        <ele>275.07</ele>
        <time>2018-05-20T13:30:54Z</time>
      </trkpt>
      <trkpt lat="45.94546" lon="4.53655">
        <ele>274.11</ele>
        <time>2018-05-20T13:31:15Z</time>
      </trkpt>
      <trkpt lat="45.94564" lon="4.53681">
        <ele>278.92</ele>
        <time>2018-05-20T13:31:37Z</time>
      </trkpt>
      <trkpt lat="45.9458" lon="4.53686">
        <ele>278.92</ele>
        <time>2018-05-20T13:31:56Z</time>
      </trkpt>
      <trkpt lat="45.94586" lon="4.5367">
        <ele>277.48</ele>
        <time>2018-05-20T13:32:15Z</time>
      </trkpt>
      <trkpt lat="45.94588" lon="4.53658">
        <ele>275.07</ele>
        <time>2018-05-20T13:32:37Z</time>
      </trkpt>
      <trkpt lat="45.94596" lon="4.53658">
        <ele>275.07</ele>
        <time>2018-05-20T13:32:41Z</time>
      </trkpt>
      <trkpt lat="45.94601" lon="4.53662">
        <ele>275.07</ele>
        <time>2018-05-20T13:32:44Z</time>
      </trkpt>
      <trkpt lat="45.94603" lon="4.53664">
        <ele>275.07</ele>
        <time>2018-05-20T13:32:45Z</time>
      </trkpt>
      <trkpt lat="45.94606" lon="4.53671">
        <ele>275.07</ele>
        <time>2018-05-20T13:32:46Z</time>
      </trkpt>
    </trkseg>
  </trk>
</gpx>